<?xml version="1.0" encoding="UTF-8" standalone="no" ?>
<gpx xmlns="http://www.topografix.com/GPX/1/1" xmlns:xsi="http://www.w3.org/2001/XMLSchema-instance" xsi:schemaLocation="http://www.topografix.com/GPX/1/1 http://www.topografix.com/GPX/1/1/gpx.xsd" version="1.1" creator="VisuGPX - https://www.visugpx.com">
  <metadata>
    <name>Tour de l\'Île Sainte Lucie</name>
    <desc><![CDATA[Au départ de Port la nouvelle]]></desc>
  </metadata>
  <trk>
    <name><![CDATA[Île Sainte Lucie]]></name>
    <trkseg>
      <trkpt lat="43.04244" lon="3.05335">
        <ele>-0.40000000596046</ele>
        <time>2012-10-24T07:49:59Z</time>
      </trkpt>
      <trkpt lat="43.04241" lon="3.05335">
        <ele>-0.20000000298023</ele>
        <time>2012-10-24T07:50:10Z</time>
      </trkpt>
      <trkpt lat="43.04236" lon="3.05336">
        <ele>1</ele>
        <time>2012-10-24T07:51:23Z</time>
      </trkpt>
      <trkpt lat="43.04232" lon="3.05329">
        <ele>1</ele>
        <time>2012-10-24T07:51:31Z</time>
      </trkpt>
      <trkpt lat="43.04233" lon="3.05322">
        <ele>1.2000000476837</ele>
        <time>2012-10-24T07:51:38Z</time>
      </trkpt>
      <trkpt lat="43.04237" lon="3.05317">
        <ele>1.2000000476837</ele>
        <time>2012-10-24T07:51:45Z</time>
      </trkpt>
      <trkpt lat="43.04239" lon="3.05309">
        <ele>1.2000000476837</ele>
        <time>2012-10-24T07:51:52Z</time>
      </trkpt>
      <trkpt lat="43.0424" lon="3.05308">
        <ele>1.2000000476837</ele>
        <time>2012-10-24T07:51:53Z</time>
      </trkpt>
      <trkpt lat="43.04245" lon="3.05308">
        <ele>1.3999999761581</ele>
        <time>2012-10-24T07:51:59Z</time>
      </trkpt>
      <trkpt lat="43.04247" lon="3.0531">
        <ele>1.2000000476837</ele>
        <time>2012-10-24T07:52:02Z</time>
      </trkpt>
      <trkpt lat="43.04247" lon="3.0531">
        <ele>1.2000000476837</ele>
        <time>2012-10-24T07:52:04Z</time>
      </trkpt>
      <trkpt lat="43.04251" lon="3.05313">
        <ele>1.2000000476837</ele>
        <time>2012-10-24T07:52:09Z</time>
      </trkpt>
      <trkpt lat="43.04252" lon="3.05315">
        <ele>1.2000000476837</ele>
        <time>2012-10-24T07:52:10Z</time>
      </trkpt>
      <trkpt lat="43.04257" lon="3.05315">
        <ele>1.2000000476837</ele>
        <time>2012-10-24T07:52:15Z</time>
      </trkpt>
      <trkpt lat="43.04261" lon="3.05318">
        <ele>1.2000000476837</ele>
        <time>2012-10-24T07:52:19Z</time>
      </trkpt>
      <trkpt lat="43.04264" lon="3.0532">
        <ele>1.2000000476837</ele>
        <time>2012-10-24T07:52:22Z</time>
      </trkpt>
      <trkpt lat="43.04271" lon="3.05325">
        <ele>1.2000000476837</ele>
        <time>2012-10-24T07:52:30Z</time>
      </trkpt>
      <trkpt lat="43.04279" lon="3.0533">
        <ele>1</ele>
        <time>2012-10-24T07:52:38Z</time>
      </trkpt>
      <trkpt lat="43.04288" lon="3.05335">
        <ele>1</ele>
        <time>2012-10-24T07:52:47Z</time>
      </trkpt>
      <trkpt lat="43.04296" lon="3.05341">
        <ele>0.80000001192093</ele>
        <time>2012-10-24T07:52:56Z</time>
      </trkpt>
      <trkpt lat="43.04304" lon="3.05345">
        <ele>0.80000001192093</ele>
        <time>2012-10-24T07:53:03Z</time>
      </trkpt>
      <trkpt lat="43.04312" lon="3.05349">
        <ele>0.80000001192093</ele>
        <time>2012-10-24T07:53:11Z</time>
      </trkpt>
      <trkpt lat="43.04321" lon="3.05355">
        <ele>0.80000001192093</ele>
        <time>2012-10-24T07:53:20Z</time>
      </trkpt>
      <trkpt lat="43.04332" lon="3.05363">
        <ele>0.60000002384186</ele>
        <time>2012-10-24T07:53:32Z</time>
      </trkpt>
      <trkpt lat="43.04339" lon="3.05368">
        <ele>0.60000002384186</ele>
        <time>2012-10-24T07:53:39Z</time>
      </trkpt>
      <trkpt lat="43.0434" lon="3.05368">
        <ele>0.60000002384186</ele>
        <time>2012-10-24T07:53:40Z</time>
      </trkpt>
      <trkpt lat="43.04347" lon="3.05369">
        <ele>0.60000002384186</ele>
        <time>2012-10-24T07:53:45Z</time>
      </trkpt>
      <trkpt lat="43.04354" lon="3.05376">
        <ele>0.60000002384186</ele>
        <time>2012-10-24T07:53:53Z</time>
      </trkpt>
      <trkpt lat="43.04363" lon="3.05383">
        <ele>0.60000002384186</ele>
        <time>2012-10-24T07:54:02Z</time>
      </trkpt>
      <trkpt lat="43.04371" lon="3.05387">
        <ele>0.60000002384186</ele>
        <time>2012-10-24T07:54:10Z</time>
      </trkpt>
      <trkpt lat="43.04379" lon="3.05393">
        <ele>0.60000002384186</ele>
        <time>2012-10-24T07:54:18Z</time>
      </trkpt>
      <trkpt lat="43.04388" lon="3.05398">
        <ele>0.80000001192093</ele>
        <time>2012-10-24T07:54:26Z</time>
      </trkpt>
      <trkpt lat="43.04397" lon="3.05404">
        <ele>0.60000002384186</ele>
        <time>2012-10-24T07:54:35Z</time>
      </trkpt>
      <trkpt lat="43.04404" lon="3.05409">
        <ele>0.60000002384186</ele>
        <time>2012-10-24T07:54:42Z</time>
      </trkpt>
      <trkpt lat="43.04411" lon="3.05413">
        <ele>0.40000000596046</ele>
        <time>2012-10-24T07:54:49Z</time>
      </trkpt>
      <trkpt lat="43.04419" lon="3.05418">
        <ele>0.40000000596046</ele>
        <time>2012-10-24T07:54:56Z</time>
      </trkpt>
      <trkpt lat="43.04429" lon="3.05425">
        <ele>0.40000000596046</ele>
        <time>2012-10-24T07:55:05Z</time>
      </trkpt>
      <trkpt lat="43.04438" lon="3.0543">
        <ele>0.40000000596046</ele>
        <time>2012-10-24T07:55:13Z</time>
      </trkpt>
      <trkpt lat="43.04446" lon="3.05435">
        <ele>0.20000000298023</ele>
        <time>2012-10-24T07:55:21Z</time>
      </trkpt>
      <trkpt lat="43.04453" lon="3.05438">
        <ele>0.40000000596046</ele>
        <time>2012-10-24T07:55:28Z</time>
      </trkpt>
      <trkpt lat="43.04459" lon="3.05443">
        <ele>0.60000002384186</ele>
        <time>2012-10-24T07:55:35Z</time>
      </trkpt>
      <trkpt lat="43.04463" lon="3.05447">
        <ele>0.60000002384186</ele>
        <time>2012-10-24T07:55:40Z</time>
      </trkpt>
      <trkpt lat="43.04464" lon="3.05447">
        <ele>0.80000001192093</ele>
        <time>2012-10-24T07:55:42Z</time>
      </trkpt>
      <trkpt lat="43.04466" lon="3.05448">
        <ele>0.80000001192093</ele>
        <time>2012-10-24T07:55:45Z</time>
      </trkpt>
      <trkpt lat="43.04469" lon="3.05449">
        <ele>0.80000001192093</ele>
        <time>2012-10-24T07:55:47Z</time>
      </trkpt>
      <trkpt lat="43.04473" lon="3.05452">
        <ele>0.80000001192093</ele>
        <time>2012-10-24T07:55:51Z</time>
      </trkpt>
      <trkpt lat="43.04474" lon="3.05453">
        <ele>0.80000001192093</ele>
        <time>2012-10-24T07:55:52Z</time>
      </trkpt>
      <trkpt lat="43.0448" lon="3.05458">
        <ele>0.80000001192093</ele>
        <time>2012-10-24T07:55:58Z</time>
      </trkpt>
      <trkpt lat="43.04488" lon="3.05462">
        <ele>0.80000001192093</ele>
        <time>2012-10-24T07:56:05Z</time>
      </trkpt>
      <trkpt lat="43.04497" lon="3.05467">
        <ele>1</ele>
        <time>2012-10-24T07:56:13Z</time>
      </trkpt>
      <trkpt lat="43.04506" lon="3.05472">
        <ele>1</ele>
        <time>2012-10-24T07:56:21Z</time>
      </trkpt>
      <trkpt lat="43.04509" lon="3.05474">
        <ele>1</ele>
        <time>2012-10-24T07:56:24Z</time>
      </trkpt>
      <trkpt lat="43.04513" lon="3.05476">
        <ele>1</ele>
        <time>2012-10-24T07:56:28Z</time>
      </trkpt>
      <trkpt lat="43.04517" lon="3.05479">
        <ele>1.2000000476837</ele>
        <time>2012-10-24T07:56:32Z</time>
      </trkpt>
      <trkpt lat="43.04519" lon="3.0548">
        <ele>1.2000000476837</ele>
        <time>2012-10-24T07:56:34Z</time>
      </trkpt>
      <trkpt lat="43.04524" lon="3.05483">
        <ele>1</ele>
        <time>2012-10-24T07:56:38Z</time>
      </trkpt>
      <trkpt lat="43.04527" lon="3.05484">
        <ele>1</ele>
        <time>2012-10-24T07:56:40Z</time>
      </trkpt>
      <trkpt lat="43.04528" lon="3.05485">
        <ele>1</ele>
        <time>2012-10-24T07:56:41Z</time>
      </trkpt>
      <trkpt lat="43.04534" lon="3.05489">
        <ele>1</ele>
        <time>2012-10-24T07:56:46Z</time>
      </trkpt>
      <trkpt lat="43.04536" lon="3.05492">
        <ele>1.2000000476837</ele>
        <time>2012-10-24T07:56:50Z</time>
      </trkpt>
      <trkpt lat="43.04538" lon="3.05493">
        <ele>1.2000000476837</ele>
        <time>2012-10-24T07:56:52Z</time>
      </trkpt>
      <trkpt lat="43.04544" lon="3.05497">
        <ele>1.6000000238419</ele>
        <time>2012-10-24T07:57:00Z</time>
      </trkpt>
      <trkpt lat="43.0455" lon="3.055">
        <ele>1.7999999523163</ele>
        <time>2012-10-24T07:57:04Z</time>
      </trkpt>
      <trkpt lat="43.04551" lon="3.05501">
        <ele>2</ele>
        <time>2012-10-24T07:57:06Z</time>
      </trkpt>
      <trkpt lat="43.04554" lon="3.05503">
        <ele>1.7999999523163</ele>
        <time>2012-10-24T07:57:08Z</time>
      </trkpt>
      <trkpt lat="43.04556" lon="3.05505">
        <ele>1.7999999523163</ele>
        <time>2012-10-24T07:57:12Z</time>
      </trkpt>
      <trkpt lat="43.04564" lon="3.05512">
        <ele>1.6000000238419</ele>
        <time>2012-10-24T07:57:20Z</time>
      </trkpt>
      <trkpt lat="43.04573" lon="3.05519">
        <ele>1.3999999761581</ele>
        <time>2012-10-24T07:57:28Z</time>
      </trkpt>
      <trkpt lat="43.04578" lon="3.05523">
        <ele>1</ele>
        <time>2012-10-24T07:57:33Z</time>
      </trkpt>
      <trkpt lat="43.04587" lon="3.05528">
        <ele>0.80000001192093</ele>
        <time>2012-10-24T07:57:40Z</time>
      </trkpt>
      <trkpt lat="43.04594" lon="3.05532">
        <ele>0.60000002384186</ele>
        <time>2012-10-24T07:57:47Z</time>
      </trkpt>
      <trkpt lat="43.04604" lon="3.05535">
        <ele>0.40000000596046</ele>
        <time>2012-10-24T07:57:53Z</time>
      </trkpt>
      <trkpt lat="43.04608" lon="3.05538">
        <ele>0.20000000298023</ele>
        <time>2012-10-24T07:57:58Z</time>
      </trkpt>
      <trkpt lat="43.04608" lon="3.05539">
        <ele>0.20000000298023</ele>
        <time>2012-10-24T07:57:59Z</time>
      </trkpt>
      <trkpt lat="43.04613" lon="3.05543">
        <ele>1.6</ele>
        <time>2012-10-24T07:58:05Z</time>
      </trkpt>
      <trkpt lat="43.04614" lon="3.05544">
        <ele>1.6</ele>
        <time>2012-10-24T07:58:06Z</time>
      </trkpt>
      <trkpt lat="43.04621" lon="3.05548">
        <ele>-0.20000000298023</ele>
        <time>2012-10-24T07:58:13Z</time>
      </trkpt>
      <trkpt lat="43.04622" lon="3.05548">
        <ele>-0.20000000298023</ele>
        <time>2012-10-24T07:58:14Z</time>
      </trkpt>
      <trkpt lat="43.04626" lon="3.0555">
        <ele>1.8</ele>
        <time>2012-10-24T07:58:18Z</time>
      </trkpt>
      <trkpt lat="43.04637" lon="3.05557">
        <ele>-0.20000000298023</ele>
        <time>2012-10-24T07:58:26Z</time>
      </trkpt>
      <trkpt lat="43.04648" lon="3.05564">
        <ele>-0.20000000298023</ele>
        <time>2012-10-24T07:58:35Z</time>
      </trkpt>
      <trkpt lat="43.04656" lon="3.0557">
        <ele>-0.20000000298023</ele>
        <time>2012-10-24T07:58:42Z</time>
      </trkpt>
      <trkpt lat="43.04664" lon="3.05575">
        <ele>-0.20000000298023</ele>
        <time>2012-10-24T07:58:49Z</time>
      </trkpt>
      <trkpt lat="43.04673" lon="3.05578">
        <ele>-0.20000000298023</ele>
        <time>2012-10-24T07:58:56Z</time>
      </trkpt>
      <trkpt lat="43.04681" lon="3.05583">
        <ele>-0.40000000596046</ele>
        <time>2012-10-24T07:59:04Z</time>
      </trkpt>
      <trkpt lat="43.04689" lon="3.05588">
        <ele>-0.60000002384186</ele>
        <time>2012-10-24T07:59:12Z</time>
      </trkpt>
      <trkpt lat="43.04699" lon="3.05593">
        <ele>-0.80000001192093</ele>
        <time>2012-10-24T07:59:21Z</time>
      </trkpt>
      <trkpt lat="43.04709" lon="3.05599">
        <ele>-1</ele>
        <time>2012-10-24T07:59:30Z</time>
      </trkpt>
      <trkpt lat="43.04711" lon="3.05599">
        <ele>-1</ele>
        <time>2012-10-24T07:59:31Z</time>
      </trkpt>
      <trkpt lat="43.04714" lon="3.05604">
        <ele>-1.2000000476837</ele>
        <time>2012-10-24T07:59:35Z</time>
      </trkpt>
      <trkpt lat="43.04715" lon="3.05605">
        <ele>-1.2000000476837</ele>
        <time>2012-10-24T07:59:36Z</time>
      </trkpt>
      <trkpt lat="43.0472" lon="3.05611">
        <ele>-1.3999999761581</ele>
        <time>2012-10-24T07:59:43Z</time>
      </trkpt>
      <trkpt lat="43.0472" lon="3.05611">
        <ele>-1.6000000238419</ele>
        <time>2012-10-24T07:59:51Z</time>
      </trkpt>
      <trkpt lat="43.0472" lon="3.05607">
        <ele>2.5999999046326</ele>
        <time>2012-10-24T08:00:55Z</time>
      </trkpt>
      <trkpt lat="43.0472" lon="3.05607">
        <ele>2.5999999046326</ele>
        <time>2012-10-24T08:01:05Z</time>
      </trkpt>
      <trkpt lat="43.04718" lon="3.05606">
        <ele>2.4000000953674</ele>
        <time>2012-10-24T08:01:10Z</time>
      </trkpt>
      <trkpt lat="43.04712" lon="3.05602">
        <ele>2</ele>
        <time>2012-10-24T08:01:17Z</time>
      </trkpt>
      <trkpt lat="43.04711" lon="3.05599">
        <ele>1.6000000238419</ele>
        <time>2012-10-24T08:01:20Z</time>
      </trkpt>
      <trkpt lat="43.04707" lon="3.05596">
        <ele>1.3999999761581</ele>
        <time>2012-10-24T08:01:24Z</time>
      </trkpt>
      <trkpt lat="43.04705" lon="3.05595">
        <ele>1.2000000476837</ele>
        <time>2012-10-24T08:01:26Z</time>
      </trkpt>
      <trkpt lat="43.047" lon="3.05591">
        <ele>0.80000001192093</ele>
        <time>2012-10-24T08:01:33Z</time>
      </trkpt>
      <trkpt lat="43.04693" lon="3.05584">
        <ele>0.40000000596046</ele>
        <time>2012-10-24T08:01:43Z</time>
      </trkpt>
      <trkpt lat="43.04693" lon="3.05583">
        <ele>0.40000000596046</ele>
        <time>2012-10-24T08:01:44Z</time>
      </trkpt>
      <trkpt lat="43.04693" lon="3.05581">
        <ele>0.20000000298023</ele>
        <time>2012-10-24T08:01:46Z</time>
      </trkpt>
      <trkpt lat="43.04693" lon="3.05582">
        <ele>0.20000000298023</ele>
        <time>2012-10-24T08:01:49Z</time>
      </trkpt>
      <trkpt lat="43.04693" lon="3.05577">
        <ele>-0.20000000298023</ele>
        <time>2012-10-24T08:02:08Z</time>
      </trkpt>
      <trkpt lat="43.04696" lon="3.05571">
        <ele>-0.20000000298023</ele>
        <time>2012-10-24T08:02:17Z</time>
      </trkpt>
      <trkpt lat="43.04699" lon="3.05567">
        <ele>-0.20000000298023</ele>
        <time>2012-10-24T08:02:22Z</time>
      </trkpt>
      <trkpt lat="43.04708" lon="3.05568">
        <ele>-0.40000000596046</ele>
        <time>2012-10-24T08:02:30Z</time>
      </trkpt>
      <trkpt lat="43.0471" lon="3.05569">
        <ele>-0.40000000596046</ele>
        <time>2012-10-24T08:02:32Z</time>
      </trkpt>
      <trkpt lat="43.04714" lon="3.05574">
        <ele>-0.60000002384186</ele>
        <time>2012-10-24T08:02:37Z</time>
      </trkpt>
      <trkpt lat="43.04715" lon="3.05574">
        <ele>-0.60000002384186</ele>
        <time>2012-10-24T08:02:38Z</time>
      </trkpt>
      <trkpt lat="43.04719" lon="3.05577">
        <ele>-0.80000001192093</ele>
        <time>2012-10-24T08:02:43Z</time>
      </trkpt>
      <trkpt lat="43.04726" lon="3.05581">
        <ele>-1</ele>
        <time>2012-10-24T08:02:50Z</time>
      </trkpt>
      <trkpt lat="43.04734" lon="3.05582">
        <ele>-1.3999999761581</ele>
        <time>2012-10-24T08:02:58Z</time>
      </trkpt>
      <trkpt lat="43.04737" lon="3.05582">
        <ele>-1.3999999761581</ele>
        <time>2012-10-24T08:03:13Z</time>
      </trkpt>
      <trkpt lat="43.04741" lon="3.05577">
        <ele>-1.2000000476837</ele>
        <time>2012-10-24T08:03:20Z</time>
      </trkpt>
      <trkpt lat="43.04744" lon="3.05574">
        <ele>-1</ele>
        <time>2012-10-24T08:03:22Z</time>
      </trkpt>
      <trkpt lat="43.04745" lon="3.0557">
        <ele>-1</ele>
        <time>2012-10-24T08:03:26Z</time>
      </trkpt>
      <trkpt lat="43.04747" lon="3.05568">
        <ele>-0.80000001192093</ele>
        <time>2012-10-24T08:03:28Z</time>
      </trkpt>
      <trkpt lat="43.04751" lon="3.05561">
        <ele>-0.80000001192093</ele>
        <time>2012-10-24T08:03:33Z</time>
      </trkpt>
      <trkpt lat="43.04754" lon="3.05553">
        <ele>-0.60000002384186</ele>
        <time>2012-10-24T08:03:40Z</time>
      </trkpt>
      <trkpt lat="43.04756" lon="3.05549">
        <ele>-0.60000002384186</ele>
        <time>2012-10-24T08:03:44Z</time>
      </trkpt>
      <trkpt lat="43.04757" lon="3.05544">
        <ele>-0.60000002384186</ele>
        <time>2012-10-24T08:03:47Z</time>
      </trkpt>
      <trkpt lat="43.04758" lon="3.0554">
        <ele>-0.60000002384186</ele>
        <time>2012-10-24T08:03:50Z</time>
      </trkpt>
      <trkpt lat="43.04759" lon="3.05538">
        <ele>-0.60000002384186</ele>
        <time>2012-10-24T08:03:53Z</time>
      </trkpt>
      <trkpt lat="43.0476" lon="3.05532">
        <ele>-0.60000002384186</ele>
        <time>2012-10-24T08:04:01Z</time>
      </trkpt>
      <trkpt lat="43.04762" lon="3.05523">
        <ele>-0.60000002384186</ele>
        <time>2012-10-24T08:04:09Z</time>
      </trkpt>
      <trkpt lat="43.04763" lon="3.05518">
        <ele>-0.60000002384186</ele>
        <time>2012-10-24T08:04:15Z</time>
      </trkpt>
      <trkpt lat="43.04765" lon="3.05511">
        <ele>-0.40000000596046</ele>
        <time>2012-10-24T08:04:23Z</time>
      </trkpt>
      <trkpt lat="43.04767" lon="3.05503">
        <ele>-0.40000000596046</ele>
        <time>2012-10-24T08:04:30Z</time>
      </trkpt>
      <trkpt lat="43.04768" lon="3.05501">
        <ele>-0.40000000596046</ele>
        <time>2012-10-24T08:04:32Z</time>
      </trkpt>
      <trkpt lat="43.0477" lon="3.05493">
        <ele>-0.40000000596046</ele>
        <time>2012-10-24T08:04:39Z</time>
      </trkpt>
      <trkpt lat="43.04771" lon="3.05489">
        <ele>-0.20000000298023</ele>
        <time>2012-10-24T08:04:43Z</time>
      </trkpt>
      <trkpt lat="43.04773" lon="3.05486">
        <ele>-0.20000000298023</ele>
        <time>2012-10-24T08:04:46Z</time>
      </trkpt>
      <trkpt lat="43.04773" lon="3.05485">
        <ele>-0.20000000298023</ele>
        <time>2012-10-24T08:04:47Z</time>
      </trkpt>
      <trkpt lat="43.04774" lon="3.05477">
        <ele>-0.20000000298023</ele>
        <time>2012-10-24T08:04:53Z</time>
      </trkpt>
      <trkpt lat="43.04779" lon="3.05464">
        <ele>1.3</ele>
        <time>2012-10-24T08:05:02Z</time>
      </trkpt>
      <trkpt lat="43.04781" lon="3.05455">
        <ele>1.7</ele>
        <time>2012-10-24T08:05:09Z</time>
      </trkpt>
      <trkpt lat="43.04784" lon="3.05447">
        <ele>1.9</ele>
        <time>2012-10-24T08:05:15Z</time>
      </trkpt>
      <trkpt lat="43.04784" lon="3.05438">
        <ele>0.20000000298023</ele>
        <time>2012-10-24T08:05:23Z</time>
      </trkpt>
      <trkpt lat="43.04785" lon="3.05437">
        <ele>0.20000000298023</ele>
        <time>2012-10-24T08:05:24Z</time>
      </trkpt>
      <trkpt lat="43.04787" lon="3.05431">
        <ele>0.20000000298023</ele>
        <time>2012-10-24T08:05:29Z</time>
      </trkpt>
      <trkpt lat="43.04789" lon="3.05425">
        <ele>0.20000000298023</ele>
        <time>2012-10-24T08:05:33Z</time>
      </trkpt>
      <trkpt lat="43.0479" lon="3.0542">
        <ele>0.20000000298023</ele>
        <time>2012-10-24T08:05:37Z</time>
      </trkpt>
      <trkpt lat="43.0479" lon="3.05415">
        <ele>0.40000000596046</ele>
        <time>2012-10-24T08:05:40Z</time>
      </trkpt>
      <trkpt lat="43.0479" lon="3.05412">
        <ele>0.40000000596046</ele>
        <time>2012-10-24T08:05:42Z</time>
      </trkpt>
      <trkpt lat="43.0479" lon="3.05409">
        <ele>0.40000000596046</ele>
        <time>2012-10-24T08:05:44Z</time>
      </trkpt>
      <trkpt lat="43.04792" lon="3.05401">
        <ele>0.60000002384186</ele>
        <time>2012-10-24T08:05:49Z</time>
      </trkpt>
      <trkpt lat="43.04797" lon="3.05395">
        <ele>0.80000001192093</ele>
        <time>2012-10-24T08:05:55Z</time>
      </trkpt>
      <trkpt lat="43.04804" lon="3.05396">
        <ele>1</ele>
        <time>2012-10-24T08:06:01Z</time>
      </trkpt>
      <trkpt lat="43.04808" lon="3.05398">
        <ele>1.2000000476837</ele>
        <time>2012-10-24T08:06:06Z</time>
      </trkpt>
      <trkpt lat="43.04811" lon="3.05399">
        <ele>1.2000000476837</ele>
        <time>2012-10-24T08:06:09Z</time>
      </trkpt>
      <trkpt lat="43.04814" lon="3.05401">
        <ele>1.3999999761581</ele>
        <time>2012-10-24T08:06:12Z</time>
      </trkpt>
      <trkpt lat="43.04818" lon="3.05403">
        <ele>1.3999999761581</ele>
        <time>2012-10-24T08:06:15Z</time>
      </trkpt>
      <trkpt lat="43.04824" lon="3.05409">
        <ele>1.2000000476837</ele>
        <time>2012-10-24T08:06:23Z</time>
      </trkpt>
      <trkpt lat="43.04825" lon="3.05414">
        <ele>1.2000000476837</ele>
        <time>2012-10-24T08:06:28Z</time>
      </trkpt>
      <trkpt lat="43.04825" lon="3.05415">
        <ele>1.2000000476837</ele>
        <time>2012-10-24T08:06:29Z</time>
      </trkpt>
      <trkpt lat="43.04826" lon="3.05416">
        <ele>1.2000000476837</ele>
        <time>2012-10-24T08:06:30Z</time>
      </trkpt>
      <trkpt lat="43.04827" lon="3.05422">
        <ele>1.2000000476837</ele>
        <time>2012-10-24T08:06:34Z</time>
      </trkpt>
      <trkpt lat="43.04831" lon="3.0543">
        <ele>1.2000000476837</ele>
        <time>2012-10-24T08:06:40Z</time>
      </trkpt>
      <trkpt lat="43.04833" lon="3.05436">
        <ele>1.3999999761581</ele>
        <time>2012-10-24T08:06:44Z</time>
      </trkpt>
      <trkpt lat="43.04836" lon="3.0544">
        <ele>1.3999999761581</ele>
        <time>2012-10-24T08:06:47Z</time>
      </trkpt>
      <trkpt lat="43.04839" lon="3.0545">
        <ele>1.3999999761581</ele>
        <time>2012-10-24T08:06:54Z</time>
      </trkpt>
      <trkpt lat="43.04844" lon="3.05463">
        <ele>1.3999999761581</ele>
        <time>2012-10-24T08:07:03Z</time>
      </trkpt>
      <trkpt lat="43.04853" lon="3.05476">
        <ele>1.2000000476837</ele>
        <time>2012-10-24T08:07:13Z</time>
      </trkpt>
      <trkpt lat="43.04861" lon="3.05485">
        <ele>1.2000000476837</ele>
        <time>2012-10-24T08:07:21Z</time>
      </trkpt>
      <trkpt lat="43.04869" lon="3.05491">
        <ele>1.2000000476837</ele>
        <time>2012-10-24T08:07:29Z</time>
      </trkpt>
      <trkpt lat="43.04878" lon="3.05495">
        <ele>1</ele>
        <time>2012-10-24T08:07:38Z</time>
      </trkpt>
      <trkpt lat="43.04886" lon="3.05499">
        <ele>1</ele>
        <time>2012-10-24T08:07:46Z</time>
      </trkpt>
      <trkpt lat="43.04888" lon="3.055">
        <ele>1</ele>
        <time>2012-10-24T08:07:53Z</time>
      </trkpt>
      <trkpt lat="43.04895" lon="3.05503">
        <ele>0.80000001192093</ele>
        <time>2012-10-24T08:08:01Z</time>
      </trkpt>
      <trkpt lat="43.04905" lon="3.05509">
        <ele>0.80000001192093</ele>
        <time>2012-10-24T08:08:11Z</time>
      </trkpt>
      <trkpt lat="43.04916" lon="3.0551">
        <ele>0.60000002384186</ele>
        <time>2012-10-24T08:08:22Z</time>
      </trkpt>
      <trkpt lat="43.04922" lon="3.05508">
        <ele>0.60000002384186</ele>
        <time>2012-10-24T08:08:30Z</time>
      </trkpt>
      <trkpt lat="43.04929" lon="3.05503">
        <ele>1</ele>
        <time>2012-10-24T08:08:38Z</time>
      </trkpt>
      <trkpt lat="43.04935" lon="3.05498">
        <ele>1.3999999761581</ele>
        <time>2012-10-24T08:08:45Z</time>
      </trkpt>
      <trkpt lat="43.04943" lon="3.05494">
        <ele>1.7999999523163</ele>
        <time>2012-10-24T08:08:53Z</time>
      </trkpt>
      <trkpt lat="43.0495" lon="3.05493">
        <ele>2.2000000476837</ele>
        <time>2012-10-24T08:09:00Z</time>
      </trkpt>
      <trkpt lat="43.04954" lon="3.05492">
        <ele>2.5999999046326</ele>
        <time>2012-10-24T08:09:06Z</time>
      </trkpt>
      <trkpt lat="43.04962" lon="3.05486">
        <ele>3</ele>
        <time>2012-10-24T08:09:15Z</time>
      </trkpt>
      <trkpt lat="43.04968" lon="3.05482">
        <ele>3.4000000953674</ele>
        <time>2012-10-24T08:09:22Z</time>
      </trkpt>
      <trkpt lat="43.0497" lon="3.0548">
        <ele>3.5999999046326</ele>
        <time>2012-10-24T08:09:25Z</time>
      </trkpt>
      <trkpt lat="43.04976" lon="3.05477">
        <ele>3.7999999523163</ele>
        <time>2012-10-24T08:09:30Z</time>
      </trkpt>
      <trkpt lat="43.04984" lon="3.0547">
        <ele>4.1999998092651</ele>
        <time>2012-10-24T08:09:38Z</time>
      </trkpt>
      <trkpt lat="43.0499" lon="3.0546">
        <ele>4.4000000953674</ele>
        <time>2012-10-24T08:09:46Z</time>
      </trkpt>
      <trkpt lat="43.04995" lon="3.05449">
        <ele>4.5999999046326</ele>
        <time>2012-10-24T08:09:55Z</time>
      </trkpt>
      <trkpt lat="43.05" lon="3.05439">
        <ele>4.8000001907349</ele>
        <time>2012-10-24T08:10:03Z</time>
      </trkpt>
      <trkpt lat="43.05005" lon="3.0543">
        <ele>4.8000001907349</ele>
        <time>2012-10-24T08:10:11Z</time>
      </trkpt>
      <trkpt lat="43.05009" lon="3.05423">
        <ele>5</ele>
        <time>2012-10-24T08:10:18Z</time>
      </trkpt>
      <trkpt lat="43.05013" lon="3.05414">
        <ele>5.1999998092651</ele>
        <time>2012-10-24T08:10:24Z</time>
      </trkpt>
      <trkpt lat="43.05018" lon="3.05403">
        <ele>5.4000000953674</ele>
        <time>2012-10-24T08:10:33Z</time>
      </trkpt>
      <trkpt lat="43.05024" lon="3.05395">
        <ele>5.5999999046326</ele>
        <time>2012-10-24T08:10:40Z</time>
      </trkpt>
      <trkpt lat="43.05029" lon="3.05386">
        <ele>5.8000001907349</ele>
        <time>2012-10-24T08:10:48Z</time>
      </trkpt>
      <trkpt lat="43.05035" lon="3.05375">
        <ele>6</ele>
        <time>2012-10-24T08:10:57Z</time>
      </trkpt>
      <trkpt lat="43.0504" lon="3.05368">
        <ele>6.1999998092651</ele>
        <time>2012-10-24T08:11:03Z</time>
      </trkpt>
      <trkpt lat="43.05047" lon="3.0536">
        <ele>6.5999999046326</ele>
        <time>2012-10-24T08:11:11Z</time>
      </trkpt>
      <trkpt lat="43.05055" lon="3.05352">
        <ele>6.8000001907349</ele>
        <time>2012-10-24T08:11:19Z</time>
      </trkpt>
      <trkpt lat="43.05061" lon="3.05345">
        <ele>7</ele>
        <time>2012-10-24T08:11:26Z</time>
      </trkpt>
      <trkpt lat="43.05067" lon="3.05337">
        <ele>7.1999998092651</ele>
        <time>2012-10-24T08:11:33Z</time>
      </trkpt>
      <trkpt lat="43.05072" lon="3.05329">
        <ele>7.5999999046326</ele>
        <time>2012-10-24T08:11:40Z</time>
      </trkpt>
      <trkpt lat="43.05077" lon="3.05323">
        <ele>7.8000001907349</ele>
        <time>2012-10-24T08:11:46Z</time>
      </trkpt>
      <trkpt lat="43.05082" lon="3.05315">
        <ele>8</ele>
        <time>2012-10-24T08:11:53Z</time>
      </trkpt>
      <trkpt lat="43.05088" lon="3.05307">
        <ele>8</ele>
        <time>2012-10-24T08:12:00Z</time>
      </trkpt>
      <trkpt lat="43.05093" lon="3.05302">
        <ele>8.1999998092651</ele>
        <time>2012-10-24T08:12:06Z</time>
      </trkpt>
      <trkpt lat="43.05099" lon="3.05294">
        <ele>8.3999996185303</ele>
        <time>2012-10-24T08:12:13Z</time>
      </trkpt>
      <trkpt lat="43.05101" lon="3.05292">
        <ele>8.3999996185303</ele>
        <time>2012-10-24T08:12:16Z</time>
      </trkpt>
      <trkpt lat="43.05104" lon="3.05288">
        <ele>8.6000003814697</ele>
        <time>2012-10-24T08:12:19Z</time>
      </trkpt>
      <trkpt lat="43.05109" lon="3.0528">
        <ele>8.8000001907349</ele>
        <time>2012-10-24T08:12:26Z</time>
      </trkpt>
      <trkpt lat="43.05111" lon="3.05275">
        <ele>8.8000001907349</ele>
        <time>2012-10-24T08:12:32Z</time>
      </trkpt>
      <trkpt lat="43.05116" lon="3.05268">
        <ele>9</ele>
        <time>2012-10-24T08:12:38Z</time>
      </trkpt>
      <trkpt lat="43.05119" lon="3.05261">
        <ele>9.1999998092651</ele>
        <time>2012-10-24T08:12:43Z</time>
      </trkpt>
      <trkpt lat="43.05125" lon="3.05251">
        <ele>9.1999998092651</ele>
        <time>2012-10-24T08:12:51Z</time>
      </trkpt>
      <trkpt lat="43.0513" lon="3.05246">
        <ele>9.1999998092651</ele>
        <time>2012-10-24T08:12:57Z</time>
      </trkpt>
      <trkpt lat="43.05133" lon="3.05246">
        <ele>9.8000001907349</ele>
        <time>2012-10-24T08:13:10Z</time>
      </trkpt>
      <trkpt lat="43.05135" lon="3.05239">
        <ele>10.39999961853</ele>
        <time>2012-10-24T08:13:53Z</time>
      </trkpt>
      <trkpt lat="43.05136" lon="3.05237">
        <ele>10.39999961853</ele>
        <time>2012-10-24T08:13:59Z</time>
      </trkpt>
      <trkpt lat="43.0514" lon="3.05235">
        <ele>10.39999961853</ele>
        <time>2012-10-24T08:14:17Z</time>
      </trkpt>
      <trkpt lat="43.05142" lon="3.0523">
        <ele>10.39999961853</ele>
        <time>2012-10-24T08:14:22Z</time>
      </trkpt>
      <trkpt lat="43.05145" lon="3.05225">
        <ele>10.199999809265</ele>
        <time>2012-10-24T08:14:29Z</time>
      </trkpt>
      <trkpt lat="43.0515" lon="3.05217">
        <ele>10.199999809265</ele>
        <time>2012-10-24T08:14:36Z</time>
      </trkpt>
      <trkpt lat="43.05154" lon="3.0521">
        <ele>10</ele>
        <time>2012-10-24T08:14:42Z</time>
      </trkpt>
      <trkpt lat="43.05159" lon="3.05202">
        <ele>10</ele>
        <time>2012-10-24T08:14:49Z</time>
      </trkpt>
      <trkpt lat="43.05162" lon="3.05192">
        <ele>10</ele>
        <time>2012-10-24T08:14:56Z</time>
      </trkpt>
      <trkpt lat="43.05164" lon="3.05182">
        <ele>9.8000001907349</ele>
        <time>2012-10-24T08:15:03Z</time>
      </trkpt>
      <trkpt lat="43.05166" lon="3.05173">
        <ele>9.8000001907349</ele>
        <time>2012-10-24T08:15:10Z</time>
      </trkpt>
      <trkpt lat="43.05167" lon="3.05161">
        <ele>10</ele>
        <time>2012-10-24T08:15:18Z</time>
      </trkpt>
      <trkpt lat="43.05167" lon="3.05158">
        <ele>10</ele>
        <time>2012-10-24T08:15:20Z</time>
      </trkpt>
      <trkpt lat="43.05169" lon="3.05152">
        <ele>10</ele>
        <time>2012-10-24T08:15:24Z</time>
      </trkpt>
      <trkpt lat="43.05171" lon="3.05143">
        <ele>10</ele>
        <time>2012-10-24T08:15:31Z</time>
      </trkpt>
      <trkpt lat="43.0517" lon="3.05131">
        <ele>10</ele>
        <time>2012-10-24T08:15:39Z</time>
      </trkpt>
      <trkpt lat="43.05169" lon="3.05118">
        <ele>10</ele>
        <time>2012-10-24T08:15:47Z</time>
      </trkpt>
      <trkpt lat="43.05169" lon="3.05107">
        <ele>10</ele>
        <time>2012-10-24T08:15:55Z</time>
      </trkpt>
      <trkpt lat="43.05168" lon="3.05096">
        <ele>10</ele>
        <time>2012-10-24T08:16:03Z</time>
      </trkpt>
      <trkpt lat="43.05167" lon="3.05091">
        <ele>10</ele>
        <time>2012-10-24T08:16:06Z</time>
      </trkpt>
      <trkpt lat="43.05168" lon="3.05086">
        <ele>10</ele>
        <time>2012-10-24T08:16:10Z</time>
      </trkpt>
      <trkpt lat="43.05169" lon="3.05083">
        <ele>10</ele>
        <time>2012-10-24T08:16:12Z</time>
      </trkpt>
      <trkpt lat="43.0517" lon="3.05078">
        <ele>10</ele>
        <time>2012-10-24T08:16:16Z</time>
      </trkpt>
      <trkpt lat="43.0517" lon="3.05067">
        <ele>9.8000001907349</ele>
        <time>2012-10-24T08:16:24Z</time>
      </trkpt>
      <trkpt lat="43.05169" lon="3.05056">
        <ele>9.8000001907349</ele>
        <time>2012-10-24T08:16:32Z</time>
      </trkpt>
      <trkpt lat="43.05169" lon="3.05044">
        <ele>9.6000003814697</ele>
        <time>2012-10-24T08:16:41Z</time>
      </trkpt>
      <trkpt lat="43.0517" lon="3.05031">
        <ele>9.3999996185303</ele>
        <time>2012-10-24T08:16:49Z</time>
      </trkpt>
      <trkpt lat="43.0517" lon="3.05019">
        <ele>9.3999996185303</ele>
        <time>2012-10-24T08:16:57Z</time>
      </trkpt>
      <trkpt lat="43.0517" lon="3.05015">
        <ele>9.3999996185303</ele>
        <time>2012-10-24T08:17:00Z</time>
      </trkpt>
      <trkpt lat="43.0517" lon="3.0501">
        <ele>9.3999996185303</ele>
        <time>2012-10-24T08:17:04Z</time>
      </trkpt>
      <trkpt lat="43.0517" lon="3.05">
        <ele>9.1999998092651</ele>
        <time>2012-10-24T08:17:11Z</time>
      </trkpt>
      <trkpt lat="43.0517" lon="3.04985">
        <ele>9.1999998092651</ele>
        <time>2012-10-24T08:17:21Z</time>
      </trkpt>
      <trkpt lat="43.05169" lon="3.04971">
        <ele>9.1999998092651</ele>
        <time>2012-10-24T08:17:31Z</time>
      </trkpt>
      <trkpt lat="43.05169" lon="3.0496">
        <ele>9.1999998092651</ele>
        <time>2012-10-24T08:17:38Z</time>
      </trkpt>
      <trkpt lat="43.05169" lon="3.04948">
        <ele>9.1999998092651</ele>
        <time>2012-10-24T08:17:46Z</time>
      </trkpt>
      <trkpt lat="43.05171" lon="3.04936">
        <ele>9</ele>
        <time>2012-10-24T08:17:54Z</time>
      </trkpt>
      <trkpt lat="43.05171" lon="3.04925">
        <ele>9</ele>
        <time>2012-10-24T08:18:02Z</time>
      </trkpt>
      <trkpt lat="43.0517" lon="3.04914">
        <ele>9</ele>
        <time>2012-10-24T08:18:10Z</time>
      </trkpt>
      <trkpt lat="43.05169" lon="3.04903">
        <ele>9.1999998092651</ele>
        <time>2012-10-24T08:18:18Z</time>
      </trkpt>
      <trkpt lat="43.05167" lon="3.04897">
        <ele>9.3999996185303</ele>
        <time>2012-10-24T08:18:23Z</time>
      </trkpt>
      <trkpt lat="43.05167" lon="3.04896">
        <ele>9.3999996185303</ele>
        <time>2012-10-24T08:18:24Z</time>
      </trkpt>
      <trkpt lat="43.05166" lon="3.04891">
        <ele>9.1999998092651</ele>
        <time>2012-10-24T08:18:28Z</time>
      </trkpt>
      <trkpt lat="43.05165" lon="3.04889">
        <ele>9.1999998092651</ele>
        <time>2012-10-24T08:18:30Z</time>
      </trkpt>
      <trkpt lat="43.05161" lon="3.04879">
        <ele>9.1999998092651</ele>
        <time>2012-10-24T08:18:38Z</time>
      </trkpt>
      <trkpt lat="43.05157" lon="3.04869">
        <ele>9.1999998092651</ele>
        <time>2012-10-24T08:18:46Z</time>
      </trkpt>
      <trkpt lat="43.05155" lon="3.0486">
        <ele>9.1999998092651</ele>
        <time>2012-10-24T08:18:53Z</time>
      </trkpt>
      <trkpt lat="43.05154" lon="3.04855">
        <ele>9.1999998092651</ele>
        <time>2012-10-24T08:18:57Z</time>
      </trkpt>
      <trkpt lat="43.05153" lon="3.04851">
        <ele>9</ele>
        <time>2012-10-24T08:19:00Z</time>
      </trkpt>
      <trkpt lat="43.05151" lon="3.04846">
        <ele>9</ele>
        <time>2012-10-24T08:19:04Z</time>
      </trkpt>
      <trkpt lat="43.05151" lon="3.0484">
        <ele>9</ele>
        <time>2012-10-24T08:19:09Z</time>
      </trkpt>
      <trkpt lat="43.05151" lon="3.04834">
        <ele>9</ele>
        <time>2012-10-24T08:19:17Z</time>
      </trkpt>
      <trkpt lat="43.05152" lon="3.04831">
        <ele>9</ele>
        <time>2012-10-24T08:19:24Z</time>
      </trkpt>
      <trkpt lat="43.05151" lon="3.04832">
        <ele>8.6000003814697</ele>
        <time>2012-10-24T08:19:42Z</time>
      </trkpt>
      <trkpt lat="43.05154" lon="3.04828">
        <ele>8.3999996185303</ele>
        <time>2012-10-24T08:20:57Z</time>
      </trkpt>
      <trkpt lat="43.05159" lon="3.04823">
        <ele>8.1999998092651</ele>
        <time>2012-10-24T08:21:04Z</time>
      </trkpt>
      <trkpt lat="43.05165" lon="3.04816">
        <ele>8.1999998092651</ele>
        <time>2012-10-24T08:21:12Z</time>
      </trkpt>
      <trkpt lat="43.05173" lon="3.04809">
        <ele>8.1999998092651</ele>
        <time>2012-10-24T08:21:20Z</time>
      </trkpt>
      <trkpt lat="43.05178" lon="3.04802">
        <ele>8.3999996185303</ele>
        <time>2012-10-24T08:21:27Z</time>
      </trkpt>
      <trkpt lat="43.05185" lon="3.04795">
        <ele>8.8000001907349</ele>
        <time>2012-10-24T08:21:35Z</time>
      </trkpt>
      <trkpt lat="43.05191" lon="3.04787">
        <ele>9.1999998092651</ele>
        <time>2012-10-24T08:21:43Z</time>
      </trkpt>
      <trkpt lat="43.05197" lon="3.04778">
        <ele>9.3999996185303</ele>
        <time>2012-10-24T08:21:51Z</time>
      </trkpt>
      <trkpt lat="43.05204" lon="3.04765">
        <ele>9.8000001907349</ele>
        <time>2012-10-24T08:22:01Z</time>
      </trkpt>
      <trkpt lat="43.0521" lon="3.04755">
        <ele>9.8000001907349</ele>
        <time>2012-10-24T08:22:10Z</time>
      </trkpt>
      <trkpt lat="43.05215" lon="3.04746">
        <ele>9.8000001907349</ele>
        <time>2012-10-24T08:22:17Z</time>
      </trkpt>
      <trkpt lat="43.0522" lon="3.04736">
        <ele>9.6000003814697</ele>
        <time>2012-10-24T08:22:25Z</time>
      </trkpt>
      <trkpt lat="43.05224" lon="3.04729">
        <ele>9.6000003814697</ele>
        <time>2012-10-24T08:22:32Z</time>
      </trkpt>
      <trkpt lat="43.05225" lon="3.04728">
        <ele>9.8000001907349</ele>
        <time>2012-10-24T08:22:33Z</time>
      </trkpt>
      <trkpt lat="43.05226" lon="3.04726">
        <ele>9.6000003814697</ele>
        <time>2012-10-24T08:22:38Z</time>
      </trkpt>
      <trkpt lat="43.0523" lon="3.04726">
        <ele>9.6000003814697</ele>
        <time>2012-10-24T08:22:45Z</time>
      </trkpt>
      <trkpt lat="43.05235" lon="3.04728">
        <ele>9.6000003814697</ele>
        <time>2012-10-24T08:22:52Z</time>
      </trkpt>
      <trkpt lat="43.05243" lon="3.04728">
        <ele>9.6000003814697</ele>
        <time>2012-10-24T08:22:59Z</time>
      </trkpt>
      <trkpt lat="43.0525" lon="3.04729">
        <ele>9.3999996185303</ele>
        <time>2012-10-24T08:23:06Z</time>
      </trkpt>
      <trkpt lat="43.05261" lon="3.04729">
        <ele>9.3999996185303</ele>
        <time>2012-10-24T08:23:15Z</time>
      </trkpt>
      <trkpt lat="43.0527" lon="3.04733">
        <ele>9.1999998092651</ele>
        <time>2012-10-24T08:23:23Z</time>
      </trkpt>
      <trkpt lat="43.05276" lon="3.04737">
        <ele>9</ele>
        <time>2012-10-24T08:23:30Z</time>
      </trkpt>
      <trkpt lat="43.05279" lon="3.04739">
        <ele>8.8000001907349</ele>
        <time>2012-10-24T08:23:42Z</time>
      </trkpt>
      <trkpt lat="43.0529" lon="3.04745">
        <ele>8.6000003814697</ele>
        <time>2012-10-24T08:23:53Z</time>
      </trkpt>
      <trkpt lat="43.05299" lon="3.04746">
        <ele>8.3999996185303</ele>
        <time>2012-10-24T08:24:01Z</time>
      </trkpt>
      <trkpt lat="43.05306" lon="3.04749">
        <ele>8.1999998092651</ele>
        <time>2012-10-24T08:24:08Z</time>
      </trkpt>
      <trkpt lat="43.05313" lon="3.04757">
        <ele>8.1999998092651</ele>
        <time>2012-10-24T08:24:16Z</time>
      </trkpt>
      <trkpt lat="43.05317" lon="3.0476">
        <ele>8</ele>
        <time>2012-10-24T08:24:23Z</time>
      </trkpt>
      <trkpt lat="43.05322" lon="3.04765">
        <ele>7.8000001907349</ele>
        <time>2012-10-24T08:24:29Z</time>
      </trkpt>
      <trkpt lat="43.05327" lon="3.04766">
        <ele>7.5999999046326</ele>
        <time>2012-10-24T08:24:34Z</time>
      </trkpt>
      <trkpt lat="43.05331" lon="3.04765">
        <ele>7.5999999046326</ele>
        <time>2012-10-24T08:24:39Z</time>
      </trkpt>
      <trkpt lat="43.05332" lon="3.04763">
        <ele>7.5999999046326</ele>
        <time>2012-10-24T08:24:40Z</time>
      </trkpt>
      <trkpt lat="43.05334" lon="3.04754">
        <ele>7.4000000953674</ele>
        <time>2012-10-24T08:24:46Z</time>
      </trkpt>
      <trkpt lat="43.05334" lon="3.04753">
        <ele>7.4000000953674</ele>
        <time>2012-10-24T08:24:47Z</time>
      </trkpt>
      <trkpt lat="43.05336" lon="3.04744">
        <ele>7.4000000953674</ele>
        <time>2012-10-24T08:24:54Z</time>
      </trkpt>
      <trkpt lat="43.05338" lon="3.04742">
        <ele>7.4000000953674</ele>
        <time>2012-10-24T08:24:56Z</time>
      </trkpt>
      <trkpt lat="43.05341" lon="3.04741">
        <ele>7.1999998092651</ele>
        <time>2012-10-24T08:24:59Z</time>
      </trkpt>
      <trkpt lat="43.05342" lon="3.0474">
        <ele>7.1999998092651</ele>
        <time>2012-10-24T08:25:00Z</time>
      </trkpt>
      <trkpt lat="43.05347" lon="3.04735">
        <ele>7.4000000953674</ele>
        <time>2012-10-24T08:25:06Z</time>
      </trkpt>
      <trkpt lat="43.0535" lon="3.04728">
        <ele>7.5999999046326</ele>
        <time>2012-10-24T08:25:12Z</time>
      </trkpt>
      <trkpt lat="43.05355" lon="3.04721">
        <ele>8</ele>
        <time>2012-10-24T08:25:18Z</time>
      </trkpt>
      <trkpt lat="43.0536" lon="3.04715">
        <ele>8.3999996185303</ele>
        <time>2012-10-24T08:25:24Z</time>
      </trkpt>
      <trkpt lat="43.05367" lon="3.0471">
        <ele>8.8000001907349</ele>
        <time>2012-10-24T08:25:31Z</time>
      </trkpt>
      <trkpt lat="43.05373" lon="3.04704">
        <ele>9.1999998092651</ele>
        <time>2012-10-24T08:25:38Z</time>
      </trkpt>
      <trkpt lat="43.0538" lon="3.04698">
        <ele>9.8000001907349</ele>
        <time>2012-10-24T08:25:45Z</time>
      </trkpt>
      <trkpt lat="43.05388" lon="3.04695">
        <ele>10.39999961853</ele>
        <time>2012-10-24T08:25:53Z</time>
      </trkpt>
      <trkpt lat="43.05397" lon="3.0469">
        <ele>11.199999809265</ele>
        <time>2012-10-24T08:26:02Z</time>
      </trkpt>
      <trkpt lat="43.05402" lon="3.04684">
        <ele>11.60000038147</ele>
        <time>2012-10-24T08:26:08Z</time>
      </trkpt>
      <trkpt lat="43.0541" lon="3.04676">
        <ele>11.800000190735</ele>
        <time>2012-10-24T08:26:16Z</time>
      </trkpt>
      <trkpt lat="43.05412" lon="3.04673">
        <ele>11.800000190735</ele>
        <time>2012-10-24T08:26:23Z</time>
      </trkpt>
      <trkpt lat="43.05416" lon="3.04671">
        <ele>12</ele>
        <time>2012-10-24T08:26:31Z</time>
      </trkpt>
      <trkpt lat="43.05418" lon="3.0467">
        <ele>12.199999809265</ele>
        <time>2012-10-24T08:26:33Z</time>
      </trkpt>
      <trkpt lat="43.05423" lon="3.04666">
        <ele>12.199999809265</ele>
        <time>2012-10-24T08:26:38Z</time>
      </trkpt>
      <trkpt lat="43.05424" lon="3.04665">
        <ele>12</ele>
        <time>2012-10-24T08:26:39Z</time>
      </trkpt>
      <trkpt lat="43.05431" lon="3.04664">
        <ele>12.60000038147</ele>
        <time>2012-10-24T08:26:45Z</time>
      </trkpt>
      <trkpt lat="43.05436" lon="3.04662">
        <ele>13</ele>
        <time>2012-10-24T08:26:51Z</time>
      </trkpt>
      <trkpt lat="43.05444" lon="3.04658">
        <ele>13.60000038147</ele>
        <time>2012-10-24T08:26:59Z</time>
      </trkpt>
      <trkpt lat="43.05453" lon="3.04654">
        <ele>14.199999809265</ele>
        <time>2012-10-24T08:27:08Z</time>
      </trkpt>
      <trkpt lat="43.0546" lon="3.04648">
        <ele>14.39999961853</ele>
        <time>2012-10-24T08:27:16Z</time>
      </trkpt>
      <trkpt lat="43.05465" lon="3.04642">
        <ele>14.39999961853</ele>
        <time>2012-10-24T08:27:22Z</time>
      </trkpt>
      <trkpt lat="43.05465" lon="3.0464">
        <ele>14.800000190735</ele>
        <time>2012-10-24T08:27:34Z</time>
      </trkpt>
      <trkpt lat="43.05466" lon="3.0464">
        <ele>15.199999809265</ele>
        <time>2012-10-24T08:27:43Z</time>
      </trkpt>
      <trkpt lat="43.05469" lon="3.04636">
        <ele>15.39999961853</ele>
        <time>2012-10-24T08:27:53Z</time>
      </trkpt>
      <trkpt lat="43.05473" lon="3.0463">
        <ele>15.60000038147</ele>
        <time>2012-10-24T08:28:01Z</time>
      </trkpt>
      <trkpt lat="43.05474" lon="3.04625">
        <ele>15.800000190735</ele>
        <time>2012-10-24T08:28:07Z</time>
      </trkpt>
      <trkpt lat="43.05477" lon="3.0462">
        <ele>16.200000762939</ele>
        <time>2012-10-24T08:28:14Z</time>
      </trkpt>
      <trkpt lat="43.0548" lon="3.04617">
        <ele>16.60000038147</ele>
        <time>2012-10-24T08:28:21Z</time>
      </trkpt>
      <trkpt lat="43.05484" lon="3.04612">
        <ele>17</ele>
        <time>2012-10-24T08:28:30Z</time>
      </trkpt>
      <trkpt lat="43.05488" lon="3.04608">
        <ele>17.200000762939</ele>
        <time>2012-10-24T08:28:38Z</time>
      </trkpt>
      <trkpt lat="43.05492" lon="3.04604">
        <ele>17.39999961853</ele>
        <time>2012-10-24T08:28:46Z</time>
      </trkpt>
      <trkpt lat="43.05497" lon="3.04601">
        <ele>17.39999961853</ele>
        <time>2012-10-24T08:28:53Z</time>
      </trkpt>
      <trkpt lat="43.055" lon="3.04597">
        <ele>17.39999961853</ele>
        <time>2012-10-24T08:28:58Z</time>
      </trkpt>
      <trkpt lat="43.05504" lon="3.04595">
        <ele>17.39999961853</ele>
        <time>2012-10-24T08:29:06Z</time>
      </trkpt>
      <trkpt lat="43.05504" lon="3.04597">
        <ele>17.60000038147</ele>
        <time>2012-10-24T08:29:18Z</time>
      </trkpt>
      <trkpt lat="43.05505" lon="3.04596">
        <ele>17.799999237061</ele>
        <time>2012-10-24T08:29:23Z</time>
      </trkpt>
      <trkpt lat="43.05503" lon="3.04595">
        <ele>17.60000038147</ele>
        <time>2012-10-24T08:29:28Z</time>
      </trkpt>
      <trkpt lat="43.05503" lon="3.04594">
        <ele>17.39999961853</ele>
        <time>2012-10-24T08:29:38Z</time>
      </trkpt>
      <trkpt lat="43.05503" lon="3.04591">
        <ele>16.39999961853</ele>
        <time>2012-10-24T08:30:45Z</time>
      </trkpt>
      <trkpt lat="43.05507" lon="3.04586">
        <ele>16.39999961853</ele>
        <time>2012-10-24T08:30:51Z</time>
      </trkpt>
      <trkpt lat="43.05513" lon="3.04579">
        <ele>16.39999961853</ele>
        <time>2012-10-24T08:31:00Z</time>
      </trkpt>
      <trkpt lat="43.05519" lon="3.0457">
        <ele>16.60000038147</ele>
        <time>2012-10-24T08:31:08Z</time>
      </trkpt>
      <trkpt lat="43.05525" lon="3.04562">
        <ele>16.799999237061</ele>
        <time>2012-10-24T08:31:16Z</time>
      </trkpt>
      <trkpt lat="43.05529" lon="3.04556">
        <ele>16.799999237061</ele>
        <time>2012-10-24T08:31:22Z</time>
      </trkpt>
      <trkpt lat="43.05531" lon="3.04553">
        <ele>16.799999237061</ele>
        <time>2012-10-24T08:31:25Z</time>
      </trkpt>
      <trkpt lat="43.05532" lon="3.0455">
        <ele>16.799999237061</ele>
        <time>2012-10-24T08:31:28Z</time>
      </trkpt>
      <trkpt lat="43.05534" lon="3.04546">
        <ele>16.60000038147</ele>
        <time>2012-10-24T08:31:31Z</time>
      </trkpt>
      <trkpt lat="43.05537" lon="3.0454">
        <ele>16.60000038147</ele>
        <time>2012-10-24T08:31:36Z</time>
      </trkpt>
      <trkpt lat="43.05542" lon="3.04529">
        <ele>16.60000038147</ele>
        <time>2012-10-24T08:31:45Z</time>
      </trkpt>
      <trkpt lat="43.05544" lon="3.0452">
        <ele>16.39999961853</ele>
        <time>2012-10-24T08:31:52Z</time>
      </trkpt>
      <trkpt lat="43.05547" lon="3.04517">
        <ele>16.39999961853</ele>
        <time>2012-10-24T08:31:57Z</time>
      </trkpt>
      <trkpt lat="43.05549" lon="3.04517">
        <ele>16.60000038147</ele>
        <time>2012-10-24T08:32:02Z</time>
      </trkpt>
      <trkpt lat="43.05547" lon="3.04507">
        <ele>19.39999961853</ele>
        <time>2012-10-24T08:34:32Z</time>
      </trkpt>
      <trkpt lat="43.05549" lon="3.04499">
        <ele>19.200000762939</ele>
        <time>2012-10-24T08:34:40Z</time>
      </trkpt>
      <trkpt lat="43.0555" lon="3.04491">
        <ele>19</ele>
        <time>2012-10-24T08:34:49Z</time>
      </trkpt>
      <trkpt lat="43.0555" lon="3.04482">
        <ele>18.799999237061</ele>
        <time>2012-10-24T08:34:58Z</time>
      </trkpt>
      <trkpt lat="43.0555" lon="3.04476">
        <ele>18.39999961853</ele>
        <time>2012-10-24T08:35:07Z</time>
      </trkpt>
      <trkpt lat="43.0555" lon="3.04471">
        <ele>18.39999961853</ele>
        <time>2012-10-24T08:35:13Z</time>
      </trkpt>
      <trkpt lat="43.0555" lon="3.04469">
        <ele>18.200000762939</ele>
        <time>2012-10-24T08:35:19Z</time>
      </trkpt>
      <trkpt lat="43.05553" lon="3.04471">
        <ele>18.39999961853</ele>
        <time>2012-10-24T08:36:41Z</time>
      </trkpt>
      <trkpt lat="43.05549" lon="3.04463">
        <ele>17.799999237061</ele>
        <time>2012-10-24T08:37:15Z</time>
      </trkpt>
      <trkpt lat="43.05545" lon="3.04457">
        <ele>17.60000038147</ele>
        <time>2012-10-24T08:37:23Z</time>
      </trkpt>
      <trkpt lat="43.05544" lon="3.04454">
        <ele>17.60000038147</ele>
        <time>2012-10-24T08:37:29Z</time>
      </trkpt>
      <trkpt lat="43.05539" lon="3.04447">
        <ele>17.200000762939</ele>
        <time>2012-10-24T08:37:37Z</time>
      </trkpt>
      <trkpt lat="43.05534" lon="3.04443">
        <ele>17</ele>
        <time>2012-10-24T08:37:45Z</time>
      </trkpt>
      <trkpt lat="43.05531" lon="3.0444">
        <ele>16.799999237061</ele>
        <time>2012-10-24T08:37:49Z</time>
      </trkpt>
      <trkpt lat="43.05529" lon="3.04439">
        <ele>16.60000038147</ele>
        <time>2012-10-24T08:37:52Z</time>
      </trkpt>
      <trkpt lat="43.05522" lon="3.04434">
        <ele>16.39999961853</ele>
        <time>2012-10-24T08:38:00Z</time>
      </trkpt>
      <trkpt lat="43.05513" lon="3.04431">
        <ele>16.200000762939</ele>
        <time>2012-10-24T08:38:08Z</time>
      </trkpt>
      <trkpt lat="43.05507" lon="3.04424">
        <ele>15.800000190735</ele>
        <time>2012-10-24T08:38:16Z</time>
      </trkpt>
      <trkpt lat="43.05499" lon="3.04418">
        <ele>15.39999961853</ele>
        <time>2012-10-24T08:38:24Z</time>
      </trkpt>
      <trkpt lat="43.05496" lon="3.04408">
        <ele>15.199999809265</ele>
        <time>2012-10-24T08:38:32Z</time>
      </trkpt>
      <trkpt lat="43.05499" lon="3.04396">
        <ele>15</ele>
        <time>2012-10-24T08:38:40Z</time>
      </trkpt>
      <trkpt lat="43.05502" lon="3.04387">
        <ele>15</ele>
        <time>2012-10-24T08:38:48Z</time>
      </trkpt>
      <trkpt lat="43.05502" lon="3.04384">
        <ele>15</ele>
        <time>2012-10-24T08:38:50Z</time>
      </trkpt>
      <trkpt lat="43.05502" lon="3.04383">
        <ele>15</ele>
        <time>2012-10-24T08:38:54Z</time>
      </trkpt>
      <trkpt lat="43.05499" lon="3.04378">
        <ele>14.60000038147</ele>
        <time>2012-10-24T08:39:11Z</time>
      </trkpt>
      <trkpt lat="43.05504" lon="3.0438">
        <ele>14.39999961853</ele>
        <time>2012-10-24T08:39:40Z</time>
      </trkpt>
      <trkpt lat="43.05509" lon="3.04382">
        <ele>14.800000190735</ele>
        <time>2012-10-24T08:39:50Z</time>
      </trkpt>
      <trkpt lat="43.05513" lon="3.04379">
        <ele>15</ele>
        <time>2012-10-24T08:39:55Z</time>
      </trkpt>
      <trkpt lat="43.05515" lon="3.04378">
        <ele>15.199999809265</ele>
        <time>2012-10-24T08:39:57Z</time>
      </trkpt>
      <trkpt lat="43.05522" lon="3.04375">
        <ele>15.60000038147</ele>
        <time>2012-10-24T08:40:04Z</time>
      </trkpt>
      <trkpt lat="43.05528" lon="3.04367">
        <ele>16.200000762939</ele>
        <time>2012-10-24T08:40:12Z</time>
      </trkpt>
      <trkpt lat="43.05534" lon="3.04354">
        <ele>17</ele>
        <time>2012-10-24T08:40:22Z</time>
      </trkpt>
      <trkpt lat="43.0554" lon="3.04343">
        <ele>17.39999961853</ele>
        <time>2012-10-24T08:40:31Z</time>
      </trkpt>
      <trkpt lat="43.05542" lon="3.04333">
        <ele>18</ele>
        <time>2012-10-24T08:40:39Z</time>
      </trkpt>
      <trkpt lat="43.05543" lon="3.04321">
        <ele>18</ele>
        <time>2012-10-24T08:40:48Z</time>
      </trkpt>
      <trkpt lat="43.05542" lon="3.04309">
        <ele>18</ele>
        <time>2012-10-24T08:40:56Z</time>
      </trkpt>
      <trkpt lat="43.05541" lon="3.04299">
        <ele>17.799999237061</ele>
        <time>2012-10-24T08:41:04Z</time>
      </trkpt>
      <trkpt lat="43.0554" lon="3.04291">
        <ele>17.799999237061</ele>
        <time>2012-10-24T08:41:09Z</time>
      </trkpt>
      <trkpt lat="43.0554" lon="3.04289">
        <ele>17.799999237061</ele>
        <time>2012-10-24T08:41:11Z</time>
      </trkpt>
      <trkpt lat="43.05539" lon="3.04286">
        <ele>17.799999237061</ele>
        <time>2012-10-24T08:41:13Z</time>
      </trkpt>
      <trkpt lat="43.05536" lon="3.04276">
        <ele>17.60000038147</ele>
        <time>2012-10-24T08:41:20Z</time>
      </trkpt>
      <trkpt lat="43.05532" lon="3.04266">
        <ele>17.60000038147</ele>
        <time>2012-10-24T08:41:28Z</time>
      </trkpt>
      <trkpt lat="43.05527" lon="3.04257">
        <ele>17.39999961853</ele>
        <time>2012-10-24T08:41:35Z</time>
      </trkpt>
      <trkpt lat="43.05524" lon="3.04248">
        <ele>17.200000762939</ele>
        <time>2012-10-24T08:41:42Z</time>
      </trkpt>
      <trkpt lat="43.05524" lon="3.04246">
        <ele>17.200000762939</ele>
        <time>2012-10-24T08:41:44Z</time>
      </trkpt>
      <trkpt lat="43.05524" lon="3.04246">
        <ele>17.200000762939</ele>
        <time>2012-10-24T08:41:45Z</time>
      </trkpt>
      <trkpt lat="43.05522" lon="3.04245">
        <ele>17</ele>
        <time>2012-10-24T08:41:50Z</time>
      </trkpt>
      <trkpt lat="43.0552" lon="3.04237">
        <ele>16.799999237061</ele>
        <time>2012-10-24T08:41:57Z</time>
      </trkpt>
      <trkpt lat="43.05518" lon="3.04224">
        <ele>16.60000038147</ele>
        <time>2012-10-24T08:42:06Z</time>
      </trkpt>
      <trkpt lat="43.05516" lon="3.04217">
        <ele>16.39999961853</ele>
        <time>2012-10-24T08:42:11Z</time>
      </trkpt>
      <trkpt lat="43.05515" lon="3.04208">
        <ele>16.200000762939</ele>
        <time>2012-10-24T08:42:18Z</time>
      </trkpt>
      <trkpt lat="43.05515" lon="3.04203">
        <ele>16</ele>
        <time>2012-10-24T08:42:23Z</time>
      </trkpt>
      <trkpt lat="43.05514" lon="3.04201">
        <ele>15.800000190735</ele>
        <time>2012-10-24T08:42:25Z</time>
      </trkpt>
      <trkpt lat="43.05515" lon="3.04195">
        <ele>15.60000038147</ele>
        <time>2012-10-24T08:42:30Z</time>
      </trkpt>
      <trkpt lat="43.05515" lon="3.04193">
        <ele>15.60000038147</ele>
        <time>2012-10-24T08:42:31Z</time>
      </trkpt>
      <trkpt lat="43.05515" lon="3.04188">
        <ele>15.199999809265</ele>
        <time>2012-10-24T08:42:35Z</time>
      </trkpt>
      <trkpt lat="43.05515" lon="3.04185">
        <ele>15</ele>
        <time>2012-10-24T08:42:36Z</time>
      </trkpt>
      <trkpt lat="43.05516" lon="3.04177">
        <ele>14.60000038147</ele>
        <time>2012-10-24T08:42:41Z</time>
      </trkpt>
      <trkpt lat="43.05516" lon="3.04176">
        <ele>14.60000038147</ele>
        <time>2012-10-24T08:42:42Z</time>
      </trkpt>
      <trkpt lat="43.05516" lon="3.04165">
        <ele>14.199999809265</ele>
        <time>2012-10-24T08:42:49Z</time>
      </trkpt>
      <trkpt lat="43.05517" lon="3.04164">
        <ele>14</ele>
        <time>2012-10-24T08:42:50Z</time>
      </trkpt>
      <trkpt lat="43.05522" lon="3.04158">
        <ele>13.39999961853</ele>
        <time>2012-10-24T08:42:56Z</time>
      </trkpt>
      <trkpt lat="43.05523" lon="3.04156">
        <ele>13.39999961853</ele>
        <time>2012-10-24T08:42:57Z</time>
      </trkpt>
      <trkpt lat="43.05524" lon="3.04144">
        <ele>12.60000038147</ele>
        <time>2012-10-24T08:43:04Z</time>
      </trkpt>
      <trkpt lat="43.05527" lon="3.04137">
        <ele>12.199999809265</ele>
        <time>2012-10-24T08:43:10Z</time>
      </trkpt>
      <trkpt lat="43.05531" lon="3.04128">
        <ele>12</ele>
        <time>2012-10-24T08:43:16Z</time>
      </trkpt>
      <trkpt lat="43.05531" lon="3.04126">
        <ele>12</ele>
        <time>2012-10-24T08:43:17Z</time>
      </trkpt>
      <trkpt lat="43.05534" lon="3.0412">
        <ele>11.800000190735</ele>
        <time>2012-10-24T08:43:22Z</time>
      </trkpt>
      <trkpt lat="43.05534" lon="3.04118">
        <ele>11.800000190735</ele>
        <time>2012-10-24T08:43:23Z</time>
      </trkpt>
      <trkpt lat="43.0554" lon="3.0411">
        <ele>11.800000190735</ele>
        <time>2012-10-24T08:43:30Z</time>
      </trkpt>
      <trkpt lat="43.05541" lon="3.04107">
        <ele>11.800000190735</ele>
        <time>2012-10-24T08:43:32Z</time>
      </trkpt>
      <trkpt lat="43.05546" lon="3.041">
        <ele>11.60000038147</ele>
        <time>2012-10-24T08:43:39Z</time>
      </trkpt>
      <trkpt lat="43.05553" lon="3.04092">
        <ele>11.39999961853</ele>
        <time>2012-10-24T08:43:47Z</time>
      </trkpt>
      <trkpt lat="43.05561" lon="3.04083">
        <ele>11.39999961853</ele>
        <time>2012-10-24T08:43:56Z</time>
      </trkpt>
      <trkpt lat="43.05565" lon="3.04078">
        <ele>11.60000038147</ele>
        <time>2012-10-24T08:44:03Z</time>
      </trkpt>
      <trkpt lat="43.05575" lon="3.04066">
        <ele>11.60000038147</ele>
        <time>2012-10-24T08:44:14Z</time>
      </trkpt>
      <trkpt lat="43.05582" lon="3.04058">
        <ele>11.800000190735</ele>
        <time>2012-10-24T08:44:22Z</time>
      </trkpt>
      <trkpt lat="43.05591" lon="3.04049">
        <ele>12</ele>
        <time>2012-10-24T08:44:32Z</time>
      </trkpt>
      <trkpt lat="43.05598" lon="3.04041">
        <ele>12.39999961853</ele>
        <time>2012-10-24T08:44:41Z</time>
      </trkpt>
      <trkpt lat="43.05608" lon="3.04029">
        <ele>13</ele>
        <time>2012-10-24T08:44:52Z</time>
      </trkpt>
      <trkpt lat="43.05616" lon="3.04019">
        <ele>13.800000190735</ele>
        <time>2012-10-24T08:45:02Z</time>
      </trkpt>
      <trkpt lat="43.05622" lon="3.0401">
        <ele>14.39999961853</ele>
        <time>2012-10-24T08:45:11Z</time>
      </trkpt>
      <trkpt lat="43.05625" lon="3.04006">
        <ele>14.60000038147</ele>
        <time>2012-10-24T08:45:16Z</time>
      </trkpt>
      <trkpt lat="43.05633" lon="3.03998">
        <ele>15.199999809265</ele>
        <time>2012-10-24T08:45:24Z</time>
      </trkpt>
      <trkpt lat="43.05642" lon="3.0399">
        <ele>15.800000190735</ele>
        <time>2012-10-24T08:45:33Z</time>
      </trkpt>
      <trkpt lat="43.05649" lon="3.03982">
        <ele>16</ele>
        <time>2012-10-24T08:45:41Z</time>
      </trkpt>
      <trkpt lat="43.05658" lon="3.03973">
        <ele>16.200000762939</ele>
        <time>2012-10-24T08:45:51Z</time>
      </trkpt>
      <trkpt lat="43.05667" lon="3.03967">
        <ele>16.200000762939</ele>
        <time>2012-10-24T08:46:00Z</time>
      </trkpt>
      <trkpt lat="43.05675" lon="3.03962">
        <ele>16</ele>
        <time>2012-10-24T08:46:08Z</time>
      </trkpt>
      <trkpt lat="43.05676" lon="3.03959">
        <ele>16</ele>
        <time>2012-10-24T08:46:12Z</time>
      </trkpt>
      <trkpt lat="43.05677" lon="3.03958">
        <ele>16</ele>
        <time>2012-10-24T08:46:14Z</time>
      </trkpt>
      <trkpt lat="43.05681" lon="3.0396">
        <ele>16</ele>
        <time>2012-10-24T08:46:42Z</time>
      </trkpt>
      <trkpt lat="43.05687" lon="3.03959">
        <ele>16</ele>
        <time>2012-10-24T08:46:53Z</time>
      </trkpt>
      <trkpt lat="43.05693" lon="3.03959">
        <ele>16</ele>
        <time>2012-10-24T08:47:01Z</time>
      </trkpt>
      <trkpt lat="43.05699" lon="3.0396">
        <ele>16</ele>
        <time>2012-10-24T08:47:08Z</time>
      </trkpt>
      <trkpt lat="43.05706" lon="3.0396">
        <ele>16</ele>
        <time>2012-10-24T08:47:15Z</time>
      </trkpt>
      <trkpt lat="43.05715" lon="3.03958">
        <ele>15.800000190735</ele>
        <time>2012-10-24T08:47:24Z</time>
      </trkpt>
      <trkpt lat="43.05727" lon="3.03954">
        <ele>15.39999961853</ele>
        <time>2012-10-24T08:47:35Z</time>
      </trkpt>
      <trkpt lat="43.05737" lon="3.0395">
        <ele>15.199999809265</ele>
        <time>2012-10-24T08:47:44Z</time>
      </trkpt>
      <trkpt lat="43.05746" lon="3.03945">
        <ele>15</ele>
        <time>2012-10-24T08:47:52Z</time>
      </trkpt>
      <trkpt lat="43.05753" lon="3.03939">
        <ele>14.800000190735</ele>
        <time>2012-10-24T08:48:00Z</time>
      </trkpt>
      <trkpt lat="43.05761" lon="3.03933">
        <ele>14.199999809265</ele>
        <time>2012-10-24T08:48:09Z</time>
      </trkpt>
      <trkpt lat="43.05769" lon="3.03927">
        <ele>13.800000190735</ele>
        <time>2012-10-24T08:48:17Z</time>
      </trkpt>
      <trkpt lat="43.05775" lon="3.03922">
        <ele>13.39999961853</ele>
        <time>2012-10-24T08:48:24Z</time>
      </trkpt>
      <trkpt lat="43.05777" lon="3.03921">
        <ele>13.39999961853</ele>
        <time>2012-10-24T08:48:26Z</time>
      </trkpt>
      <trkpt lat="43.05778" lon="3.0392">
        <ele>13.199999809265</ele>
        <time>2012-10-24T08:48:29Z</time>
      </trkpt>
      <trkpt lat="43.05783" lon="3.03916">
        <ele>13</ele>
        <time>2012-10-24T08:48:35Z</time>
      </trkpt>
      <trkpt lat="43.05789" lon="3.03912">
        <ele>13</ele>
        <time>2012-10-24T08:48:42Z</time>
      </trkpt>
      <trkpt lat="43.05794" lon="3.03908">
        <ele>13.60000038147</ele>
        <time>2012-10-24T08:48:48Z</time>
      </trkpt>
      <trkpt lat="43.05796" lon="3.03907">
        <ele>13.800000190735</ele>
        <time>2012-10-24T08:48:50Z</time>
      </trkpt>
      <trkpt lat="43.05798" lon="3.03904">
        <ele>13.800000190735</ele>
        <time>2012-10-24T08:48:53Z</time>
      </trkpt>
      <trkpt lat="43.05806" lon="3.03901">
        <ele>14.39999961853</ele>
        <time>2012-10-24T08:49:00Z</time>
      </trkpt>
      <trkpt lat="43.05809" lon="3.03899">
        <ele>14.39999961853</ele>
        <time>2012-10-24T08:49:03Z</time>
      </trkpt>
      <trkpt lat="43.05816" lon="3.03896">
        <ele>14.39999961853</ele>
        <time>2012-10-24T08:49:08Z</time>
      </trkpt>
      <trkpt lat="43.05825" lon="3.03893">
        <ele>14.60000038147</ele>
        <time>2012-10-24T08:49:16Z</time>
      </trkpt>
      <trkpt lat="43.05835" lon="3.03891">
        <ele>14.60000038147</ele>
        <time>2012-10-24T08:49:25Z</time>
      </trkpt>
      <trkpt lat="43.05836" lon="3.0389">
        <ele>14.60000038147</ele>
        <time>2012-10-24T08:49:26Z</time>
      </trkpt>
      <trkpt lat="43.05843" lon="3.03888">
        <ele>14.60000038147</ele>
        <time>2012-10-24T08:49:32Z</time>
      </trkpt>
      <trkpt lat="43.05843" lon="3.03888">
        <ele>14.39999961853</ele>
        <time>2012-10-24T08:49:34Z</time>
      </trkpt>
      <trkpt lat="43.05847" lon="3.03887">
        <ele>14.39999961853</ele>
        <time>2012-10-24T08:49:39Z</time>
      </trkpt>
      <trkpt lat="43.05857" lon="3.03884">
        <ele>14</ele>
        <time>2012-10-24T08:49:47Z</time>
      </trkpt>
      <trkpt lat="43.05861" lon="3.03882">
        <ele>13.60000038147</ele>
        <time>2012-10-24T08:49:52Z</time>
      </trkpt>
      <trkpt lat="43.05862" lon="3.03882">
        <ele>13.60000038147</ele>
        <time>2012-10-24T08:49:53Z</time>
      </trkpt>
      <trkpt lat="43.05868" lon="3.03881">
        <ele>13.199999809265</ele>
        <time>2012-10-24T08:49:57Z</time>
      </trkpt>
      <trkpt lat="43.05873" lon="3.03881">
        <ele>12.800000190735</ele>
        <time>2012-10-24T08:50:00Z</time>
      </trkpt>
      <trkpt lat="43.05874" lon="3.0388">
        <ele>12.60000038147</ele>
        <time>2012-10-24T08:50:02Z</time>
      </trkpt>
      <trkpt lat="43.05884" lon="3.03876">
        <ele>11.39999961853</ele>
        <time>2012-10-24T08:50:11Z</time>
      </trkpt>
      <trkpt lat="43.05892" lon="3.03871">
        <ele>10.199999809265</ele>
        <time>2012-10-24T08:50:19Z</time>
      </trkpt>
      <trkpt lat="43.05903" lon="3.03868">
        <ele>9.1999998092651</ele>
        <time>2012-10-24T08:50:27Z</time>
      </trkpt>
      <trkpt lat="43.05912" lon="3.03865">
        <ele>8.6000003814697</ele>
        <time>2012-10-24T08:50:34Z</time>
      </trkpt>
      <trkpt lat="43.0592" lon="3.03863">
        <ele>7.8000001907349</ele>
        <time>2012-10-24T08:50:41Z</time>
      </trkpt>
      <trkpt lat="43.05928" lon="3.03858">
        <ele>7</ele>
        <time>2012-10-24T08:50:48Z</time>
      </trkpt>
      <trkpt lat="43.05932" lon="3.03852">
        <ele>6.1999998092651</ele>
        <time>2012-10-24T08:50:55Z</time>
      </trkpt>
      <trkpt lat="43.05933" lon="3.0385">
        <ele>6</ele>
        <time>2012-10-24T08:50:56Z</time>
      </trkpt>
      <trkpt lat="43.05939" lon="3.03837">
        <ele>5</ele>
        <time>2012-10-24T08:51:05Z</time>
      </trkpt>
      <trkpt lat="43.05939" lon="3.03834">
        <ele>4.8000001907349</ele>
        <time>2012-10-24T08:51:07Z</time>
      </trkpt>
      <trkpt lat="43.05944" lon="3.03828">
        <ele>4</ele>
        <time>2012-10-24T08:51:13Z</time>
      </trkpt>
      <trkpt lat="43.05951" lon="3.03819">
        <ele>3</ele>
        <time>2012-10-24T08:51:22Z</time>
      </trkpt>
      <trkpt lat="43.05953" lon="3.03816">
        <ele>2.5999999046326</ele>
        <time>2012-10-24T08:51:26Z</time>
      </trkpt>
      <trkpt lat="43.05956" lon="3.03813">
        <ele>2.2000000476837</ele>
        <time>2012-10-24T08:51:29Z</time>
      </trkpt>
      <trkpt lat="43.05962" lon="3.03806">
        <ele>1.3999999761581</ele>
        <time>2012-10-24T08:51:37Z</time>
      </trkpt>
      <trkpt lat="43.05963" lon="3.03803">
        <ele>1.2000000476837</ele>
        <time>2012-10-24T08:51:39Z</time>
      </trkpt>
      <trkpt lat="43.05967" lon="3.03797">
        <ele>0.80000001192093</ele>
        <time>2012-10-24T08:51:43Z</time>
      </trkpt>
      <trkpt lat="43.0597" lon="3.03793">
        <ele>0.60000002384186</ele>
        <time>2012-10-24T08:51:47Z</time>
      </trkpt>
      <trkpt lat="43.05972" lon="3.0379">
        <ele>0.20000000298023</ele>
        <time>2012-10-24T08:51:50Z</time>
      </trkpt>
      <trkpt lat="43.05973" lon="3.03788">
        <ele>1</ele>
        <time>2012-10-24T08:51:52Z</time>
      </trkpt>
      <trkpt lat="43.05975" lon="3.03782">
        <ele>-0.40000000596046</ele>
        <time>2012-10-24T08:51:56Z</time>
      </trkpt>
      <trkpt lat="43.05979" lon="3.03776">
        <ele>-0.80000001192093</ele>
        <time>2012-10-24T08:52:01Z</time>
      </trkpt>
      <trkpt lat="43.0598" lon="3.03773">
        <ele>-1</ele>
        <time>2012-10-24T08:52:03Z</time>
      </trkpt>
      <trkpt lat="43.05986" lon="3.03761">
        <ele>-1.6000000238419</ele>
        <time>2012-10-24T08:52:12Z</time>
      </trkpt>
      <trkpt lat="43.05993" lon="3.0375">
        <ele>-2.4000000953674</ele>
        <time>2012-10-24T08:52:22Z</time>
      </trkpt>
      <trkpt lat="43.06001" lon="3.03742">
        <ele>-3</ele>
        <time>2012-10-24T08:52:30Z</time>
      </trkpt>
      <trkpt lat="43.06009" lon="3.03732">
        <ele>-3.4000000953674</ele>
        <time>2012-10-24T08:52:39Z</time>
      </trkpt>
      <trkpt lat="43.06017" lon="3.03722">
        <ele>-3.7999999523163</ele>
        <time>2012-10-24T08:52:48Z</time>
      </trkpt>
      <trkpt lat="43.06021" lon="3.03716">
        <ele>-4</ele>
        <time>2012-10-24T08:52:54Z</time>
      </trkpt>
      <trkpt lat="43.06026" lon="3.03706">
        <ele>-4.5999999046326</ele>
        <time>2012-10-24T08:53:03Z</time>
      </trkpt>
      <trkpt lat="43.06033" lon="3.03693">
        <ele>-5.4000000953674</ele>
        <time>2012-10-24T08:53:13Z</time>
      </trkpt>
      <trkpt lat="43.06039" lon="3.0368">
        <ele>-5.8000001907349</ele>
        <time>2012-10-24T08:53:21Z</time>
      </trkpt>
      <trkpt lat="43.06044" lon="3.0367">
        <ele>-6.1999998092651</ele>
        <time>2012-10-24T08:53:29Z</time>
      </trkpt>
      <trkpt lat="43.06049" lon="3.03662">
        <ele>-6.8000001907349</ele>
        <time>2012-10-24T08:53:37Z</time>
      </trkpt>
      <trkpt lat="43.0605" lon="3.0366">
        <ele>-7</ele>
        <time>2012-10-24T08:53:39Z</time>
      </trkpt>
      <trkpt lat="43.06055" lon="3.03656">
        <ele>-7.1999998092651</ele>
        <time>2012-10-24T08:53:44Z</time>
      </trkpt>
      <trkpt lat="43.06058" lon="3.03654">
        <ele>-7.5999999046326</ele>
        <time>2012-10-24T08:53:48Z</time>
      </trkpt>
      <trkpt lat="43.06059" lon="3.03651">
        <ele>-7.8000001907349</ele>
        <time>2012-10-24T08:53:51Z</time>
      </trkpt>
      <trkpt lat="43.06059" lon="3.0365">
        <ele>-7.8000001907349</ele>
        <time>2012-10-24T08:53:52Z</time>
      </trkpt>
      <trkpt lat="43.06063" lon="3.03642">
        <ele>-8.3999996185303</ele>
        <time>2012-10-24T08:54:00Z</time>
      </trkpt>
      <trkpt lat="43.0607" lon="3.03632">
        <ele>-9.1999998092651</ele>
        <time>2012-10-24T08:54:10Z</time>
      </trkpt>
      <trkpt lat="43.06073" lon="3.03627">
        <ele>-9.3999996185303</ele>
        <time>2012-10-24T08:54:14Z</time>
      </trkpt>
      <trkpt lat="43.06076" lon="3.03622">
        <ele>-9.3999996185303</ele>
        <time>2012-10-24T08:54:17Z</time>
      </trkpt>
      <trkpt lat="43.06078" lon="3.03618">
        <ele>-9.6000003814697</ele>
        <time>2012-10-24T08:54:19Z</time>
      </trkpt>
      <trkpt lat="43.06082" lon="3.0361">
        <ele>-9.6000003814697</ele>
        <time>2012-10-24T08:54:25Z</time>
      </trkpt>
      <trkpt lat="43.06087" lon="3.03598">
        <ele>-9.6000003814697</ele>
        <time>2012-10-24T08:54:33Z</time>
      </trkpt>
      <trkpt lat="43.06092" lon="3.03589">
        <ele>-9.6000003814697</ele>
        <time>2012-10-24T08:54:41Z</time>
      </trkpt>
      <trkpt lat="43.061" lon="3.03581">
        <ele>-9.6000003814697</ele>
        <time>2012-10-24T08:54:49Z</time>
      </trkpt>
      <trkpt lat="43.06106" lon="3.03574">
        <ele>-9.6000003814697</ele>
        <time>2012-10-24T08:54:55Z</time>
      </trkpt>
      <trkpt lat="43.0611" lon="3.03569">
        <ele>-9.6000003814697</ele>
        <time>2012-10-24T08:54:59Z</time>
      </trkpt>
      <trkpt lat="43.06111" lon="3.03568">
        <ele>-9.8000001907349</ele>
        <time>2012-10-24T08:55:00Z</time>
      </trkpt>
      <trkpt lat="43.06111" lon="3.03567">
        <ele>-9.6000003814697</ele>
        <time>2012-10-24T08:55:01Z</time>
      </trkpt>
      <trkpt lat="43.06115" lon="3.03563">
        <ele>-8.1999998092651</ele>
        <time>2012-10-24T08:55:11Z</time>
      </trkpt>
      <trkpt lat="43.06117" lon="3.03559">
        <ele>-7.5999999046326</ele>
        <time>2012-10-24T08:55:15Z</time>
      </trkpt>
      <trkpt lat="43.0612" lon="3.03554">
        <ele>-6.8000001907349</ele>
        <time>2012-10-24T08:55:21Z</time>
      </trkpt>
      <trkpt lat="43.06119" lon="3.03552">
        <ele>-6.8000001907349</ele>
        <time>2012-10-24T08:55:22Z</time>
      </trkpt>
      <trkpt lat="43.0612" lon="3.0355">
        <ele>-6.5999999046326</ele>
        <time>2012-10-24T08:55:28Z</time>
      </trkpt>
      <trkpt lat="43.06122" lon="3.03546">
        <ele>-5.8000001907349</ele>
        <time>2012-10-24T08:55:37Z</time>
      </trkpt>
      <trkpt lat="43.06123" lon="3.03541">
        <ele>-5.4000000953674</ele>
        <time>2012-10-24T08:55:44Z</time>
      </trkpt>
      <trkpt lat="43.06125" lon="3.0354">
        <ele>-4</ele>
        <time>2012-10-24T08:55:59Z</time>
      </trkpt>
      <trkpt lat="43.06128" lon="3.03542">
        <ele>-2.5999999046326</ele>
        <time>2012-10-24T08:56:18Z</time>
      </trkpt>
      <trkpt lat="43.06128" lon="3.03542">
        <ele>-2.2000000476837</ele>
        <time>2012-10-24T08:56:24Z</time>
      </trkpt>
      <trkpt lat="43.06127" lon="3.03536">
        <ele>-2.2000000476837</ele>
        <time>2012-10-24T08:56:31Z</time>
      </trkpt>
      <trkpt lat="43.06122" lon="3.03536">
        <ele>-2.2000000476837</ele>
        <time>2012-10-24T08:56:38Z</time>
      </trkpt>
      <trkpt lat="43.06117" lon="3.03532">
        <ele>-2</ele>
        <time>2012-10-24T08:56:46Z</time>
      </trkpt>
      <trkpt lat="43.06114" lon="3.03531">
        <ele>-1.7999999523163</ele>
        <time>2012-10-24T08:56:53Z</time>
      </trkpt>
      <trkpt lat="43.06119" lon="3.03529">
        <ele>-1</ele>
        <time>2012-10-24T08:57:00Z</time>
      </trkpt>
      <trkpt lat="43.06118" lon="3.03527">
        <ele>-0.60000002384186</ele>
        <time>2012-10-24T08:57:06Z</time>
      </trkpt>
      <trkpt lat="43.06119" lon="3.03527">
        <ele>-0.80000001192093</ele>
        <time>2012-10-24T08:57:08Z</time>
      </trkpt>
      <trkpt lat="43.06125" lon="3.03525">
        <ele>-0.60000002384186</ele>
        <time>2012-10-24T08:57:12Z</time>
      </trkpt>
      <trkpt lat="43.06129" lon="3.03523">
        <ele>-0.40000000596046</ele>
        <time>2012-10-24T08:57:17Z</time>
      </trkpt>
      <trkpt lat="43.06128" lon="3.03523">
        <ele>-0.40000000596046</ele>
        <time>2012-10-24T08:57:18Z</time>
      </trkpt>
      <trkpt lat="43.06126" lon="3.03516">
        <ele>-0.80000001192093</ele>
        <time>2012-10-24T08:57:24Z</time>
      </trkpt>
      <trkpt lat="43.06125" lon="3.03515">
        <ele>-1.2000000476837</ele>
        <time>2012-10-24T08:57:28Z</time>
      </trkpt>
      <trkpt lat="43.06128" lon="3.03513">
        <ele>-2</ele>
        <time>2012-10-24T08:57:34Z</time>
      </trkpt>
      <trkpt lat="43.06134" lon="3.03509">
        <ele>-2.4000000953674</ele>
        <time>2012-10-24T08:57:37Z</time>
      </trkpt>
      <trkpt lat="43.06136" lon="3.03507">
        <ele>-2.7999999523163</ele>
        <time>2012-10-24T08:57:40Z</time>
      </trkpt>
      <trkpt lat="43.06135" lon="3.03506">
        <ele>-2.7999999523163</ele>
        <time>2012-10-24T08:57:41Z</time>
      </trkpt>
      <trkpt lat="43.06134" lon="3.03506">
        <ele>-3</ele>
        <time>2012-10-24T08:57:42Z</time>
      </trkpt>
      <trkpt lat="43.06123" lon="3.03507">
        <ele>-3.5999999046326</ele>
        <time>2012-10-24T08:57:50Z</time>
      </trkpt>
      <trkpt lat="43.06128" lon="3.03504">
        <ele>-4.1999998092651</ele>
        <time>2012-10-24T08:57:53Z</time>
      </trkpt>
      <trkpt lat="43.06134" lon="3.035">
        <ele>-4.8000001907349</ele>
        <time>2012-10-24T08:57:57Z</time>
      </trkpt>
      <trkpt lat="43.06134" lon="3.035">
        <ele>-5</ele>
        <time>2012-10-24T08:57:58Z</time>
      </trkpt>
      <trkpt lat="43.06131" lon="3.03501">
        <ele>-5.5999999046326</ele>
        <time>2012-10-24T08:58:02Z</time>
      </trkpt>
      <trkpt lat="43.06124" lon="3.03499">
        <ele>-6.4000000953674</ele>
        <time>2012-10-24T08:58:06Z</time>
      </trkpt>
      <trkpt lat="43.0612" lon="3.03503">
        <ele>-6.5999999046326</ele>
        <time>2012-10-24T08:58:09Z</time>
      </trkpt>
      <trkpt lat="43.0612" lon="3.03506">
        <ele>-6.5999999046326</ele>
        <time>2012-10-24T08:58:10Z</time>
      </trkpt>
      <trkpt lat="43.06122" lon="3.03508">
        <ele>-6.8000001907349</ele>
        <time>2012-10-24T08:58:13Z</time>
      </trkpt>
      <trkpt lat="43.06123" lon="3.03506">
        <ele>-7</ele>
        <time>2012-10-24T08:58:15Z</time>
      </trkpt>
      <trkpt lat="43.06124" lon="3.03503">
        <ele>-7.1999998092651</ele>
        <time>2012-10-24T08:58:19Z</time>
      </trkpt>
      <trkpt lat="43.06123" lon="3.03505">
        <ele>-7.1999998092651</ele>
        <time>2012-10-24T08:58:22Z</time>
      </trkpt>
      <trkpt lat="43.06121" lon="3.0351">
        <ele>-7.1999998092651</ele>
        <time>2012-10-24T08:58:25Z</time>
      </trkpt>
      <trkpt lat="43.06123" lon="3.03508">
        <ele>-7.1999998092651</ele>
        <time>2012-10-24T08:58:26Z</time>
      </trkpt>
      <trkpt lat="43.06128" lon="3.0351">
        <ele>-6.1999998092651</ele>
        <time>2012-10-24T08:58:31Z</time>
      </trkpt>
      <trkpt lat="43.06125" lon="3.03513">
        <ele>-4</ele>
        <time>2012-10-24T08:58:38Z</time>
      </trkpt>
      <trkpt lat="43.06122" lon="3.03522">
        <ele>-2</ele>
        <time>2012-10-24T08:58:44Z</time>
      </trkpt>
      <trkpt lat="43.06122" lon="3.03527">
        <ele>-0.60000002384186</ele>
        <time>2012-10-24T08:58:47Z</time>
      </trkpt>
      <trkpt lat="43.06124" lon="3.03526">
        <ele>0.40000000596046</ele>
        <time>2012-10-24T08:58:49Z</time>
      </trkpt>
      <trkpt lat="43.06122" lon="3.0353">
        <ele>3.7999999523163</ele>
        <time>2012-10-24T08:58:54Z</time>
      </trkpt>
      <trkpt lat="43.06117" lon="3.03536">
        <ele>5.8000001907349</ele>
        <time>2012-10-24T08:58:58Z</time>
      </trkpt>
      <trkpt lat="43.0612" lon="3.03534">
        <ele>7.5999999046326</ele>
        <time>2012-10-24T08:59:03Z</time>
      </trkpt>
      <trkpt lat="43.06124" lon="3.03536">
        <ele>9.8000001907349</ele>
        <time>2012-10-24T08:59:10Z</time>
      </trkpt>
      <trkpt lat="43.06128" lon="3.03539">
        <ele>10.800000190735</ele>
        <time>2012-10-24T08:59:16Z</time>
      </trkpt>
      <trkpt lat="43.06129" lon="3.03538">
        <ele>11.60000038147</ele>
        <time>2012-10-24T08:59:23Z</time>
      </trkpt>
      <trkpt lat="43.0612" lon="3.03535">
        <ele>10</ele>
        <time>2012-10-24T08:59:56Z</time>
      </trkpt>
      <trkpt lat="43.06113" lon="3.0353">
        <ele>9.6000003814697</ele>
        <time>2012-10-24T09:00:04Z</time>
      </trkpt>
      <trkpt lat="43.06114" lon="3.03531">
        <ele>9.1999998092651</ele>
        <time>2012-10-24T09:00:11Z</time>
      </trkpt>
      <trkpt lat="43.06112" lon="3.0353">
        <ele>9</ele>
        <time>2012-10-24T09:00:19Z</time>
      </trkpt>
      <trkpt lat="43.06111" lon="3.03528">
        <ele>9</ele>
        <time>2012-10-24T09:00:23Z</time>
      </trkpt>
      <trkpt lat="43.06109" lon="3.03523">
        <ele>8.8000001907349</ele>
        <time>2012-10-24T09:00:27Z</time>
      </trkpt>
      <trkpt lat="43.06108" lon="3.03522">
        <ele>8.8000001907349</ele>
        <time>2012-10-24T09:00:28Z</time>
      </trkpt>
      <trkpt lat="43.06104" lon="3.03517">
        <ele>8.6000003814697</ele>
        <time>2012-10-24T09:00:36Z</time>
      </trkpt>
      <trkpt lat="43.06098" lon="3.03512">
        <ele>8.1999998092651</ele>
        <time>2012-10-24T09:00:43Z</time>
      </trkpt>
      <trkpt lat="43.06096" lon="3.03509">
        <ele>8</ele>
        <time>2012-10-24T09:00:49Z</time>
      </trkpt>
      <trkpt lat="43.06097" lon="3.03504">
        <ele>7.8000001907349</ele>
        <time>2012-10-24T09:00:52Z</time>
      </trkpt>
      <trkpt lat="43.06098" lon="3.03504">
        <ele>7.8000001907349</ele>
        <time>2012-10-24T09:00:55Z</time>
      </trkpt>
      <trkpt lat="43.06096" lon="3.03503">
        <ele>9.8000001907349</ele>
        <time>2012-10-24T09:01:03Z</time>
      </trkpt>
      <trkpt lat="43.06092" lon="3.03501">
        <ele>11.199999809265</ele>
        <time>2012-10-24T09:01:08Z</time>
      </trkpt>
      <trkpt lat="43.06092" lon="3.03501">
        <ele>11.199999809265</ele>
        <time>2012-10-24T09:01:09Z</time>
      </trkpt>
      <trkpt lat="43.0609" lon="3.03498">
        <ele>12.39999961853</ele>
        <time>2012-10-24T09:01:16Z</time>
      </trkpt>
      <trkpt lat="43.06088" lon="3.03496">
        <ele>14.60000038147</ele>
        <time>2012-10-24T09:01:28Z</time>
      </trkpt>
      <trkpt lat="43.06081" lon="3.03491">
        <ele>14.60000038147</ele>
        <time>2012-10-24T09:01:57Z</time>
      </trkpt>
      <trkpt lat="43.06071" lon="3.03499">
        <ele>14.199999809265</ele>
        <time>2012-10-24T09:02:06Z</time>
      </trkpt>
      <trkpt lat="43.06069" lon="3.03501">
        <ele>14</ele>
        <time>2012-10-24T09:02:08Z</time>
      </trkpt>
      <trkpt lat="43.06065" lon="3.03504">
        <ele>13.800000190735</ele>
        <time>2012-10-24T09:02:12Z</time>
      </trkpt>
      <trkpt lat="43.06063" lon="3.03506">
        <ele>13.60000038147</ele>
        <time>2012-10-24T09:02:14Z</time>
      </trkpt>
      <trkpt lat="43.0606" lon="3.03512">
        <ele>13.199999809265</ele>
        <time>2012-10-24T09:02:19Z</time>
      </trkpt>
      <trkpt lat="43.06058" lon="3.03516">
        <ele>12.800000190735</ele>
        <time>2012-10-24T09:02:23Z</time>
      </trkpt>
      <trkpt lat="43.06055" lon="3.0352">
        <ele>12.60000038147</ele>
        <time>2012-10-24T09:02:26Z</time>
      </trkpt>
      <trkpt lat="43.06051" lon="3.03525">
        <ele>12.199999809265</ele>
        <time>2012-10-24T09:02:33Z</time>
      </trkpt>
      <trkpt lat="43.06047" lon="3.03529">
        <ele>12</ele>
        <time>2012-10-24T09:02:37Z</time>
      </trkpt>
      <trkpt lat="43.06045" lon="3.03534">
        <ele>11.800000190735</ele>
        <time>2012-10-24T09:02:41Z</time>
      </trkpt>
      <trkpt lat="43.06044" lon="3.03534">
        <ele>11.60000038147</ele>
        <time>2012-10-24T09:02:42Z</time>
      </trkpt>
      <trkpt lat="43.06043" lon="3.03535">
        <ele>11.60000038147</ele>
        <time>2012-10-24T09:02:43Z</time>
      </trkpt>
      <trkpt lat="43.06041" lon="3.03537">
        <ele>11.199999809265</ele>
        <time>2012-10-24T09:02:46Z</time>
      </trkpt>
      <trkpt lat="43.06039" lon="3.0354">
        <ele>10.60000038147</ele>
        <time>2012-10-24T09:02:53Z</time>
      </trkpt>
      <trkpt lat="43.06035" lon="3.03547">
        <ele>10.39999961853</ele>
        <time>2012-10-24T09:03:06Z</time>
      </trkpt>
      <trkpt lat="43.06034" lon="3.03551">
        <ele>10.800000190735</ele>
        <time>2012-10-24T09:03:12Z</time>
      </trkpt>
      <trkpt lat="43.06032" lon="3.03555">
        <ele>10.800000190735</ele>
        <time>2012-10-24T09:03:23Z</time>
      </trkpt>
      <trkpt lat="43.06029" lon="3.03561">
        <ele>10.800000190735</ele>
        <time>2012-10-24T09:03:31Z</time>
      </trkpt>
      <trkpt lat="43.06027" lon="3.03567">
        <ele>10.60000038147</ele>
        <time>2012-10-24T09:03:39Z</time>
      </trkpt>
      <trkpt lat="43.06027" lon="3.03569">
        <ele>10.800000190735</ele>
        <time>2012-10-24T09:03:41Z</time>
      </trkpt>
      <trkpt lat="43.06026" lon="3.03571">
        <ele>10.800000190735</ele>
        <time>2012-10-24T09:03:43Z</time>
      </trkpt>
      <trkpt lat="43.06027" lon="3.03572">
        <ele>10.800000190735</ele>
        <time>2012-10-24T09:03:44Z</time>
      </trkpt>
      <trkpt lat="43.06026" lon="3.03573">
        <ele>10.800000190735</ele>
        <time>2012-10-24T09:03:45Z</time>
      </trkpt>
      <trkpt lat="43.06024" lon="3.03577">
        <ele>11.199999809265</ele>
        <time>2012-10-24T09:03:49Z</time>
      </trkpt>
      <trkpt lat="43.06021" lon="3.03581">
        <ele>11.39999961853</ele>
        <time>2012-10-24T09:03:54Z</time>
      </trkpt>
      <trkpt lat="43.06021" lon="3.03583">
        <ele>11.39999961853</ele>
        <time>2012-10-24T09:03:57Z</time>
      </trkpt>
      <trkpt lat="43.06015" lon="3.03583">
        <ele>12.199999809265</ele>
        <time>2012-10-24T09:04:04Z</time>
      </trkpt>
      <trkpt lat="43.06013" lon="3.03583">
        <ele>12.199999809265</ele>
        <time>2012-10-24T09:04:05Z</time>
      </trkpt>
      <trkpt lat="43.0601" lon="3.03589">
        <ele>12</ele>
        <time>2012-10-24T09:04:10Z</time>
      </trkpt>
      <trkpt lat="43.06009" lon="3.03589">
        <ele>12.199999809265</ele>
        <time>2012-10-24T09:04:11Z</time>
      </trkpt>
      <trkpt lat="43.06005" lon="3.03598">
        <ele>12.800000190735</ele>
        <time>2012-10-24T09:04:18Z</time>
      </trkpt>
      <trkpt lat="43.06002" lon="3.03603">
        <ele>13</ele>
        <time>2012-10-24T09:04:23Z</time>
      </trkpt>
      <trkpt lat="43.06002" lon="3.03604">
        <ele>13</ele>
        <time>2012-10-24T09:04:24Z</time>
      </trkpt>
      <trkpt lat="43.06" lon="3.0361">
        <ele>12.800000190735</ele>
        <time>2012-10-24T09:04:30Z</time>
      </trkpt>
      <trkpt lat="43.05999" lon="3.03613">
        <ele>12.800000190735</ele>
        <time>2012-10-24T09:04:33Z</time>
      </trkpt>
      <trkpt lat="43.05996" lon="3.03617">
        <ele>12.60000038147</ele>
        <time>2012-10-24T09:04:37Z</time>
      </trkpt>
      <trkpt lat="43.05995" lon="3.03619">
        <ele>12.60000038147</ele>
        <time>2012-10-24T09:04:39Z</time>
      </trkpt>
      <trkpt lat="43.05994" lon="3.03623">
        <ele>12.60000038147</ele>
        <time>2012-10-24T09:04:43Z</time>
      </trkpt>
      <trkpt lat="43.05992" lon="3.03627">
        <ele>12.800000190735</ele>
        <time>2012-10-24T09:04:47Z</time>
      </trkpt>
      <trkpt lat="43.05991" lon="3.03628">
        <ele>12.800000190735</ele>
        <time>2012-10-24T09:04:49Z</time>
      </trkpt>
      <trkpt lat="43.0599" lon="3.03632">
        <ele>12.800000190735</ele>
        <time>2012-10-24T09:04:53Z</time>
      </trkpt>
      <trkpt lat="43.0599" lon="3.03635">
        <ele>12.800000190735</ele>
        <time>2012-10-24T09:04:55Z</time>
      </trkpt>
      <trkpt lat="43.05989" lon="3.03638">
        <ele>13</ele>
        <time>2012-10-24T09:04:57Z</time>
      </trkpt>
      <trkpt lat="43.05985" lon="3.03648">
        <ele>13.800000190735</ele>
        <time>2012-10-24T09:05:06Z</time>
      </trkpt>
      <trkpt lat="43.05985" lon="3.0365">
        <ele>13.800000190735</ele>
        <time>2012-10-24T09:05:07Z</time>
      </trkpt>
      <trkpt lat="43.05983" lon="3.03653">
        <ele>14</ele>
        <time>2012-10-24T09:05:11Z</time>
      </trkpt>
      <trkpt lat="43.05982" lon="3.03654">
        <ele>14</ele>
        <time>2012-10-24T09:05:12Z</time>
      </trkpt>
      <trkpt lat="43.0598" lon="3.03659">
        <ele>14</ele>
        <time>2012-10-24T09:05:17Z</time>
      </trkpt>
      <trkpt lat="43.05978" lon="3.03665">
        <ele>13.800000190735</ele>
        <time>2012-10-24T09:05:21Z</time>
      </trkpt>
      <trkpt lat="43.05977" lon="3.03669">
        <ele>13.800000190735</ele>
        <time>2012-10-24T09:05:24Z</time>
      </trkpt>
      <trkpt lat="43.05975" lon="3.03679">
        <ele>13.60000038147</ele>
        <time>2012-10-24T09:05:32Z</time>
      </trkpt>
      <trkpt lat="43.05975" lon="3.0368">
        <ele>13.60000038147</ele>
        <time>2012-10-24T09:05:33Z</time>
      </trkpt>
      <trkpt lat="43.05975" lon="3.03685">
        <ele>13.39999961853</ele>
        <time>2012-10-24T09:05:37Z</time>
      </trkpt>
      <trkpt lat="43.0597" lon="3.03695">
        <ele>13.39999961853</ele>
        <time>2012-10-24T09:05:45Z</time>
      </trkpt>
      <trkpt lat="43.05967" lon="3.03698">
        <ele>13.39999961853</ele>
        <time>2012-10-24T09:05:52Z</time>
      </trkpt>
      <trkpt lat="43.05966" lon="3.037">
        <ele>13.60000038147</ele>
        <time>2012-10-24T09:05:55Z</time>
      </trkpt>
      <trkpt lat="43.05965" lon="3.03701">
        <ele>13.60000038147</ele>
        <time>2012-10-24T09:05:56Z</time>
      </trkpt>
      <trkpt lat="43.05964" lon="3.03702">
        <ele>13.60000038147</ele>
        <time>2012-10-24T09:05:57Z</time>
      </trkpt>
      <trkpt lat="43.05963" lon="3.03705">
        <ele>13.39999961853</ele>
        <time>2012-10-24T09:06:00Z</time>
      </trkpt>
      <trkpt lat="43.05962" lon="3.03709">
        <ele>13.60000038147</ele>
        <time>2012-10-24T09:06:02Z</time>
      </trkpt>
      <trkpt lat="43.0596" lon="3.03714">
        <ele>13.60000038147</ele>
        <time>2012-10-24T09:06:06Z</time>
      </trkpt>
      <trkpt lat="43.05958" lon="3.03717">
        <ele>13.60000038147</ele>
        <time>2012-10-24T09:06:09Z</time>
      </trkpt>
      <trkpt lat="43.05954" lon="3.03725">
        <ele>13.39999961853</ele>
        <time>2012-10-24T09:06:17Z</time>
      </trkpt>
      <trkpt lat="43.05951" lon="3.03732">
        <ele>13</ele>
        <time>2012-10-24T09:06:24Z</time>
      </trkpt>
      <trkpt lat="43.05949" lon="3.03733">
        <ele>12.800000190735</ele>
        <time>2012-10-24T09:06:33Z</time>
      </trkpt>
      <trkpt lat="43.05949" lon="3.03736">
        <ele>12.199999809265</ele>
        <time>2012-10-24T09:06:54Z</time>
      </trkpt>
      <trkpt lat="43.05949" lon="3.03736">
        <ele>12.199999809265</ele>
        <time>2012-10-24T09:06:59Z</time>
      </trkpt>
      <trkpt lat="43.05946" lon="3.03736">
        <ele>12.199999809265</ele>
        <time>2012-10-24T09:08:28Z</time>
      </trkpt>
      <trkpt lat="43.05944" lon="3.03733">
        <ele>11.800000190735</ele>
        <time>2012-10-24T09:08:43Z</time>
      </trkpt>
      <trkpt lat="43.05944" lon="3.03732">
        <ele>11.199999809265</ele>
        <time>2012-10-24T09:08:55Z</time>
      </trkpt>
      <trkpt lat="43.05942" lon="3.03729">
        <ele>11.199999809265</ele>
        <time>2012-10-24T09:09:01Z</time>
      </trkpt>
      <trkpt lat="43.05942" lon="3.03727">
        <ele>11.199999809265</ele>
        <time>2012-10-24T09:09:03Z</time>
      </trkpt>
      <trkpt lat="43.05941" lon="3.03724">
        <ele>11.199999809265</ele>
        <time>2012-10-24T09:09:06Z</time>
      </trkpt>
      <trkpt lat="43.05938" lon="3.03725">
        <ele>11.39999961853</ele>
        <time>2012-10-24T09:09:10Z</time>
      </trkpt>
      <trkpt lat="43.05936" lon="3.03727">
        <ele>11.60000038147</ele>
        <time>2012-10-24T09:09:16Z</time>
      </trkpt>
      <trkpt lat="43.05933" lon="3.03729">
        <ele>11.800000190735</ele>
        <time>2012-10-24T09:09:21Z</time>
      </trkpt>
      <trkpt lat="43.0593" lon="3.03729">
        <ele>12.39999961853</ele>
        <time>2012-10-24T09:09:25Z</time>
      </trkpt>
      <trkpt lat="43.05928" lon="3.03732">
        <ele>13.199999809265</ele>
        <time>2012-10-24T09:09:29Z</time>
      </trkpt>
      <trkpt lat="43.05927" lon="3.03736">
        <ele>15</ele>
        <time>2012-10-24T09:09:36Z</time>
      </trkpt>
      <trkpt lat="43.05926" lon="3.03738">
        <ele>16.200000762939</ele>
        <time>2012-10-24T09:09:41Z</time>
      </trkpt>
      <trkpt lat="43.05925" lon="3.03741">
        <ele>17.60000038147</ele>
        <time>2012-10-24T09:09:46Z</time>
      </trkpt>
      <trkpt lat="43.05919" lon="3.03739">
        <ele>20.799999237061</ele>
        <time>2012-10-24T09:11:50Z</time>
      </trkpt>
      <trkpt lat="43.05919" lon="3.0374">
        <ele>20.39999961853</ele>
        <time>2012-10-24T09:12:14Z</time>
      </trkpt>
      <trkpt lat="43.0592" lon="3.03737">
        <ele>20.799999237061</ele>
        <time>2012-10-24T09:12:29Z</time>
      </trkpt>
      <trkpt lat="43.05921" lon="3.03731">
        <ele>20.799999237061</ele>
        <time>2012-10-24T09:12:37Z</time>
      </trkpt>
      <trkpt lat="43.05924" lon="3.03723">
        <ele>21</ele>
        <time>2012-10-24T09:12:43Z</time>
      </trkpt>
      <trkpt lat="43.05925" lon="3.03722">
        <ele>21</ele>
        <time>2012-10-24T09:12:44Z</time>
      </trkpt>
      <trkpt lat="43.05927" lon="3.03716">
        <ele>21.39999961853</ele>
        <time>2012-10-24T09:12:51Z</time>
      </trkpt>
      <trkpt lat="43.05924" lon="3.03712">
        <ele>21.200000762939</ele>
        <time>2012-10-24T09:12:59Z</time>
      </trkpt>
      <trkpt lat="43.05921" lon="3.0371">
        <ele>21</ele>
        <time>2012-10-24T09:13:11Z</time>
      </trkpt>
      <trkpt lat="43.05923" lon="3.03709">
        <ele>21</ele>
        <time>2012-10-24T09:13:21Z</time>
      </trkpt>
      <trkpt lat="43.05924" lon="3.03706">
        <ele>22</ele>
        <time>2012-10-24T09:13:34Z</time>
      </trkpt>
      <trkpt lat="43.05925" lon="3.03703">
        <ele>22.39999961853</ele>
        <time>2012-10-24T09:13:40Z</time>
      </trkpt>
      <trkpt lat="43.05926" lon="3.03703">
        <ele>22.799999237061</ele>
        <time>2012-10-24T09:13:46Z</time>
      </trkpt>
      <trkpt lat="43.05926" lon="3.03706">
        <ele>22.799999237061</ele>
        <time>2012-10-24T09:13:54Z</time>
      </trkpt>
      <trkpt lat="43.05927" lon="3.03712">
        <ele>22.799999237061</ele>
        <time>2012-10-24T09:14:11Z</time>
      </trkpt>
      <trkpt lat="43.05929" lon="3.03704">
        <ele>25.39999961853</ele>
        <time>2012-10-24T09:18:24Z</time>
      </trkpt>
      <trkpt lat="43.05933" lon="3.03696">
        <ele>25.39999961853</ele>
        <time>2012-10-24T09:18:31Z</time>
      </trkpt>
      <trkpt lat="43.05936" lon="3.03689">
        <ele>25.60000038147</ele>
        <time>2012-10-24T09:18:38Z</time>
      </trkpt>
      <trkpt lat="43.05938" lon="3.03685">
        <ele>25.799999237061</ele>
        <time>2012-10-24T09:18:42Z</time>
      </trkpt>
      <trkpt lat="43.05941" lon="3.03677">
        <ele>26</ele>
        <time>2012-10-24T09:18:49Z</time>
      </trkpt>
      <trkpt lat="43.05944" lon="3.03666">
        <ele>26.200000762939</ele>
        <time>2012-10-24T09:18:57Z</time>
      </trkpt>
      <trkpt lat="43.0595" lon="3.03656">
        <ele>26.200000762939</ele>
        <time>2012-10-24T09:19:06Z</time>
      </trkpt>
      <trkpt lat="43.05954" lon="3.03646">
        <ele>26</ele>
        <time>2012-10-24T09:19:14Z</time>
      </trkpt>
      <trkpt lat="43.05958" lon="3.03634">
        <ele>26.200000762939</ele>
        <time>2012-10-24T09:19:23Z</time>
      </trkpt>
      <trkpt lat="43.05958" lon="3.03622">
        <ele>26.39999961853</ele>
        <time>2012-10-24T09:19:32Z</time>
      </trkpt>
      <trkpt lat="43.05954" lon="3.03614">
        <ele>26.60000038147</ele>
        <time>2012-10-24T09:19:39Z</time>
      </trkpt>
      <trkpt lat="43.05949" lon="3.03605">
        <ele>27</ele>
        <time>2012-10-24T09:19:47Z</time>
      </trkpt>
      <trkpt lat="43.05947" lon="3.03598">
        <ele>27.200000762939</ele>
        <time>2012-10-24T09:19:53Z</time>
      </trkpt>
      <trkpt lat="43.05947" lon="3.03587">
        <ele>27.60000038147</ele>
        <time>2012-10-24T09:20:00Z</time>
      </trkpt>
      <trkpt lat="43.05951" lon="3.03576">
        <ele>28</ele>
        <time>2012-10-24T09:20:08Z</time>
      </trkpt>
      <trkpt lat="43.05956" lon="3.0357">
        <ele>28</ele>
        <time>2012-10-24T09:20:15Z</time>
      </trkpt>
      <trkpt lat="43.05955" lon="3.03568">
        <ele>28.200000762939</ele>
        <time>2012-10-24T09:20:21Z</time>
      </trkpt>
      <trkpt lat="43.05957" lon="3.03567">
        <ele>28.200000762939</ele>
        <time>2012-10-24T09:20:23Z</time>
      </trkpt>
      <trkpt lat="43.05959" lon="3.03564">
        <ele>28.200000762939</ele>
        <time>2012-10-24T09:20:26Z</time>
      </trkpt>
      <trkpt lat="43.0596" lon="3.03563">
        <ele>28.200000762939</ele>
        <time>2012-10-24T09:20:28Z</time>
      </trkpt>
      <trkpt lat="43.05967" lon="3.03557">
        <ele>28.200000762939</ele>
        <time>2012-10-24T09:20:35Z</time>
      </trkpt>
      <trkpt lat="43.05974" lon="3.03553">
        <ele>28</ele>
        <time>2012-10-24T09:20:43Z</time>
      </trkpt>
      <trkpt lat="43.05978" lon="3.03553">
        <ele>28</ele>
        <time>2012-10-24T09:20:47Z</time>
      </trkpt>
      <trkpt lat="43.05981" lon="3.03552">
        <ele>27.799999237061</ele>
        <time>2012-10-24T09:20:50Z</time>
      </trkpt>
      <trkpt lat="43.05989" lon="3.03549">
        <ele>27.60000038147</ele>
        <time>2012-10-24T09:20:58Z</time>
      </trkpt>
      <trkpt lat="43.05997" lon="3.03541">
        <ele>27.39999961853</ele>
        <time>2012-10-24T09:21:06Z</time>
      </trkpt>
      <trkpt lat="43.06001" lon="3.03532">
        <ele>27.200000762939</ele>
        <time>2012-10-24T09:21:13Z</time>
      </trkpt>
      <trkpt lat="43.06004" lon="3.03523">
        <ele>27</ele>
        <time>2012-10-24T09:21:22Z</time>
      </trkpt>
      <trkpt lat="43.06008" lon="3.03519">
        <ele>26.799999237061</ele>
        <time>2012-10-24T09:21:27Z</time>
      </trkpt>
      <trkpt lat="43.0601" lon="3.03515">
        <ele>26.799999237061</ele>
        <time>2012-10-24T09:21:31Z</time>
      </trkpt>
      <trkpt lat="43.06015" lon="3.03504">
        <ele>26.39999961853</ele>
        <time>2012-10-24T09:21:40Z</time>
      </trkpt>
      <trkpt lat="43.06021" lon="3.03488">
        <ele>26.200000762939</ele>
        <time>2012-10-24T09:21:50Z</time>
      </trkpt>
      <trkpt lat="43.06025" lon="3.03478">
        <ele>26</ele>
        <time>2012-10-24T09:21:58Z</time>
      </trkpt>
      <trkpt lat="43.06029" lon="3.03466">
        <ele>25.799999237061</ele>
        <time>2012-10-24T09:22:06Z</time>
      </trkpt>
      <trkpt lat="43.06032" lon="3.03455">
        <ele>25.799999237061</ele>
        <time>2012-10-24T09:22:13Z</time>
      </trkpt>
      <trkpt lat="43.06036" lon="3.03446">
        <ele>25.60000038147</ele>
        <time>2012-10-24T09:22:20Z</time>
      </trkpt>
      <trkpt lat="43.0604" lon="3.0344">
        <ele>25.60000038147</ele>
        <time>2012-10-24T09:22:26Z</time>
      </trkpt>
      <trkpt lat="43.0604" lon="3.0344">
        <ele>25.60000038147</ele>
        <time>2012-10-24T09:22:27Z</time>
      </trkpt>
      <trkpt lat="43.06042" lon="3.03435">
        <ele>25.60000038147</ele>
        <time>2012-10-24T09:22:33Z</time>
      </trkpt>
      <trkpt lat="43.06047" lon="3.03427">
        <ele>25.39999961853</ele>
        <time>2012-10-24T09:22:41Z</time>
      </trkpt>
      <trkpt lat="43.06048" lon="3.03428">
        <ele>25.200000762939</ele>
        <time>2012-10-24T09:22:49Z</time>
      </trkpt>
      <trkpt lat="43.0605" lon="3.03416">
        <ele>25.200000762939</ele>
        <time>2012-10-24T09:23:39Z</time>
      </trkpt>
      <trkpt lat="43.06054" lon="3.03407">
        <ele>25.60000038147</ele>
        <time>2012-10-24T09:23:46Z</time>
      </trkpt>
      <trkpt lat="43.06059" lon="3.03394">
        <ele>26</ele>
        <time>2012-10-24T09:23:56Z</time>
      </trkpt>
      <trkpt lat="43.06062" lon="3.03382">
        <ele>26.200000762939</ele>
        <time>2012-10-24T09:24:05Z</time>
      </trkpt>
      <trkpt lat="43.06065" lon="3.03366">
        <ele>26</ele>
        <time>2012-10-24T09:24:15Z</time>
      </trkpt>
      <trkpt lat="43.06067" lon="3.03349">
        <ele>26</ele>
        <time>2012-10-24T09:24:25Z</time>
      </trkpt>
      <trkpt lat="43.06068" lon="3.03334">
        <ele>26.200000762939</ele>
        <time>2012-10-24T09:24:35Z</time>
      </trkpt>
      <trkpt lat="43.06068" lon="3.03333">
        <ele>26.200000762939</ele>
        <time>2012-10-24T09:24:43Z</time>
      </trkpt>
      <trkpt lat="43.06069" lon="3.03325">
        <ele>26.200000762939</ele>
        <time>2012-10-24T09:24:50Z</time>
      </trkpt>
      <trkpt lat="43.06069" lon="3.0331">
        <ele>26.200000762939</ele>
        <time>2012-10-24T09:24:59Z</time>
      </trkpt>
      <trkpt lat="43.0607" lon="3.0329">
        <ele>26.60000038147</ele>
        <time>2012-10-24T09:25:11Z</time>
      </trkpt>
      <trkpt lat="43.06072" lon="3.03274">
        <ele>27.200000762939</ele>
        <time>2012-10-24T09:25:21Z</time>
      </trkpt>
      <trkpt lat="43.06075" lon="3.03266">
        <ele>27.39999961853</ele>
        <time>2012-10-24T09:25:26Z</time>
      </trkpt>
      <trkpt lat="43.06077" lon="3.03258">
        <ele>27.799999237061</ele>
        <time>2012-10-24T09:25:32Z</time>
      </trkpt>
      <trkpt lat="43.06078" lon="3.03257">
        <ele>28</ele>
        <time>2012-10-24T09:25:33Z</time>
      </trkpt>
      <trkpt lat="43.06079" lon="3.03252">
        <ele>28.200000762939</ele>
        <time>2012-10-24T09:25:38Z</time>
      </trkpt>
      <trkpt lat="43.06083" lon="3.03244">
        <ele>28.200000762939</ele>
        <time>2012-10-24T09:25:45Z</time>
      </trkpt>
      <trkpt lat="43.06085" lon="3.03238">
        <ele>28.200000762939</ele>
        <time>2012-10-24T09:25:51Z</time>
      </trkpt>
      <trkpt lat="43.06089" lon="3.03229">
        <ele>28.39999961853</ele>
        <time>2012-10-24T09:25:58Z</time>
      </trkpt>
      <trkpt lat="43.06092" lon="3.03225">
        <ele>28.60000038147</ele>
        <time>2012-10-24T09:26:03Z</time>
      </trkpt>
      <trkpt lat="43.06093" lon="3.03224">
        <ele>28.60000038147</ele>
        <time>2012-10-24T09:26:05Z</time>
      </trkpt>
      <trkpt lat="43.06096" lon="3.03214">
        <ele>28.60000038147</ele>
        <time>2012-10-24T09:26:12Z</time>
      </trkpt>
      <trkpt lat="43.061" lon="3.03206">
        <ele>28.60000038147</ele>
        <time>2012-10-24T09:26:18Z</time>
      </trkpt>
      <trkpt lat="43.06104" lon="3.03198">
        <ele>28.799999237061</ele>
        <time>2012-10-24T09:26:25Z</time>
      </trkpt>
      <trkpt lat="43.06106" lon="3.03191">
        <ele>29</ele>
        <time>2012-10-24T09:26:30Z</time>
      </trkpt>
      <trkpt lat="43.06106" lon="3.0319">
        <ele>29.200000762939</ele>
        <time>2012-10-24T09:26:31Z</time>
      </trkpt>
      <trkpt lat="43.06108" lon="3.0319">
        <ele>29.200000762939</ele>
        <time>2012-10-24T09:26:36Z</time>
      </trkpt>
      <trkpt lat="43.06108" lon="3.0319">
        <ele>29</ele>
        <time>2012-10-24T09:26:37Z</time>
      </trkpt>
      <trkpt lat="43.0611" lon="3.03192">
        <ele>29.200000762939</ele>
        <time>2012-10-24T09:26:51Z</time>
      </trkpt>
      <trkpt lat="43.06108" lon="3.03186">
        <ele>31.200000762939</ele>
        <time>2012-10-24T09:27:27Z</time>
      </trkpt>
      <trkpt lat="43.0611" lon="3.03171">
        <ele>32</ele>
        <time>2012-10-24T09:27:37Z</time>
      </trkpt>
      <trkpt lat="43.06112" lon="3.03158">
        <ele>32.400001525879</ele>
        <time>2012-10-24T09:27:46Z</time>
      </trkpt>
      <trkpt lat="43.06115" lon="3.03141">
        <ele>32.400001525879</ele>
        <time>2012-10-24T09:27:57Z</time>
      </trkpt>
      <trkpt lat="43.06117" lon="3.03122">
        <ele>32.599998474121</ele>
        <time>2012-10-24T09:28:09Z</time>
      </trkpt>
      <trkpt lat="43.06118" lon="3.03113">
        <ele>32.599998474121</ele>
        <time>2012-10-24T09:28:17Z</time>
      </trkpt>
      <trkpt lat="43.0612" lon="3.03104">
        <ele>32.799999237061</ele>
        <time>2012-10-24T09:28:24Z</time>
      </trkpt>
      <trkpt lat="43.06121" lon="3.03098">
        <ele>33.200000762939</ele>
        <time>2012-10-24T09:28:28Z</time>
      </trkpt>
      <trkpt lat="43.06121" lon="3.03096">
        <ele>33.400001525879</ele>
        <time>2012-10-24T09:28:29Z</time>
      </trkpt>
      <trkpt lat="43.06121" lon="3.03086">
        <ele>34</ele>
        <time>2012-10-24T09:28:35Z</time>
      </trkpt>
      <trkpt lat="43.06121" lon="3.03084">
        <ele>34</ele>
        <time>2012-10-24T09:28:36Z</time>
      </trkpt>
      <trkpt lat="43.0612" lon="3.03073">
        <ele>34.200000762939</ele>
        <time>2012-10-24T09:28:44Z</time>
      </trkpt>
      <trkpt lat="43.06121" lon="3.03069">
        <ele>34.200000762939</ele>
        <time>2012-10-24T09:28:48Z</time>
      </trkpt>
      <trkpt lat="43.06122" lon="3.03068">
        <ele>34.200000762939</ele>
        <time>2012-10-24T09:28:50Z</time>
      </trkpt>
      <trkpt lat="43.06123" lon="3.03067">
        <ele>34.200000762939</ele>
        <time>2012-10-24T09:28:58Z</time>
      </trkpt>
      <trkpt lat="43.0612" lon="3.03064">
        <ele>34.799999237061</ele>
        <time>2012-10-24T09:29:55Z</time>
      </trkpt>
      <trkpt lat="43.06119" lon="3.03066">
        <ele>34.599998474121</ele>
        <time>2012-10-24T09:29:59Z</time>
      </trkpt>
      <trkpt lat="43.06116" lon="3.03066">
        <ele>34.400001525879</ele>
        <time>2012-10-24T09:30:05Z</time>
      </trkpt>
      <trkpt lat="43.06111" lon="3.03061">
        <ele>34.400001525879</ele>
        <time>2012-10-24T09:30:12Z</time>
      </trkpt>
      <trkpt lat="43.06106" lon="3.03057">
        <ele>34.400001525879</ele>
        <time>2012-10-24T09:30:18Z</time>
      </trkpt>
      <trkpt lat="43.06099" lon="3.03051">
        <ele>34.200000762939</ele>
        <time>2012-10-24T09:30:25Z</time>
      </trkpt>
      <trkpt lat="43.06094" lon="3.03047">
        <ele>34.200000762939</ele>
        <time>2012-10-24T09:30:30Z</time>
      </trkpt>
      <trkpt lat="43.06093" lon="3.03046">
        <ele>34.200000762939</ele>
        <time>2012-10-24T09:30:31Z</time>
      </trkpt>
      <trkpt lat="43.06083" lon="3.03041">
        <ele>34.599998474121</ele>
        <time>2012-10-24T09:30:40Z</time>
      </trkpt>
      <trkpt lat="43.06077" lon="3.03034">
        <ele>34.400001525879</ele>
        <time>2012-10-24T09:30:47Z</time>
      </trkpt>
      <trkpt lat="43.06069" lon="3.0303">
        <ele>34.200000762939</ele>
        <time>2012-10-24T09:30:54Z</time>
      </trkpt>
      <trkpt lat="43.06062" lon="3.03025">
        <ele>34</ele>
        <time>2012-10-24T09:31:01Z</time>
      </trkpt>
      <trkpt lat="43.06059" lon="3.0302">
        <ele>33.799999237061</ele>
        <time>2012-10-24T09:31:05Z</time>
      </trkpt>
      <trkpt lat="43.06057" lon="3.03017">
        <ele>33.799999237061</ele>
        <time>2012-10-24T09:31:07Z</time>
      </trkpt>
      <trkpt lat="43.06048" lon="3.0301">
        <ele>33.400001525879</ele>
        <time>2012-10-24T09:31:15Z</time>
      </trkpt>
      <trkpt lat="43.06042" lon="3.03003">
        <ele>33.200000762939</ele>
        <time>2012-10-24T09:31:22Z</time>
      </trkpt>
      <trkpt lat="43.06033" lon="3.02995">
        <ele>32.799999237061</ele>
        <time>2012-10-24T09:31:31Z</time>
      </trkpt>
      <trkpt lat="43.06024" lon="3.02987">
        <ele>32.200000762939</ele>
        <time>2012-10-24T09:31:40Z</time>
      </trkpt>
      <trkpt lat="43.06023" lon="3.02986">
        <ele>32.200000762939</ele>
        <time>2012-10-24T09:31:41Z</time>
      </trkpt>
      <trkpt lat="43.06018" lon="3.02983">
        <ele>32</ele>
        <time>2012-10-24T09:31:46Z</time>
      </trkpt>
      <trkpt lat="43.06011" lon="3.02976">
        <ele>31.799999237061</ele>
        <time>2012-10-24T09:31:53Z</time>
      </trkpt>
      <trkpt lat="43.06005" lon="3.02969">
        <ele>31.60000038147</ele>
        <time>2012-10-24T09:32:00Z</time>
      </trkpt>
      <trkpt lat="43.05997" lon="3.02964">
        <ele>31.799999237061</ele>
        <time>2012-10-24T09:32:07Z</time>
      </trkpt>
      <trkpt lat="43.05996" lon="3.02963">
        <ele>31.799999237061</ele>
        <time>2012-10-24T09:32:08Z</time>
      </trkpt>
      <trkpt lat="43.05994" lon="3.02961">
        <ele>31.799999237061</ele>
        <time>2012-10-24T09:32:11Z</time>
      </trkpt>
      <trkpt lat="43.0599" lon="3.02957">
        <ele>32</ele>
        <time>2012-10-24T09:32:15Z</time>
      </trkpt>
      <trkpt lat="43.05984" lon="3.02951">
        <ele>31.799999237061</ele>
        <time>2012-10-24T09:32:22Z</time>
      </trkpt>
      <trkpt lat="43.05978" lon="3.02945">
        <ele>32.200000762939</ele>
        <time>2012-10-24T09:32:28Z</time>
      </trkpt>
      <trkpt lat="43.05972" lon="3.02938">
        <ele>32.599998474121</ele>
        <time>2012-10-24T09:32:35Z</time>
      </trkpt>
      <trkpt lat="43.05965" lon="3.02932">
        <ele>32.799999237061</ele>
        <time>2012-10-24T09:32:42Z</time>
      </trkpt>
      <trkpt lat="43.05959" lon="3.02926">
        <ele>33</ele>
        <time>2012-10-24T09:32:49Z</time>
      </trkpt>
      <trkpt lat="43.05955" lon="3.02922">
        <ele>33.599998474121</ele>
        <time>2012-10-24T09:32:54Z</time>
      </trkpt>
      <trkpt lat="43.05954" lon="3.02921">
        <ele>33.599998474121</ele>
        <time>2012-10-24T09:32:55Z</time>
      </trkpt>
      <trkpt lat="43.05949" lon="3.02916">
        <ele>34</ele>
        <time>2012-10-24T09:33:00Z</time>
      </trkpt>
      <trkpt lat="43.05943" lon="3.02911">
        <ele>34.599998474121</ele>
        <time>2012-10-24T09:33:08Z</time>
      </trkpt>
      <trkpt lat="43.05938" lon="3.02906">
        <ele>35</ele>
        <time>2012-10-24T09:33:14Z</time>
      </trkpt>
      <trkpt lat="43.05932" lon="3.029">
        <ele>35.400001525879</ele>
        <time>2012-10-24T09:33:20Z</time>
      </trkpt>
      <trkpt lat="43.0593" lon="3.02898">
        <ele>35.400001525879</ele>
        <time>2012-10-24T09:33:24Z</time>
      </trkpt>
      <trkpt lat="43.05926" lon="3.02897">
        <ele>35.599998474121</ele>
        <time>2012-10-24T09:33:27Z</time>
      </trkpt>
      <trkpt lat="43.0592" lon="3.02896">
        <ele>36.200000762939</ele>
        <time>2012-10-24T09:33:34Z</time>
      </trkpt>
      <trkpt lat="43.05914" lon="3.02897">
        <ele>36.400001525879</ele>
        <time>2012-10-24T09:33:41Z</time>
      </trkpt>
      <trkpt lat="43.05913" lon="3.02899">
        <ele>36.400001525879</ele>
        <time>2012-10-24T09:33:43Z</time>
      </trkpt>
      <trkpt lat="43.05911" lon="3.029">
        <ele>36.400001525879</ele>
        <time>2012-10-24T09:33:45Z</time>
      </trkpt>
      <trkpt lat="43.0591" lon="3.02899">
        <ele>36.599998474121</ele>
        <time>2012-10-24T09:33:47Z</time>
      </trkpt>
      <trkpt lat="43.05909" lon="3.02899">
        <ele>37.200000762939</ele>
        <time>2012-10-24T09:33:55Z</time>
      </trkpt>
      <trkpt lat="43.05905" lon="3.02893">
        <ele>37.400001525879</ele>
        <time>2012-10-24T09:34:04Z</time>
      </trkpt>
      <trkpt lat="43.05901" lon="3.0289">
        <ele>37.599998474121</ele>
        <time>2012-10-24T09:34:10Z</time>
      </trkpt>
      <trkpt lat="43.05896" lon="3.02885">
        <ele>37.799999237061</ele>
        <time>2012-10-24T09:34:17Z</time>
      </trkpt>
      <trkpt lat="43.05893" lon="3.02882">
        <ele>38</ele>
        <time>2012-10-24T09:34:22Z</time>
      </trkpt>
      <trkpt lat="43.05893" lon="3.02881">
        <ele>38.200000762939</ele>
        <time>2012-10-24T09:34:24Z</time>
      </trkpt>
      <trkpt lat="43.05891" lon="3.02888">
        <ele>39.200000762939</ele>
        <time>2012-10-24T09:35:45Z</time>
      </trkpt>
      <trkpt lat="43.05889" lon="3.02894">
        <ele>39.200000762939</ele>
        <time>2012-10-24T09:35:52Z</time>
      </trkpt>
      <trkpt lat="43.05886" lon="3.02899">
        <ele>39.200000762939</ele>
        <time>2012-10-24T09:35:56Z</time>
      </trkpt>
      <trkpt lat="43.05886" lon="3.02901">
        <ele>39.200000762939</ele>
        <time>2012-10-24T09:35:58Z</time>
      </trkpt>
      <trkpt lat="43.05882" lon="3.02903">
        <ele>39.200000762939</ele>
        <time>2012-10-24T09:36:03Z</time>
      </trkpt>
      <trkpt lat="43.05881" lon="3.02903">
        <ele>39.200000762939</ele>
        <time>2012-10-24T09:36:05Z</time>
      </trkpt>
      <trkpt lat="43.05881" lon="3.02904">
        <ele>39.200000762939</ele>
        <time>2012-10-24T09:36:08Z</time>
      </trkpt>
      <trkpt lat="43.05877" lon="3.02905">
        <ele>39.200000762939</ele>
        <time>2012-10-24T09:36:13Z</time>
      </trkpt>
      <trkpt lat="43.0587" lon="3.02908">
        <ele>39.200000762939</ele>
        <time>2012-10-24T09:36:19Z</time>
      </trkpt>
      <trkpt lat="43.05864" lon="3.0291">
        <ele>39</ele>
        <time>2012-10-24T09:36:25Z</time>
      </trkpt>
      <trkpt lat="43.05857" lon="3.02914">
        <ele>39</ele>
        <time>2012-10-24T09:36:33Z</time>
      </trkpt>
      <trkpt lat="43.0585" lon="3.02918">
        <ele>39</ele>
        <time>2012-10-24T09:36:40Z</time>
      </trkpt>
      <trkpt lat="43.05842" lon="3.02924">
        <ele>38.799999237061</ele>
        <time>2012-10-24T09:36:47Z</time>
      </trkpt>
      <trkpt lat="43.05841" lon="3.02925">
        <ele>38.799999237061</ele>
        <time>2012-10-24T09:36:48Z</time>
      </trkpt>
      <trkpt lat="43.05838" lon="3.02928">
        <ele>38.799999237061</ele>
        <time>2012-10-24T09:36:52Z</time>
      </trkpt>
      <trkpt lat="43.05833" lon="3.02932">
        <ele>38.799999237061</ele>
        <time>2012-10-24T09:36:58Z</time>
      </trkpt>
      <trkpt lat="43.05827" lon="3.0294">
        <ele>38.799999237061</ele>
        <time>2012-10-24T09:37:04Z</time>
      </trkpt>
      <trkpt lat="43.05826" lon="3.02942">
        <ele>38.799999237061</ele>
        <time>2012-10-24T09:37:06Z</time>
      </trkpt>
      <trkpt lat="43.05824" lon="3.02948">
        <ele>38.599998474121</ele>
        <time>2012-10-24T09:37:10Z</time>
      </trkpt>
      <trkpt lat="43.05822" lon="3.02956">
        <ele>38.599998474121</ele>
        <time>2012-10-24T09:37:15Z</time>
      </trkpt>
      <trkpt lat="43.05819" lon="3.02965">
        <ele>38.400001525879</ele>
        <time>2012-10-24T09:37:21Z</time>
      </trkpt>
      <trkpt lat="43.05817" lon="3.02969">
        <ele>38.400001525879</ele>
        <time>2012-10-24T09:37:24Z</time>
      </trkpt>
      <trkpt lat="43.05817" lon="3.02973">
        <ele>38.400001525879</ele>
        <time>2012-10-24T09:37:27Z</time>
      </trkpt>
      <trkpt lat="43.05816" lon="3.02975">
        <ele>38.200000762939</ele>
        <time>2012-10-24T09:37:30Z</time>
      </trkpt>
      <trkpt lat="43.05816" lon="3.02975">
        <ele>38.200000762939</ele>
        <time>2012-10-24T09:37:31Z</time>
      </trkpt>
      <trkpt lat="43.05815" lon="3.02975">
        <ele>38.200000762939</ele>
        <time>2012-10-24T09:37:33Z</time>
      </trkpt>
      <trkpt lat="43.05811" lon="3.02973">
        <ele>38.200000762939</ele>
        <time>2012-10-24T09:37:42Z</time>
      </trkpt>
      <trkpt lat="43.0581" lon="3.02973">
        <ele>38.200000762939</ele>
        <time>2012-10-24T09:37:43Z</time>
      </trkpt>
      <trkpt lat="43.05806" lon="3.02969">
        <ele>38</ele>
        <time>2012-10-24T09:37:47Z</time>
      </trkpt>
      <trkpt lat="43.05803" lon="3.02968">
        <ele>38</ele>
        <time>2012-10-24T09:37:50Z</time>
      </trkpt>
      <trkpt lat="43.05796" lon="3.02965">
        <ele>38.400001525879</ele>
        <time>2012-10-24T09:37:56Z</time>
      </trkpt>
      <trkpt lat="43.05795" lon="3.02965">
        <ele>38.400001525879</ele>
        <time>2012-10-24T09:37:58Z</time>
      </trkpt>
      <trkpt lat="43.05795" lon="3.02965">
        <ele>38.599998474121</ele>
        <time>2012-10-24T09:38:02Z</time>
      </trkpt>
      <trkpt lat="43.05791" lon="3.02965">
        <ele>38.599998474121</ele>
        <time>2012-10-24T09:38:08Z</time>
      </trkpt>
      <trkpt lat="43.0579" lon="3.02964">
        <ele>39</ele>
        <time>2012-10-24T09:38:19Z</time>
      </trkpt>
      <trkpt lat="43.0579" lon="3.02964">
        <ele>40.400001525879</ele>
        <time>2012-10-24T09:38:59Z</time>
      </trkpt>
      <trkpt lat="43.05792" lon="3.02963">
        <ele>40.400001525879</ele>
        <time>2012-10-24T09:39:01Z</time>
      </trkpt>
      <trkpt lat="43.05796" lon="3.02963">
        <ele>40.200000762939</ele>
        <time>2012-10-24T09:39:06Z</time>
      </trkpt>
      <trkpt lat="43.05801" lon="3.02969">
        <ele>40.200000762939</ele>
        <time>2012-10-24T09:39:13Z</time>
      </trkpt>
      <trkpt lat="43.05803" lon="3.02971">
        <ele>40</ele>
        <time>2012-10-24T09:39:16Z</time>
      </trkpt>
      <trkpt lat="43.05805" lon="3.02972">
        <ele>40</ele>
        <time>2012-10-24T09:39:18Z</time>
      </trkpt>
      <trkpt lat="43.05807" lon="3.02974">
        <ele>39.799999237061</ele>
        <time>2012-10-24T09:39:20Z</time>
      </trkpt>
      <trkpt lat="43.05809" lon="3.02976">
        <ele>39.799999237061</ele>
        <time>2012-10-24T09:39:22Z</time>
      </trkpt>
      <trkpt lat="43.05813" lon="3.0298">
        <ele>39.599998474121</ele>
        <time>2012-10-24T09:39:27Z</time>
      </trkpt>
      <trkpt lat="43.05819" lon="3.02988">
        <ele>39.200000762939</ele>
        <time>2012-10-24T09:39:35Z</time>
      </trkpt>
      <trkpt lat="43.05828" lon="3.02997">
        <ele>38.400001525879</ele>
        <time>2012-10-24T09:39:44Z</time>
      </trkpt>
      <trkpt lat="43.05834" lon="3.03002">
        <ele>38</ele>
        <time>2012-10-24T09:39:50Z</time>
      </trkpt>
      <trkpt lat="43.05839" lon="3.03008">
        <ele>37.400001525879</ele>
        <time>2012-10-24T09:39:56Z</time>
      </trkpt>
      <trkpt lat="43.05841" lon="3.03008">
        <ele>37.400001525879</ele>
        <time>2012-10-24T09:39:57Z</time>
      </trkpt>
      <trkpt lat="43.05846" lon="3.03014">
        <ele>36.799999237061</ele>
        <time>2012-10-24T09:40:03Z</time>
      </trkpt>
      <trkpt lat="43.05849" lon="3.03018">
        <ele>36.599998474121</ele>
        <time>2012-10-24T09:40:07Z</time>
      </trkpt>
      <trkpt lat="43.05851" lon="3.03019">
        <ele>36.400001525879</ele>
        <time>2012-10-24T09:40:09Z</time>
      </trkpt>
      <trkpt lat="43.05859" lon="3.03026">
        <ele>35.799999237061</ele>
        <time>2012-10-24T09:40:17Z</time>
      </trkpt>
      <trkpt lat="43.05866" lon="3.03034">
        <ele>35.400001525879</ele>
        <time>2012-10-24T09:40:25Z</time>
      </trkpt>
      <trkpt lat="43.05871" lon="3.0304">
        <ele>35</ele>
        <time>2012-10-24T09:40:31Z</time>
      </trkpt>
      <trkpt lat="43.05874" lon="3.03042">
        <ele>34.799999237061</ele>
        <time>2012-10-24T09:40:34Z</time>
      </trkpt>
      <trkpt lat="43.05878" lon="3.03045">
        <ele>34.599998474121</ele>
        <time>2012-10-24T09:40:38Z</time>
      </trkpt>
      <trkpt lat="43.05885" lon="3.03051">
        <ele>34.400001525879</ele>
        <time>2012-10-24T09:40:45Z</time>
      </trkpt>
      <trkpt lat="43.05891" lon="3.03057">
        <ele>34.200000762939</ele>
        <time>2012-10-24T09:40:52Z</time>
      </trkpt>
      <trkpt lat="43.05899" lon="3.03066">
        <ele>33.599998474121</ele>
        <time>2012-10-24T09:41:02Z</time>
      </trkpt>
      <trkpt lat="43.05907" lon="3.03074">
        <ele>33</ele>
        <time>2012-10-24T09:41:11Z</time>
      </trkpt>
      <trkpt lat="43.05916" lon="3.03081">
        <ele>32.400001525879</ele>
        <time>2012-10-24T09:41:20Z</time>
      </trkpt>
      <trkpt lat="43.0592" lon="3.03092">
        <ele>31.60000038147</ele>
        <time>2012-10-24T09:41:28Z</time>
      </trkpt>
      <trkpt lat="43.05917" lon="3.03102">
        <ele>31</ele>
        <time>2012-10-24T09:41:36Z</time>
      </trkpt>
      <trkpt lat="43.0591" lon="3.03114">
        <ele>30.60000038147</ele>
        <time>2012-10-24T09:41:45Z</time>
      </trkpt>
      <trkpt lat="43.05904" lon="3.03127">
        <ele>30.60000038147</ele>
        <time>2012-10-24T09:41:54Z</time>
      </trkpt>
      <trkpt lat="43.05899" lon="3.03137">
        <ele>30.39999961853</ele>
        <time>2012-10-24T09:42:02Z</time>
      </trkpt>
      <trkpt lat="43.05893" lon="3.03148">
        <ele>30.200000762939</ele>
        <time>2012-10-24T09:42:11Z</time>
      </trkpt>
      <trkpt lat="43.05888" lon="3.03159">
        <ele>30.200000762939</ele>
        <time>2012-10-24T09:42:20Z</time>
      </trkpt>
      <trkpt lat="43.05883" lon="3.0317">
        <ele>30</ele>
        <time>2012-10-24T09:42:30Z</time>
      </trkpt>
      <trkpt lat="43.05881" lon="3.03173">
        <ele>30</ele>
        <time>2012-10-24T09:42:33Z</time>
      </trkpt>
      <trkpt lat="43.05878" lon="3.03178">
        <ele>30</ele>
        <time>2012-10-24T09:42:37Z</time>
      </trkpt>
      <trkpt lat="43.05877" lon="3.03178">
        <ele>30</ele>
        <time>2012-10-24T09:42:38Z</time>
      </trkpt>
      <trkpt lat="43.05874" lon="3.03185">
        <ele>29.799999237061</ele>
        <time>2012-10-24T09:42:44Z</time>
      </trkpt>
      <trkpt lat="43.05872" lon="3.03187">
        <ele>29.60000038147</ele>
        <time>2012-10-24T09:42:47Z</time>
      </trkpt>
      <trkpt lat="43.0587" lon="3.03189">
        <ele>29.39999961853</ele>
        <time>2012-10-24T09:42:50Z</time>
      </trkpt>
      <trkpt lat="43.05865" lon="3.03201">
        <ele>29.200000762939</ele>
        <time>2012-10-24T09:42:59Z</time>
      </trkpt>
      <trkpt lat="43.05859" lon="3.03207">
        <ele>28.799999237061</ele>
        <time>2012-10-24T09:43:07Z</time>
      </trkpt>
      <trkpt lat="43.05858" lon="3.03208">
        <ele>28.799999237061</ele>
        <time>2012-10-24T09:43:08Z</time>
      </trkpt>
      <trkpt lat="43.05854" lon="3.03215">
        <ele>28.799999237061</ele>
        <time>2012-10-24T09:43:14Z</time>
      </trkpt>
      <trkpt lat="43.05848" lon="3.03225">
        <ele>28.39999961853</ele>
        <time>2012-10-24T09:43:23Z</time>
      </trkpt>
      <trkpt lat="43.05841" lon="3.03233">
        <ele>28.39999961853</ele>
        <time>2012-10-24T09:43:31Z</time>
      </trkpt>
      <trkpt lat="43.05832" lon="3.0324">
        <ele>28.200000762939</ele>
        <time>2012-10-24T09:43:41Z</time>
      </trkpt>
      <trkpt lat="43.05828" lon="3.03245">
        <ele>28</ele>
        <time>2012-10-24T09:43:46Z</time>
      </trkpt>
      <trkpt lat="43.05827" lon="3.03246">
        <ele>28</ele>
        <time>2012-10-24T09:43:48Z</time>
      </trkpt>
      <trkpt lat="43.05825" lon="3.0325">
        <ele>28</ele>
        <time>2012-10-24T09:43:51Z</time>
      </trkpt>
      <trkpt lat="43.0582" lon="3.03256">
        <ele>27.799999237061</ele>
        <time>2012-10-24T09:43:57Z</time>
      </trkpt>
      <trkpt lat="43.05816" lon="3.03263">
        <ele>27.799999237061</ele>
        <time>2012-10-24T09:44:04Z</time>
      </trkpt>
      <trkpt lat="43.0581" lon="3.03271">
        <ele>27.799999237061</ele>
        <time>2012-10-24T09:44:12Z</time>
      </trkpt>
      <trkpt lat="43.058" lon="3.03276">
        <ele>27.39999961853</ele>
        <time>2012-10-24T09:44:22Z</time>
      </trkpt>
      <trkpt lat="43.05798" lon="3.03278">
        <ele>27.39999961853</ele>
        <time>2012-10-24T09:44:24Z</time>
      </trkpt>
      <trkpt lat="43.05796" lon="3.03279">
        <ele>27.39999961853</ele>
        <time>2012-10-24T09:44:27Z</time>
      </trkpt>
      <trkpt lat="43.05795" lon="3.03279">
        <ele>27.200000762939</ele>
        <time>2012-10-24T09:44:28Z</time>
      </trkpt>
      <trkpt lat="43.05787" lon="3.03284">
        <ele>27.200000762939</ele>
        <time>2012-10-24T09:44:37Z</time>
      </trkpt>
      <trkpt lat="43.05778" lon="3.03289">
        <ele>27</ele>
        <time>2012-10-24T09:44:45Z</time>
      </trkpt>
      <trkpt lat="43.0577" lon="3.03294">
        <ele>27</ele>
        <time>2012-10-24T09:44:54Z</time>
      </trkpt>
      <trkpt lat="43.05762" lon="3.03298">
        <ele>27</ele>
        <time>2012-10-24T09:45:03Z</time>
      </trkpt>
      <trkpt lat="43.05752" lon="3.03303">
        <ele>26.799999237061</ele>
        <time>2012-10-24T09:45:13Z</time>
      </trkpt>
      <trkpt lat="43.05746" lon="3.03308">
        <ele>26.60000038147</ele>
        <time>2012-10-24T09:45:20Z</time>
      </trkpt>
      <trkpt lat="43.0574" lon="3.03316">
        <ele>26.39999961853</ele>
        <time>2012-10-24T09:45:28Z</time>
      </trkpt>
      <trkpt lat="43.05733" lon="3.03323">
        <ele>26.60000038147</ele>
        <time>2012-10-24T09:45:36Z</time>
      </trkpt>
      <trkpt lat="43.05726" lon="3.03328">
        <ele>26.60000038147</ele>
        <time>2012-10-24T09:45:43Z</time>
      </trkpt>
      <trkpt lat="43.05719" lon="3.03335">
        <ele>26.799999237061</ele>
        <time>2012-10-24T09:45:50Z</time>
      </trkpt>
      <trkpt lat="43.05718" lon="3.03337">
        <ele>27</ele>
        <time>2012-10-24T09:45:51Z</time>
      </trkpt>
      <trkpt lat="43.05713" lon="3.03341">
        <ele>27.39999961853</ele>
        <time>2012-10-24T09:45:57Z</time>
      </trkpt>
      <trkpt lat="43.05708" lon="3.03348">
        <ele>27.799999237061</ele>
        <time>2012-10-24T09:46:05Z</time>
      </trkpt>
      <trkpt lat="43.05704" lon="3.03353">
        <ele>28</ele>
        <time>2012-10-24T09:46:11Z</time>
      </trkpt>
      <trkpt lat="43.05698" lon="3.03359">
        <ele>28</ele>
        <time>2012-10-24T09:46:18Z</time>
      </trkpt>
      <trkpt lat="43.05695" lon="3.03361">
        <ele>28</ele>
        <time>2012-10-24T09:46:22Z</time>
      </trkpt>
      <trkpt lat="43.05693" lon="3.03363">
        <ele>28</ele>
        <time>2012-10-24T09:46:25Z</time>
      </trkpt>
      <trkpt lat="43.0569" lon="3.03368">
        <ele>28</ele>
        <time>2012-10-24T09:46:29Z</time>
      </trkpt>
      <trkpt lat="43.05688" lon="3.0337">
        <ele>28</ele>
        <time>2012-10-24T09:46:31Z</time>
      </trkpt>
      <trkpt lat="43.05681" lon="3.03379">
        <ele>28.200000762939</ele>
        <time>2012-10-24T09:46:39Z</time>
      </trkpt>
      <trkpt lat="43.05678" lon="3.03384">
        <ele>28.200000762939</ele>
        <time>2012-10-24T09:46:45Z</time>
      </trkpt>
      <trkpt lat="43.05673" lon="3.03389">
        <ele>28.39999961853</ele>
        <time>2012-10-24T09:46:51Z</time>
      </trkpt>
      <trkpt lat="43.05667" lon="3.03397">
        <ele>28.200000762939</ele>
        <time>2012-10-24T09:46:59Z</time>
      </trkpt>
      <trkpt lat="43.05663" lon="3.03403">
        <ele>28</ele>
        <time>2012-10-24T09:47:05Z</time>
      </trkpt>
      <trkpt lat="43.05662" lon="3.03404">
        <ele>28</ele>
        <time>2012-10-24T09:47:06Z</time>
      </trkpt>
      <trkpt lat="43.05656" lon="3.0341">
        <ele>27.799999237061</ele>
        <time>2012-10-24T09:47:14Z</time>
      </trkpt>
      <trkpt lat="43.05655" lon="3.03412">
        <ele>27.799999237061</ele>
        <time>2012-10-24T09:47:15Z</time>
      </trkpt>
      <trkpt lat="43.0565" lon="3.03417">
        <ele>27.60000038147</ele>
        <time>2012-10-24T09:47:20Z</time>
      </trkpt>
      <trkpt lat="43.05649" lon="3.0342">
        <ele>27.60000038147</ele>
        <time>2012-10-24T09:47:23Z</time>
      </trkpt>
      <trkpt lat="43.05647" lon="3.03425">
        <ele>27.39999961853</ele>
        <time>2012-10-24T09:47:26Z</time>
      </trkpt>
      <trkpt lat="43.05646" lon="3.03425">
        <ele>27.39999961853</ele>
        <time>2012-10-24T09:47:27Z</time>
      </trkpt>
      <trkpt lat="43.05645" lon="3.03429">
        <ele>27.39999961853</ele>
        <time>2012-10-24T09:47:30Z</time>
      </trkpt>
      <trkpt lat="43.05644" lon="3.03431">
        <ele>27.39999961853</ele>
        <time>2012-10-24T09:47:32Z</time>
      </trkpt>
      <trkpt lat="43.05639" lon="3.03439">
        <ele>27.200000762939</ele>
        <time>2012-10-24T09:47:40Z</time>
      </trkpt>
      <trkpt lat="43.05634" lon="3.03449">
        <ele>27.200000762939</ele>
        <time>2012-10-24T09:47:49Z</time>
      </trkpt>
      <trkpt lat="43.05632" lon="3.03453">
        <ele>27</ele>
        <time>2012-10-24T09:47:53Z</time>
      </trkpt>
      <trkpt lat="43.05629" lon="3.03455">
        <ele>27</ele>
        <time>2012-10-24T09:47:56Z</time>
      </trkpt>
      <trkpt lat="43.05629" lon="3.03456">
        <ele>27</ele>
        <time>2012-10-24T09:47:57Z</time>
      </trkpt>
      <trkpt lat="43.05623" lon="3.03462">
        <ele>26.799999237061</ele>
        <time>2012-10-24T09:48:03Z</time>
      </trkpt>
      <trkpt lat="43.05618" lon="3.03469">
        <ele>26.60000038147</ele>
        <time>2012-10-24T09:48:09Z</time>
      </trkpt>
      <trkpt lat="43.05614" lon="3.03474">
        <ele>26.39999961853</ele>
        <time>2012-10-24T09:48:15Z</time>
      </trkpt>
      <trkpt lat="43.05613" lon="3.03476">
        <ele>26.39999961853</ele>
        <time>2012-10-24T09:48:17Z</time>
      </trkpt>
      <trkpt lat="43.05608" lon="3.03484">
        <ele>26.200000762939</ele>
        <time>2012-10-24T09:48:23Z</time>
      </trkpt>
      <trkpt lat="43.05607" lon="3.03486">
        <ele>26</ele>
        <time>2012-10-24T09:48:25Z</time>
      </trkpt>
      <trkpt lat="43.05604" lon="3.03495">
        <ele>26.200000762939</ele>
        <time>2012-10-24T09:48:31Z</time>
      </trkpt>
      <trkpt lat="43.05602" lon="3.03498">
        <ele>26.60000038147</ele>
        <time>2012-10-24T09:48:34Z</time>
      </trkpt>
      <trkpt lat="43.05599" lon="3.03503">
        <ele>26.200000762939</ele>
        <time>2012-10-24T09:48:38Z</time>
      </trkpt>
      <trkpt lat="43.05596" lon="3.03507">
        <ele>26.200000762939</ele>
        <time>2012-10-24T09:48:43Z</time>
      </trkpt>
      <trkpt lat="43.05596" lon="3.03511">
        <ele>26.200000762939</ele>
        <time>2012-10-24T09:48:45Z</time>
      </trkpt>
      <trkpt lat="43.0559" lon="3.0352">
        <ele>26</ele>
        <time>2012-10-24T09:48:53Z</time>
      </trkpt>
      <trkpt lat="43.05585" lon="3.03527">
        <ele>25.799999237061</ele>
        <time>2012-10-24T09:48:59Z</time>
      </trkpt>
      <trkpt lat="43.05582" lon="3.03533">
        <ele>25.799999237061</ele>
        <time>2012-10-24T09:49:03Z</time>
      </trkpt>
      <trkpt lat="43.05582" lon="3.03534">
        <ele>25.799999237061</ele>
        <time>2012-10-24T09:49:04Z</time>
      </trkpt>
      <trkpt lat="43.05577" lon="3.03543">
        <ele>25.60000038147</ele>
        <time>2012-10-24T09:49:11Z</time>
      </trkpt>
      <trkpt lat="43.05573" lon="3.03554">
        <ele>25.39999961853</ele>
        <time>2012-10-24T09:49:19Z</time>
      </trkpt>
      <trkpt lat="43.05571" lon="3.0356">
        <ele>25.39999961853</ele>
        <time>2012-10-24T09:49:24Z</time>
      </trkpt>
      <trkpt lat="43.0557" lon="3.03563">
        <ele>25.39999961853</ele>
        <time>2012-10-24T09:49:26Z</time>
      </trkpt>
      <trkpt lat="43.05566" lon="3.03574">
        <ele>25.200000762939</ele>
        <time>2012-10-24T09:49:34Z</time>
      </trkpt>
      <trkpt lat="43.05563" lon="3.03582">
        <ele>25</ele>
        <time>2012-10-24T09:49:42Z</time>
      </trkpt>
      <trkpt lat="43.05562" lon="3.03586">
        <ele>25</ele>
        <time>2012-10-24T09:49:45Z</time>
      </trkpt>
      <trkpt lat="43.05562" lon="3.03589">
        <ele>24.799999237061</ele>
        <time>2012-10-24T09:49:48Z</time>
      </trkpt>
      <trkpt lat="43.05561" lon="3.03593">
        <ele>24.799999237061</ele>
        <time>2012-10-24T09:49:50Z</time>
      </trkpt>
      <trkpt lat="43.05559" lon="3.03599">
        <ele>25</ele>
        <time>2012-10-24T09:49:54Z</time>
      </trkpt>
      <trkpt lat="43.05555" lon="3.03611">
        <ele>25.200000762939</ele>
        <time>2012-10-24T09:50:03Z</time>
      </trkpt>
      <trkpt lat="43.05552" lon="3.03621">
        <ele>25.200000762939</ele>
        <time>2012-10-24T09:50:10Z</time>
      </trkpt>
      <trkpt lat="43.0555" lon="3.03625">
        <ele>25.200000762939</ele>
        <time>2012-10-24T09:50:13Z</time>
      </trkpt>
      <trkpt lat="43.05548" lon="3.03631">
        <ele>25.200000762939</ele>
        <time>2012-10-24T09:50:17Z</time>
      </trkpt>
      <trkpt lat="43.05542" lon="3.0364">
        <ele>25</ele>
        <time>2012-10-24T09:50:25Z</time>
      </trkpt>
      <trkpt lat="43.05536" lon="3.03648">
        <ele>24.799999237061</ele>
        <time>2012-10-24T09:50:33Z</time>
      </trkpt>
      <trkpt lat="43.05533" lon="3.03658">
        <ele>24.60000038147</ele>
        <time>2012-10-24T09:50:40Z</time>
      </trkpt>
      <trkpt lat="43.05532" lon="3.03664">
        <ele>24.60000038147</ele>
        <time>2012-10-24T09:50:45Z</time>
      </trkpt>
      <trkpt lat="43.05531" lon="3.03665">
        <ele>24.60000038147</ele>
        <time>2012-10-24T09:50:46Z</time>
      </trkpt>
      <trkpt lat="43.05525" lon="3.03672">
        <ele>24.39999961853</ele>
        <time>2012-10-24T09:50:54Z</time>
      </trkpt>
      <trkpt lat="43.05521" lon="3.03678">
        <ele>24.39999961853</ele>
        <time>2012-10-24T09:50:58Z</time>
      </trkpt>
      <trkpt lat="43.05519" lon="3.0368">
        <ele>24.39999961853</ele>
        <time>2012-10-24T09:51:00Z</time>
      </trkpt>
      <trkpt lat="43.05514" lon="3.03686">
        <ele>24.200000762939</ele>
        <time>2012-10-24T09:51:06Z</time>
      </trkpt>
      <trkpt lat="43.05514" lon="3.03687">
        <ele>24.200000762939</ele>
        <time>2012-10-24T09:51:07Z</time>
      </trkpt>
      <trkpt lat="43.05511" lon="3.03691">
        <ele>24.200000762939</ele>
        <time>2012-10-24T09:51:10Z</time>
      </trkpt>
      <trkpt lat="43.05507" lon="3.03699">
        <ele>24.200000762939</ele>
        <time>2012-10-24T09:51:17Z</time>
      </trkpt>
      <trkpt lat="43.05506" lon="3.037">
        <ele>24.200000762939</ele>
        <time>2012-10-24T09:51:18Z</time>
      </trkpt>
      <trkpt lat="43.05499" lon="3.03705">
        <ele>24</ele>
        <time>2012-10-24T09:51:24Z</time>
      </trkpt>
      <trkpt lat="43.05494" lon="3.03712">
        <ele>23.799999237061</ele>
        <time>2012-10-24T09:51:31Z</time>
      </trkpt>
      <trkpt lat="43.05486" lon="3.0372">
        <ele>23.60000038147</ele>
        <time>2012-10-24T09:51:39Z</time>
      </trkpt>
      <trkpt lat="43.05481" lon="3.03728">
        <ele>23.39999961853</ele>
        <time>2012-10-24T09:51:45Z</time>
      </trkpt>
      <trkpt lat="43.05476" lon="3.03735">
        <ele>23.39999961853</ele>
        <time>2012-10-24T09:51:51Z</time>
      </trkpt>
      <trkpt lat="43.0547" lon="3.0374">
        <ele>23.200000762939</ele>
        <time>2012-10-24T09:51:57Z</time>
      </trkpt>
      <trkpt lat="43.05467" lon="3.03743">
        <ele>23.200000762939</ele>
        <time>2012-10-24T09:52:00Z</time>
      </trkpt>
      <trkpt lat="43.05464" lon="3.03746">
        <ele>23</ele>
        <time>2012-10-24T09:52:03Z</time>
      </trkpt>
      <trkpt lat="43.0546" lon="3.03754">
        <ele>22.799999237061</ele>
        <time>2012-10-24T09:52:09Z</time>
      </trkpt>
      <trkpt lat="43.05455" lon="3.03764">
        <ele>22.799999237061</ele>
        <time>2012-10-24T09:52:16Z</time>
      </trkpt>
      <trkpt lat="43.05451" lon="3.03772">
        <ele>22.799999237061</ele>
        <time>2012-10-24T09:52:24Z</time>
      </trkpt>
      <trkpt lat="43.05445" lon="3.0378">
        <ele>22.799999237061</ele>
        <time>2012-10-24T09:52:31Z</time>
      </trkpt>
      <trkpt lat="43.05441" lon="3.03786">
        <ele>22.60000038147</ele>
        <time>2012-10-24T09:52:37Z</time>
      </trkpt>
      <trkpt lat="43.05437" lon="3.03789">
        <ele>22.60000038147</ele>
        <time>2012-10-24T09:52:40Z</time>
      </trkpt>
      <trkpt lat="43.05436" lon="3.03791">
        <ele>22.60000038147</ele>
        <time>2012-10-24T09:52:42Z</time>
      </trkpt>
      <trkpt lat="43.05432" lon="3.03795">
        <ele>22.60000038147</ele>
        <time>2012-10-24T09:52:46Z</time>
      </trkpt>
      <trkpt lat="43.05431" lon="3.03797">
        <ele>22.60000038147</ele>
        <time>2012-10-24T09:52:48Z</time>
      </trkpt>
      <trkpt lat="43.05426" lon="3.03802">
        <ele>22.39999961853</ele>
        <time>2012-10-24T09:52:54Z</time>
      </trkpt>
      <trkpt lat="43.05418" lon="3.03808">
        <ele>22.200000762939</ele>
        <time>2012-10-24T09:53:01Z</time>
      </trkpt>
      <trkpt lat="43.05412" lon="3.03813">
        <ele>22</ele>
        <time>2012-10-24T09:53:07Z</time>
      </trkpt>
      <trkpt lat="43.05405" lon="3.03817">
        <ele>21.799999237061</ele>
        <time>2012-10-24T09:53:14Z</time>
      </trkpt>
      <trkpt lat="43.05399" lon="3.03819">
        <ele>21.60000038147</ele>
        <time>2012-10-24T09:53:19Z</time>
      </trkpt>
      <trkpt lat="43.05395" lon="3.0382">
        <ele>21.60000038147</ele>
        <time>2012-10-24T09:53:22Z</time>
      </trkpt>
      <trkpt lat="43.05388" lon="3.03823">
        <ele>21.39999961853</ele>
        <time>2012-10-24T09:53:28Z</time>
      </trkpt>
      <trkpt lat="43.0538" lon="3.03823">
        <ele>21.39999961853</ele>
        <time>2012-10-24T09:53:35Z</time>
      </trkpt>
      <trkpt lat="43.0537" lon="3.03825">
        <ele>21.39999961853</ele>
        <time>2012-10-24T09:53:44Z</time>
      </trkpt>
      <trkpt lat="43.05363" lon="3.03831">
        <ele>21.39999961853</ele>
        <time>2012-10-24T09:53:52Z</time>
      </trkpt>
      <trkpt lat="43.05361" lon="3.03832">
        <ele>21.39999961853</ele>
        <time>2012-10-24T09:53:54Z</time>
      </trkpt>
      <trkpt lat="43.05358" lon="3.03836">
        <ele>21.200000762939</ele>
        <time>2012-10-24T09:53:58Z</time>
      </trkpt>
      <trkpt lat="43.05354" lon="3.0384">
        <ele>21.200000762939</ele>
        <time>2012-10-24T09:54:02Z</time>
      </trkpt>
      <trkpt lat="43.05352" lon="3.03843">
        <ele>21.200000762939</ele>
        <time>2012-10-24T09:54:04Z</time>
      </trkpt>
      <trkpt lat="43.05349" lon="3.03847">
        <ele>21</ele>
        <time>2012-10-24T09:54:08Z</time>
      </trkpt>
      <trkpt lat="43.05347" lon="3.03848">
        <ele>21</ele>
        <time>2012-10-24T09:54:10Z</time>
      </trkpt>
      <trkpt lat="43.05342" lon="3.03855">
        <ele>20.60000038147</ele>
        <time>2012-10-24T09:54:16Z</time>
      </trkpt>
      <trkpt lat="43.05341" lon="3.03855">
        <ele>20.60000038147</ele>
        <time>2012-10-24T09:54:17Z</time>
      </trkpt>
      <trkpt lat="43.05334" lon="3.03862">
        <ele>20.60000038147</ele>
        <time>2012-10-24T09:54:23Z</time>
      </trkpt>
      <trkpt lat="43.0533" lon="3.03866">
        <ele>20.39999961853</ele>
        <time>2012-10-24T09:54:30Z</time>
      </trkpt>
      <trkpt lat="43.0533" lon="3.03867">
        <ele>20.39999961853</ele>
        <time>2012-10-24T09:54:37Z</time>
      </trkpt>
      <trkpt lat="43.0533" lon="3.03872">
        <ele>20.39999961853</ele>
        <time>2012-10-24T09:54:52Z</time>
      </trkpt>
      <trkpt lat="43.05328" lon="3.03873">
        <ele>20.200000762939</ele>
        <time>2012-10-24T09:54:58Z</time>
      </trkpt>
      <trkpt lat="43.05327" lon="3.03877">
        <ele>20.60000038147</ele>
        <time>2012-10-24T09:55:08Z</time>
      </trkpt>
      <trkpt lat="43.05326" lon="3.03877">
        <ele>20.799999237061</ele>
        <time>2012-10-24T09:55:17Z</time>
      </trkpt>
      <trkpt lat="43.05323" lon="3.03879">
        <ele>23.200000762939</ele>
        <time>2012-10-24T09:56:15Z</time>
      </trkpt>
      <trkpt lat="43.05326" lon="3.0388">
        <ele>25</ele>
        <time>2012-10-24T09:57:05Z</time>
      </trkpt>
      <trkpt lat="43.05326" lon="3.03881">
        <ele>25.200000762939</ele>
        <time>2012-10-24T09:57:40Z</time>
      </trkpt>
      <trkpt lat="43.05326" lon="3.03881">
        <ele>25.200000762939</ele>
        <time>2012-10-24T09:57:55Z</time>
      </trkpt>
      <trkpt lat="43.05322" lon="3.03888">
        <ele>25</ele>
        <time>2012-10-24T09:58:23Z</time>
      </trkpt>
      <trkpt lat="43.05322" lon="3.03894">
        <ele>25</ele>
        <time>2012-10-24T09:58:27Z</time>
      </trkpt>
      <trkpt lat="43.05322" lon="3.039">
        <ele>24.799999237061</ele>
        <time>2012-10-24T09:58:31Z</time>
      </trkpt>
      <trkpt lat="43.05321" lon="3.03912">
        <ele>24.60000038147</ele>
        <time>2012-10-24T09:58:38Z</time>
      </trkpt>
      <trkpt lat="43.05322" lon="3.03926">
        <ele>24.200000762939</ele>
        <time>2012-10-24T09:58:47Z</time>
      </trkpt>
      <trkpt lat="43.05321" lon="3.0394">
        <ele>24</ele>
        <time>2012-10-24T09:58:55Z</time>
      </trkpt>
      <trkpt lat="43.05322" lon="3.03957">
        <ele>23.799999237061</ele>
        <time>2012-10-24T09:59:06Z</time>
      </trkpt>
      <trkpt lat="43.05323" lon="3.03969">
        <ele>23.60000038147</ele>
        <time>2012-10-24T09:59:14Z</time>
      </trkpt>
      <trkpt lat="43.05326" lon="3.03987">
        <ele>22.799999237061</ele>
        <time>2012-10-24T09:59:25Z</time>
      </trkpt>
      <trkpt lat="43.05325" lon="3.04002">
        <ele>22.39999961853</ele>
        <time>2012-10-24T09:59:35Z</time>
      </trkpt>
      <trkpt lat="43.05324" lon="3.04016">
        <ele>21.799999237061</ele>
        <time>2012-10-24T09:59:44Z</time>
      </trkpt>
      <trkpt lat="43.05323" lon="3.04031">
        <ele>21.200000762939</ele>
        <time>2012-10-24T09:59:53Z</time>
      </trkpt>
      <trkpt lat="43.05323" lon="3.0404">
        <ele>21</ele>
        <time>2012-10-24T09:59:58Z</time>
      </trkpt>
      <trkpt lat="43.05323" lon="3.04041">
        <ele>21</ele>
        <time>2012-10-24T09:59:59Z</time>
      </trkpt>
      <trkpt lat="43.05325" lon="3.04054">
        <ele>20.60000038147</ele>
        <time>2012-10-24T10:00:07Z</time>
      </trkpt>
      <trkpt lat="43.05327" lon="3.04065">
        <ele>20.200000762939</ele>
        <time>2012-10-24T10:00:15Z</time>
      </trkpt>
      <trkpt lat="43.05328" lon="3.0407">
        <ele>20</ele>
        <time>2012-10-24T10:00:18Z</time>
      </trkpt>
      <trkpt lat="43.0533" lon="3.04075">
        <ele>19.799999237061</ele>
        <time>2012-10-24T10:00:21Z</time>
      </trkpt>
      <trkpt lat="43.05332" lon="3.04082">
        <ele>19.60000038147</ele>
        <time>2012-10-24T10:00:26Z</time>
      </trkpt>
      <trkpt lat="43.05333" lon="3.04085">
        <ele>19.60000038147</ele>
        <time>2012-10-24T10:00:28Z</time>
      </trkpt>
      <trkpt lat="43.05337" lon="3.04093">
        <ele>19.200000762939</ele>
        <time>2012-10-24T10:00:34Z</time>
      </trkpt>
      <trkpt lat="43.05342" lon="3.04107">
        <ele>18.60000038147</ele>
        <time>2012-10-24T10:00:43Z</time>
      </trkpt>
      <trkpt lat="43.05346" lon="3.04116">
        <ele>18.200000762939</ele>
        <time>2012-10-24T10:00:50Z</time>
      </trkpt>
      <trkpt lat="43.05352" lon="3.04128">
        <ele>17.200000762939</ele>
        <time>2012-10-24T10:00:59Z</time>
      </trkpt>
      <trkpt lat="43.0536" lon="3.04136">
        <ele>16.60000038147</ele>
        <time>2012-10-24T10:01:07Z</time>
      </trkpt>
      <trkpt lat="43.05367" lon="3.04141">
        <ele>16</ele>
        <time>2012-10-24T10:01:13Z</time>
      </trkpt>
      <trkpt lat="43.05374" lon="3.04148">
        <ele>15.39999961853</ele>
        <time>2012-10-24T10:01:20Z</time>
      </trkpt>
      <trkpt lat="43.05383" lon="3.04156">
        <ele>14.800000190735</ele>
        <time>2012-10-24T10:01:29Z</time>
      </trkpt>
      <trkpt lat="43.05393" lon="3.04163">
        <ele>14</ele>
        <time>2012-10-24T10:01:38Z</time>
      </trkpt>
      <trkpt lat="43.05404" lon="3.0417">
        <ele>13.39999961853</ele>
        <time>2012-10-24T10:01:48Z</time>
      </trkpt>
      <trkpt lat="43.05411" lon="3.04178">
        <ele>12.800000190735</ele>
        <time>2012-10-24T10:01:56Z</time>
      </trkpt>
      <trkpt lat="43.05415" lon="3.04184">
        <ele>12.60000038147</ele>
        <time>2012-10-24T10:02:03Z</time>
      </trkpt>
      <trkpt lat="43.0542" lon="3.04194">
        <ele>12.199999809265</ele>
        <time>2012-10-24T10:02:10Z</time>
      </trkpt>
      <trkpt lat="43.05423" lon="3.04205">
        <ele>12</ele>
        <time>2012-10-24T10:02:19Z</time>
      </trkpt>
      <trkpt lat="43.05428" lon="3.04214">
        <ele>11.800000190735</ele>
        <time>2012-10-24T10:02:26Z</time>
      </trkpt>
      <trkpt lat="43.05434" lon="3.04226">
        <ele>11.39999961853</ele>
        <time>2012-10-24T10:02:35Z</time>
      </trkpt>
      <trkpt lat="43.0544" lon="3.0424">
        <ele>11.199999809265</ele>
        <time>2012-10-24T10:02:44Z</time>
      </trkpt>
      <trkpt lat="43.05448" lon="3.04252">
        <ele>11</ele>
        <time>2012-10-24T10:02:52Z</time>
      </trkpt>
      <trkpt lat="43.05451" lon="3.04262">
        <ele>11</ele>
        <time>2012-10-24T10:02:59Z</time>
      </trkpt>
      <trkpt lat="43.05454" lon="3.04278">
        <ele>11.800000190735</ele>
        <time>2012-10-24T10:03:08Z</time>
      </trkpt>
      <trkpt lat="43.05455" lon="3.04288">
        <ele>12.60000038147</ele>
        <time>2012-10-24T10:03:15Z</time>
      </trkpt>
      <trkpt lat="43.05457" lon="3.04293">
        <ele>12.800000190735</ele>
        <time>2012-10-24T10:03:19Z</time>
      </trkpt>
      <trkpt lat="43.05458" lon="3.04296">
        <ele>13</ele>
        <time>2012-10-24T10:03:21Z</time>
      </trkpt>
      <trkpt lat="43.05461" lon="3.04309">
        <ele>13.199999809265</ele>
        <time>2012-10-24T10:03:29Z</time>
      </trkpt>
      <trkpt lat="43.05462" lon="3.04311">
        <ele>13.199999809265</ele>
        <time>2012-10-24T10:03:30Z</time>
      </trkpt>
      <trkpt lat="43.05465" lon="3.04322">
        <ele>13.60000038147</ele>
        <time>2012-10-24T10:03:37Z</time>
      </trkpt>
      <trkpt lat="43.05468" lon="3.04329">
        <ele>13.800000190735</ele>
        <time>2012-10-24T10:03:44Z</time>
      </trkpt>
      <trkpt lat="43.05471" lon="3.04333">
        <ele>14</ele>
        <time>2012-10-24T10:03:48Z</time>
      </trkpt>
      <trkpt lat="43.05472" lon="3.04335">
        <ele>14</ele>
        <time>2012-10-24T10:03:49Z</time>
      </trkpt>
      <trkpt lat="43.05477" lon="3.04341">
        <ele>13.800000190735</ele>
        <time>2012-10-24T10:03:55Z</time>
      </trkpt>
      <trkpt lat="43.05478" lon="3.04342">
        <ele>13.800000190735</ele>
        <time>2012-10-24T10:03:56Z</time>
      </trkpt>
      <trkpt lat="43.05484" lon="3.04348">
        <ele>13.60000038147</ele>
        <time>2012-10-24T10:04:02Z</time>
      </trkpt>
      <trkpt lat="43.05485" lon="3.04349">
        <ele>13.60000038147</ele>
        <time>2012-10-24T10:04:03Z</time>
      </trkpt>
      <trkpt lat="43.05488" lon="3.04352">
        <ele>13.39999961853</ele>
        <time>2012-10-24T10:04:06Z</time>
      </trkpt>
      <trkpt lat="43.05492" lon="3.04357">
        <ele>13.39999961853</ele>
        <time>2012-10-24T10:04:10Z</time>
      </trkpt>
      <trkpt lat="43.05494" lon="3.04358">
        <ele>13.39999961853</ele>
        <time>2012-10-24T10:04:12Z</time>
      </trkpt>
      <trkpt lat="43.05496" lon="3.04361">
        <ele>13.199999809265</ele>
        <time>2012-10-24T10:04:14Z</time>
      </trkpt>
      <trkpt lat="43.05497" lon="3.04364">
        <ele>13.199999809265</ele>
        <time>2012-10-24T10:04:16Z</time>
      </trkpt>
      <trkpt lat="43.05498" lon="3.04368">
        <ele>13.199999809265</ele>
        <time>2012-10-24T10:04:19Z</time>
      </trkpt>
      <trkpt lat="43.05498" lon="3.04369">
        <ele>13.199999809265</ele>
        <time>2012-10-24T10:04:20Z</time>
      </trkpt>
      <trkpt lat="43.05498" lon="3.04379">
        <ele>13.199999809265</ele>
        <time>2012-10-24T10:04:26Z</time>
      </trkpt>
      <trkpt lat="43.05499" lon="3.04382">
        <ele>13.199999809265</ele>
        <time>2012-10-24T10:04:32Z</time>
      </trkpt>
      <trkpt lat="43.05499" lon="3.04384">
        <ele>13.39999961853</ele>
        <time>2012-10-24T10:04:37Z</time>
      </trkpt>
      <trkpt lat="43.05499" lon="3.04388">
        <ele>13.39999961853</ele>
        <time>2012-10-24T10:04:48Z</time>
      </trkpt>
      <trkpt lat="43.05497" lon="3.0439">
        <ele>13.39999961853</ele>
        <time>2012-10-24T10:04:55Z</time>
      </trkpt>
      <trkpt lat="43.05499" lon="3.04391">
        <ele>12.39999961853</ele>
        <time>2012-10-24T10:05:26Z</time>
      </trkpt>
      <trkpt lat="43.05497" lon="3.04394">
        <ele>11.800000190735</ele>
        <time>2012-10-24T10:05:46Z</time>
      </trkpt>
      <trkpt lat="43.05494" lon="3.04396">
        <ele>12.60000038147</ele>
        <time>2012-10-24T10:06:14Z</time>
      </trkpt>
      <trkpt lat="43.05492" lon="3.04397">
        <ele>12.60000038147</ele>
        <time>2012-10-24T10:06:20Z</time>
      </trkpt>
      <trkpt lat="43.0549" lon="3.04393">
        <ele>12.800000190735</ele>
        <time>2012-10-24T10:06:39Z</time>
      </trkpt>
      <trkpt lat="43.05495" lon="3.04396">
        <ele>13</ele>
        <time>2012-10-24T10:07:01Z</time>
      </trkpt>
      <trkpt lat="43.05494" lon="3.04406">
        <ele>12.800000190735</ele>
        <time>2012-10-24T10:07:08Z</time>
      </trkpt>
      <trkpt lat="43.05494" lon="3.04416">
        <ele>13</ele>
        <time>2012-10-24T10:07:15Z</time>
      </trkpt>
      <trkpt lat="43.0549" lon="3.04425">
        <ele>13</ele>
        <time>2012-10-24T10:07:22Z</time>
      </trkpt>
      <trkpt lat="43.05486" lon="3.04435">
        <ele>12.800000190735</ele>
        <time>2012-10-24T10:07:29Z</time>
      </trkpt>
      <trkpt lat="43.0548" lon="3.04443">
        <ele>12.800000190735</ele>
        <time>2012-10-24T10:07:37Z</time>
      </trkpt>
      <trkpt lat="43.05478" lon="3.04447">
        <ele>12.60000038147</ele>
        <time>2012-10-24T10:07:40Z</time>
      </trkpt>
      <trkpt lat="43.05474" lon="3.04449">
        <ele>12.60000038147</ele>
        <time>2012-10-24T10:07:43Z</time>
      </trkpt>
      <trkpt lat="43.05471" lon="3.04452">
        <ele>12.60000038147</ele>
        <time>2012-10-24T10:07:46Z</time>
      </trkpt>
      <trkpt lat="43.05467" lon="3.04456">
        <ele>12.39999961853</ele>
        <time>2012-10-24T10:07:50Z</time>
      </trkpt>
      <trkpt lat="43.0546" lon="3.04464">
        <ele>12.39999961853</ele>
        <time>2012-10-24T10:07:57Z</time>
      </trkpt>
      <trkpt lat="43.05452" lon="3.04472">
        <ele>12.39999961853</ele>
        <time>2012-10-24T10:08:05Z</time>
      </trkpt>
      <trkpt lat="43.05443" lon="3.0448">
        <ele>12.39999961853</ele>
        <time>2012-10-24T10:08:13Z</time>
      </trkpt>
      <trkpt lat="43.05436" lon="3.04488">
        <ele>12.60000038147</ele>
        <time>2012-10-24T10:08:20Z</time>
      </trkpt>
      <trkpt lat="43.05429" lon="3.04495">
        <ele>12.60000038147</ele>
        <time>2012-10-24T10:08:27Z</time>
      </trkpt>
      <trkpt lat="43.05421" lon="3.04506">
        <ele>13</ele>
        <time>2012-10-24T10:08:36Z</time>
      </trkpt>
      <trkpt lat="43.05412" lon="3.04513">
        <ele>13</ele>
        <time>2012-10-24T10:08:45Z</time>
      </trkpt>
      <trkpt lat="43.05404" lon="3.04521">
        <ele>12.800000190735</ele>
        <time>2012-10-24T10:08:54Z</time>
      </trkpt>
      <trkpt lat="43.05396" lon="3.04529">
        <ele>12.60000038147</ele>
        <time>2012-10-24T10:09:02Z</time>
      </trkpt>
      <trkpt lat="43.05388" lon="3.04536">
        <ele>12.60000038147</ele>
        <time>2012-10-24T10:09:10Z</time>
      </trkpt>
      <trkpt lat="43.05387" lon="3.04537">
        <ele>12.60000038147</ele>
        <time>2012-10-24T10:09:11Z</time>
      </trkpt>
      <trkpt lat="43.05383" lon="3.04541">
        <ele>12.60000038147</ele>
        <time>2012-10-24T10:09:15Z</time>
      </trkpt>
      <trkpt lat="43.05375" lon="3.04549">
        <ele>12.60000038147</ele>
        <time>2012-10-24T10:09:23Z</time>
      </trkpt>
      <trkpt lat="43.05368" lon="3.04555">
        <ele>12.800000190735</ele>
        <time>2012-10-24T10:09:30Z</time>
      </trkpt>
      <trkpt lat="43.05359" lon="3.04564">
        <ele>12.60000038147</ele>
        <time>2012-10-24T10:09:39Z</time>
      </trkpt>
      <trkpt lat="43.05349" lon="3.04576">
        <ele>12.39999961853</ele>
        <time>2012-10-24T10:09:49Z</time>
      </trkpt>
      <trkpt lat="43.05339" lon="3.04587">
        <ele>12</ele>
        <time>2012-10-24T10:10:00Z</time>
      </trkpt>
      <trkpt lat="43.05333" lon="3.04594">
        <ele>11.60000038147</ele>
        <time>2012-10-24T10:10:08Z</time>
      </trkpt>
      <trkpt lat="43.05325" lon="3.04602">
        <ele>11.199999809265</ele>
        <time>2012-10-24T10:10:16Z</time>
      </trkpt>
      <trkpt lat="43.0532" lon="3.04608">
        <ele>11</ele>
        <time>2012-10-24T10:10:22Z</time>
      </trkpt>
      <trkpt lat="43.05313" lon="3.04614">
        <ele>10.800000190735</ele>
        <time>2012-10-24T10:10:29Z</time>
      </trkpt>
      <trkpt lat="43.05304" lon="3.04617">
        <ele>10.60000038147</ele>
        <time>2012-10-24T10:10:37Z</time>
      </trkpt>
      <trkpt lat="43.05294" lon="3.04615">
        <ele>10.199999809265</ele>
        <time>2012-10-24T10:10:45Z</time>
      </trkpt>
      <trkpt lat="43.05284" lon="3.04612">
        <ele>9.8000001907349</ele>
        <time>2012-10-24T10:10:54Z</time>
      </trkpt>
      <trkpt lat="43.05283" lon="3.04612">
        <ele>9.6000003814697</ele>
        <time>2012-10-24T10:10:56Z</time>
      </trkpt>
      <trkpt lat="43.05282" lon="3.04612">
        <ele>9.6000003814697</ele>
        <time>2012-10-24T10:10:59Z</time>
      </trkpt>
      <trkpt lat="43.05277" lon="3.04615">
        <ele>8</ele>
        <time>2012-10-24T10:11:54Z</time>
      </trkpt>
      <trkpt lat="43.05275" lon="3.04615">
        <ele>7.8000001907349</ele>
        <time>2012-10-24T10:11:57Z</time>
      </trkpt>
      <trkpt lat="43.05267" lon="3.04616">
        <ele>7.8000001907349</ele>
        <time>2012-10-24T10:12:04Z</time>
      </trkpt>
      <trkpt lat="43.05263" lon="3.04615">
        <ele>7.8000001907349</ele>
        <time>2012-10-24T10:12:09Z</time>
      </trkpt>
      <trkpt lat="43.05262" lon="3.04614">
        <ele>7.8000001907349</ele>
        <time>2012-10-24T10:12:11Z</time>
      </trkpt>
      <trkpt lat="43.05254" lon="3.04615">
        <ele>7.8000001907349</ele>
        <time>2012-10-24T10:12:19Z</time>
      </trkpt>
      <trkpt lat="43.05247" lon="3.04615">
        <ele>7.8000001907349</ele>
        <time>2012-10-24T10:12:25Z</time>
      </trkpt>
      <trkpt lat="43.05238" lon="3.04616">
        <ele>7.8000001907349</ele>
        <time>2012-10-24T10:12:32Z</time>
      </trkpt>
      <trkpt lat="43.05228" lon="3.04617">
        <ele>7.5999999046326</ele>
        <time>2012-10-24T10:12:40Z</time>
      </trkpt>
      <trkpt lat="43.05217" lon="3.04618">
        <ele>7.4000000953674</ele>
        <time>2012-10-24T10:12:50Z</time>
      </trkpt>
      <trkpt lat="43.05207" lon="3.04619">
        <ele>7.4000000953674</ele>
        <time>2012-10-24T10:12:58Z</time>
      </trkpt>
      <trkpt lat="43.05201" lon="3.0462">
        <ele>7</ele>
        <time>2012-10-24T10:13:05Z</time>
      </trkpt>
      <trkpt lat="43.05191" lon="3.04622">
        <ele>6.8000001907349</ele>
        <time>2012-10-24T10:13:13Z</time>
      </trkpt>
      <trkpt lat="43.05181" lon="3.04625">
        <ele>6.5999999046326</ele>
        <time>2012-10-24T10:13:22Z</time>
      </trkpt>
      <trkpt lat="43.05168" lon="3.04629">
        <ele>6.1999998092651</ele>
        <time>2012-10-24T10:13:33Z</time>
      </trkpt>
      <trkpt lat="43.05158" lon="3.04634">
        <ele>6</ele>
        <time>2012-10-24T10:13:40Z</time>
      </trkpt>
      <trkpt lat="43.05155" lon="3.04635">
        <ele>6</ele>
        <time>2012-10-24T10:13:45Z</time>
      </trkpt>
      <trkpt lat="43.05153" lon="3.04636">
        <ele>6.1999998092651</ele>
        <time>2012-10-24T10:13:51Z</time>
      </trkpt>
      <trkpt lat="43.05147" lon="3.04638">
        <ele>6.4000000953674</ele>
        <time>2012-10-24T10:13:56Z</time>
      </trkpt>
      <trkpt lat="43.05145" lon="3.04639">
        <ele>6.5999999046326</ele>
        <time>2012-10-24T10:13:59Z</time>
      </trkpt>
      <trkpt lat="43.0514" lon="3.0464">
        <ele>6.8000001907349</ele>
        <time>2012-10-24T10:14:03Z</time>
      </trkpt>
      <trkpt lat="43.05135" lon="3.04642">
        <ele>7</ele>
        <time>2012-10-24T10:14:08Z</time>
      </trkpt>
      <trkpt lat="43.05125" lon="3.04647">
        <ele>7</ele>
        <time>2012-10-24T10:14:16Z</time>
      </trkpt>
      <trkpt lat="43.0512" lon="3.04649">
        <ele>6.8000001907349</ele>
        <time>2012-10-24T10:14:23Z</time>
      </trkpt>
      <trkpt lat="43.05113" lon="3.04651">
        <ele>7.1999998092651</ele>
        <time>2012-10-24T10:14:36Z</time>
      </trkpt>
      <trkpt lat="43.05107" lon="3.04655">
        <ele>7.1999998092651</ele>
        <time>2012-10-24T10:14:42Z</time>
      </trkpt>
      <trkpt lat="43.05107" lon="3.04656">
        <ele>7</ele>
        <time>2012-10-24T10:14:43Z</time>
      </trkpt>
      <trkpt lat="43.051" lon="3.04663">
        <ele>7</ele>
        <time>2012-10-24T10:14:51Z</time>
      </trkpt>
      <trkpt lat="43.05094" lon="3.04666">
        <ele>6.8000001907349</ele>
        <time>2012-10-24T10:14:56Z</time>
      </trkpt>
      <trkpt lat="43.05091" lon="3.04669">
        <ele>6.8000001907349</ele>
        <time>2012-10-24T10:15:00Z</time>
      </trkpt>
      <trkpt lat="43.05088" lon="3.04671">
        <ele>6.8000001907349</ele>
        <time>2012-10-24T10:15:03Z</time>
      </trkpt>
      <trkpt lat="43.05083" lon="3.04676">
        <ele>6.5999999046326</ele>
        <time>2012-10-24T10:15:08Z</time>
      </trkpt>
      <trkpt lat="43.0508" lon="3.04679">
        <ele>6.5999999046326</ele>
        <time>2012-10-24T10:15:10Z</time>
      </trkpt>
      <trkpt lat="43.05076" lon="3.04683">
        <ele>7</ele>
        <time>2012-10-24T10:15:14Z</time>
      </trkpt>
      <trkpt lat="43.05075" lon="3.04684">
        <ele>6.8000001907349</ele>
        <time>2012-10-24T10:15:16Z</time>
      </trkpt>
      <trkpt lat="43.05068" lon="3.0469">
        <ele>6.5999999046326</ele>
        <time>2012-10-24T10:15:25Z</time>
      </trkpt>
      <trkpt lat="43.05061" lon="3.04699">
        <ele>6.5999999046326</ele>
        <time>2012-10-24T10:15:32Z</time>
      </trkpt>
      <trkpt lat="43.05054" lon="3.04709">
        <ele>6.8000001907349</ele>
        <time>2012-10-24T10:15:41Z</time>
      </trkpt>
      <trkpt lat="43.05053" lon="3.0471">
        <ele>6.8000001907349</ele>
        <time>2012-10-24T10:15:43Z</time>
      </trkpt>
      <trkpt lat="43.05047" lon="3.04715">
        <ele>6.5999999046326</ele>
        <time>2012-10-24T10:15:48Z</time>
      </trkpt>
      <trkpt lat="43.0504" lon="3.04724">
        <ele>7</ele>
        <time>2012-10-24T10:15:55Z</time>
      </trkpt>
      <trkpt lat="43.05034" lon="3.04731">
        <ele>6.8000001907349</ele>
        <time>2012-10-24T10:16:02Z</time>
      </trkpt>
      <trkpt lat="43.05027" lon="3.04742">
        <ele>6.8000001907349</ele>
        <time>2012-10-24T10:16:10Z</time>
      </trkpt>
      <trkpt lat="43.05022" lon="3.04755">
        <ele>6.8000001907349</ele>
        <time>2012-10-24T10:16:19Z</time>
      </trkpt>
      <trkpt lat="43.05016" lon="3.04766">
        <ele>7</ele>
        <time>2012-10-24T10:16:28Z</time>
      </trkpt>
      <trkpt lat="43.0501" lon="3.04774">
        <ele>7</ele>
        <time>2012-10-24T10:16:35Z</time>
      </trkpt>
      <trkpt lat="43.05006" lon="3.04783">
        <ele>7.1999998092651</ele>
        <time>2012-10-24T10:16:41Z</time>
      </trkpt>
      <trkpt lat="43.05001" lon="3.04794">
        <ele>7.4000000953674</ele>
        <time>2012-10-24T10:16:48Z</time>
      </trkpt>
      <trkpt lat="43.04998" lon="3.04804">
        <ele>7.8000001907349</ele>
        <time>2012-10-24T10:16:55Z</time>
      </trkpt>
      <trkpt lat="43.04996" lon="3.04811">
        <ele>8.1999998092651</ele>
        <time>2012-10-24T10:17:00Z</time>
      </trkpt>
      <trkpt lat="43.04996" lon="3.04812">
        <ele>8.1999998092651</ele>
        <time>2012-10-24T10:17:01Z</time>
      </trkpt>
      <trkpt lat="43.04994" lon="3.0482">
        <ele>8.1999998092651</ele>
        <time>2012-10-24T10:17:06Z</time>
      </trkpt>
      <trkpt lat="43.04993" lon="3.04822">
        <ele>8.3999996185303</ele>
        <time>2012-10-24T10:17:07Z</time>
      </trkpt>
      <trkpt lat="43.04992" lon="3.04828">
        <ele>8.3999996185303</ele>
        <time>2012-10-24T10:17:11Z</time>
      </trkpt>
      <trkpt lat="43.0499" lon="3.04836">
        <ele>8.6000003814697</ele>
        <time>2012-10-24T10:17:16Z</time>
      </trkpt>
      <trkpt lat="43.04989" lon="3.04845">
        <ele>8.8000001907349</ele>
        <time>2012-10-24T10:17:21Z</time>
      </trkpt>
      <trkpt lat="43.04988" lon="3.04849">
        <ele>9</ele>
        <time>2012-10-24T10:17:24Z</time>
      </trkpt>
      <trkpt lat="43.04986" lon="3.04857">
        <ele>9.1999998092651</ele>
        <time>2012-10-24T10:17:29Z</time>
      </trkpt>
      <trkpt lat="43.04985" lon="3.04863">
        <ele>9.3999996185303</ele>
        <time>2012-10-24T10:17:33Z</time>
      </trkpt>
      <trkpt lat="43.04983" lon="3.04868">
        <ele>9.3999996185303</ele>
        <time>2012-10-24T10:17:36Z</time>
      </trkpt>
      <trkpt lat="43.04983" lon="3.04877">
        <ele>9.6000003814697</ele>
        <time>2012-10-24T10:17:42Z</time>
      </trkpt>
      <trkpt lat="43.04982" lon="3.04888">
        <ele>9.6000003814697</ele>
        <time>2012-10-24T10:17:49Z</time>
      </trkpt>
      <trkpt lat="43.04983" lon="3.0489">
        <ele>9.6000003814697</ele>
        <time>2012-10-24T10:17:50Z</time>
      </trkpt>
      <trkpt lat="43.04985" lon="3.04894">
        <ele>9.6000003814697</ele>
        <time>2012-10-24T10:17:53Z</time>
      </trkpt>
      <trkpt lat="43.04985" lon="3.04902">
        <ele>9.8000001907349</ele>
        <time>2012-10-24T10:17:58Z</time>
      </trkpt>
      <trkpt lat="43.04985" lon="3.04906">
        <ele>10.199999809265</ele>
        <time>2012-10-24T10:18:07Z</time>
      </trkpt>
      <trkpt lat="43.0498" lon="3.04907">
        <ele>11.800000190735</ele>
        <time>2012-10-24T10:18:40Z</time>
      </trkpt>
      <trkpt lat="43.04986" lon="3.04907">
        <ele>12</ele>
        <time>2012-10-24T10:18:46Z</time>
      </trkpt>
      <trkpt lat="43.04987" lon="3.04907">
        <ele>12</ele>
        <time>2012-10-24T10:18:47Z</time>
      </trkpt>
      <trkpt lat="43.04989" lon="3.04908">
        <ele>11.800000190735</ele>
        <time>2012-10-24T10:18:50Z</time>
      </trkpt>
      <trkpt lat="43.04982" lon="3.04908">
        <ele>11.800000190735</ele>
        <time>2012-10-24T10:18:52Z</time>
      </trkpt>
      <trkpt lat="43.04987" lon="3.0491">
        <ele>11.39999961853</ele>
        <time>2012-10-24T10:19:03Z</time>
      </trkpt>
      <trkpt lat="43.04988" lon="3.0491">
        <ele>11.39999961853</ele>
        <time>2012-10-24T10:19:04Z</time>
      </trkpt>
      <trkpt lat="43.0499" lon="3.04912">
        <ele>11.60000038147</ele>
        <time>2012-10-24T10:19:09Z</time>
      </trkpt>
      <trkpt lat="43.04982" lon="3.04906">
        <ele>10.60000038147</ele>
        <time>2012-10-24T10:19:42Z</time>
      </trkpt>
      <trkpt lat="43.04985" lon="3.04907">
        <ele>10.39999961853</ele>
        <time>2012-10-24T10:20:02Z</time>
      </trkpt>
      <trkpt lat="43.04984" lon="3.04905">
        <ele>10.39999961853</ele>
        <time>2012-10-24T10:20:08Z</time>
      </trkpt>
      <trkpt lat="43.04979" lon="3.04906">
        <ele>10.199999809265</ele>
        <time>2012-10-24T10:20:11Z</time>
      </trkpt>
      <trkpt lat="43.0498" lon="3.04911">
        <ele>10.39999961853</ele>
        <time>2012-10-24T10:20:15Z</time>
      </trkpt>
      <trkpt lat="43.04984" lon="3.04913">
        <ele>10.60000038147</ele>
        <time>2012-10-24T10:20:17Z</time>
      </trkpt>
      <trkpt lat="43.04984" lon="3.04912">
        <ele>10.39999961853</ele>
        <time>2012-10-24T10:20:20Z</time>
      </trkpt>
      <trkpt lat="43.04983" lon="3.04908">
        <ele>10.199999809265</ele>
        <time>2012-10-24T10:20:25Z</time>
      </trkpt>
      <trkpt lat="43.04983" lon="3.0491">
        <ele>9.8000001907349</ele>
        <time>2012-10-24T10:20:34Z</time>
      </trkpt>
      <trkpt lat="43.04978" lon="3.04909">
        <ele>9.8000001907349</ele>
        <time>2012-10-24T10:20:42Z</time>
      </trkpt>
      <trkpt lat="43.04979" lon="3.04909">
        <ele>9.8000001907349</ele>
        <time>2012-10-24T10:20:43Z</time>
      </trkpt>
      <trkpt lat="43.0498" lon="3.04911">
        <ele>9.1999998092651</ele>
        <time>2012-10-24T10:20:55Z</time>
      </trkpt>
      <trkpt lat="43.04978" lon="3.04913">
        <ele>9</ele>
        <time>2012-10-24T10:21:11Z</time>
      </trkpt>
      <trkpt lat="43.04981" lon="3.04912">
        <ele>9</ele>
        <time>2012-10-24T10:21:19Z</time>
      </trkpt>
      <trkpt lat="43.04982" lon="3.04912">
        <ele>9.3999996185303</ele>
        <time>2012-10-24T10:21:34Z</time>
      </trkpt>
      <trkpt lat="43.04983" lon="3.04912">
        <ele>9.6000003814697</ele>
        <time>2012-10-24T10:21:37Z</time>
      </trkpt>
      <trkpt lat="43.04984" lon="3.0491">
        <ele>9.3999996185303</ele>
        <time>2012-10-24T10:21:42Z</time>
      </trkpt>
      <trkpt lat="43.04984" lon="3.0491">
        <ele>9.1999998092651</ele>
        <time>2012-10-24T10:21:57Z</time>
      </trkpt>
      <trkpt lat="43.04985" lon="3.04918">
        <ele>9</ele>
        <time>2012-10-24T10:22:04Z</time>
      </trkpt>
      <trkpt lat="43.04985" lon="3.04924">
        <ele>9</ele>
        <time>2012-10-24T10:22:08Z</time>
      </trkpt>
      <trkpt lat="43.04985" lon="3.04926">
        <ele>9</ele>
        <time>2012-10-24T10:22:10Z</time>
      </trkpt>
      <trkpt lat="43.04986" lon="3.04936">
        <ele>9</ele>
        <time>2012-10-24T10:22:18Z</time>
      </trkpt>
      <trkpt lat="43.04986" lon="3.04942">
        <ele>9</ele>
        <time>2012-10-24T10:22:22Z</time>
      </trkpt>
      <trkpt lat="43.04985" lon="3.04947">
        <ele>9</ele>
        <time>2012-10-24T10:22:26Z</time>
      </trkpt>
      <trkpt lat="43.04983" lon="3.04956">
        <ele>8.8000001907349</ele>
        <time>2012-10-24T10:22:32Z</time>
      </trkpt>
      <trkpt lat="43.04982" lon="3.04959">
        <ele>8.8000001907349</ele>
        <time>2012-10-24T10:22:34Z</time>
      </trkpt>
      <trkpt lat="43.0498" lon="3.04966">
        <ele>8.8000001907349</ele>
        <time>2012-10-24T10:22:39Z</time>
      </trkpt>
      <trkpt lat="43.04979" lon="3.04969">
        <ele>8.8000001907349</ele>
        <time>2012-10-24T10:22:41Z</time>
      </trkpt>
      <trkpt lat="43.04977" lon="3.04973">
        <ele>8.8000001907349</ele>
        <time>2012-10-24T10:22:44Z</time>
      </trkpt>
      <trkpt lat="43.04975" lon="3.0498">
        <ele>8.8000001907349</ele>
        <time>2012-10-24T10:22:48Z</time>
      </trkpt>
      <trkpt lat="43.04972" lon="3.04988">
        <ele>8.6000003814697</ele>
        <time>2012-10-24T10:22:55Z</time>
      </trkpt>
      <trkpt lat="43.0497" lon="3.04995">
        <ele>8.6000003814697</ele>
        <time>2012-10-24T10:23:01Z</time>
      </trkpt>
      <trkpt lat="43.04968" lon="3.05002">
        <ele>8.6000003814697</ele>
        <time>2012-10-24T10:23:05Z</time>
      </trkpt>
      <trkpt lat="43.04967" lon="3.05003">
        <ele>8.6000003814697</ele>
        <time>2012-10-24T10:23:06Z</time>
      </trkpt>
      <trkpt lat="43.04966" lon="3.05006">
        <ele>8.6000003814697</ele>
        <time>2012-10-24T10:23:08Z</time>
      </trkpt>
      <trkpt lat="43.04961" lon="3.05019">
        <ele>8.8000001907349</ele>
        <time>2012-10-24T10:23:16Z</time>
      </trkpt>
      <trkpt lat="43.04959" lon="3.05026">
        <ele>8.8000001907349</ele>
        <time>2012-10-24T10:23:21Z</time>
      </trkpt>
      <trkpt lat="43.04959" lon="3.05027">
        <ele>8.8000001907349</ele>
        <time>2012-10-24T10:23:22Z</time>
      </trkpt>
      <trkpt lat="43.04953" lon="3.05035">
        <ele>8.3999996185303</ele>
        <time>2012-10-24T10:23:29Z</time>
      </trkpt>
      <trkpt lat="43.04953" lon="3.05036">
        <ele>8.3999996185303</ele>
        <time>2012-10-24T10:23:30Z</time>
      </trkpt>
      <trkpt lat="43.04945" lon="3.05045">
        <ele>8.1999998092651</ele>
        <time>2012-10-24T10:23:39Z</time>
      </trkpt>
      <trkpt lat="43.04938" lon="3.0505">
        <ele>7.8000001907349</ele>
        <time>2012-10-24T10:23:46Z</time>
      </trkpt>
      <trkpt lat="43.04933" lon="3.05058">
        <ele>7.4000000953674</ele>
        <time>2012-10-24T10:23:53Z</time>
      </trkpt>
      <trkpt lat="43.0493" lon="3.05062">
        <ele>7.1999998092651</ele>
        <time>2012-10-24T10:23:57Z</time>
      </trkpt>
      <trkpt lat="43.04927" lon="3.05064">
        <ele>6.8000001907349</ele>
        <time>2012-10-24T10:24:00Z</time>
      </trkpt>
      <trkpt lat="43.04926" lon="3.05065">
        <ele>6.8000001907349</ele>
        <time>2012-10-24T10:24:01Z</time>
      </trkpt>
      <trkpt lat="43.04923" lon="3.05068">
        <ele>6.5999999046326</ele>
        <time>2012-10-24T10:24:04Z</time>
      </trkpt>
      <trkpt lat="43.04919" lon="3.05072">
        <ele>6.4000000953674</ele>
        <time>2012-10-24T10:24:08Z</time>
      </trkpt>
      <trkpt lat="43.04918" lon="3.05073">
        <ele>6.4000000953674</ele>
        <time>2012-10-24T10:24:09Z</time>
      </trkpt>
      <trkpt lat="43.04911" lon="3.05081">
        <ele>6.1999998092651</ele>
        <time>2012-10-24T10:24:17Z</time>
      </trkpt>
      <trkpt lat="43.04907" lon="3.05083">
        <ele>5.8000001907349</ele>
        <time>2012-10-24T10:24:24Z</time>
      </trkpt>
      <trkpt lat="43.049" lon="3.05083">
        <ele>5.5999999046326</ele>
        <time>2012-10-24T10:24:37Z</time>
      </trkpt>
      <trkpt lat="43.04897" lon="3.0508">
        <ele>6</ele>
        <time>2012-10-24T10:24:46Z</time>
      </trkpt>
      <trkpt lat="43.04896" lon="3.05084">
        <ele>6.4000000953674</ele>
        <time>2012-10-24T10:24:55Z</time>
      </trkpt>
      <trkpt lat="43.04892" lon="3.05089">
        <ele>6.4000000953674</ele>
        <time>2012-10-24T10:25:08Z</time>
      </trkpt>
      <trkpt lat="43.04884" lon="3.05092">
        <ele>6.1999998092651</ele>
        <time>2012-10-24T10:25:17Z</time>
      </trkpt>
      <trkpt lat="43.04879" lon="3.05094">
        <ele>6</ele>
        <time>2012-10-24T10:25:24Z</time>
      </trkpt>
      <trkpt lat="43.04877" lon="3.05096">
        <ele>5.8000001907349</ele>
        <time>2012-10-24T10:25:26Z</time>
      </trkpt>
      <trkpt lat="43.04873" lon="3.05099">
        <ele>5.8000001907349</ele>
        <time>2012-10-24T10:25:30Z</time>
      </trkpt>
      <trkpt lat="43.04865" lon="3.05102">
        <ele>5.4000000953674</ele>
        <time>2012-10-24T10:25:38Z</time>
      </trkpt>
      <trkpt lat="43.04855" lon="3.05107">
        <ele>5.1999998092651</ele>
        <time>2012-10-24T10:25:47Z</time>
      </trkpt>
      <trkpt lat="43.04846" lon="3.05111">
        <ele>4.8000001907349</ele>
        <time>2012-10-24T10:25:55Z</time>
      </trkpt>
      <trkpt lat="43.04833" lon="3.05119">
        <ele>4.5999999046326</ele>
        <time>2012-10-24T10:26:05Z</time>
      </trkpt>
      <trkpt lat="43.04825" lon="3.05122">
        <ele>4.8000001907349</ele>
        <time>2012-10-24T10:26:12Z</time>
      </trkpt>
      <trkpt lat="43.04824" lon="3.05122">
        <ele>4.8000001907349</ele>
        <time>2012-10-24T10:26:13Z</time>
      </trkpt>
      <trkpt lat="43.04818" lon="3.05124">
        <ele>4.8000001907349</ele>
        <time>2012-10-24T10:26:19Z</time>
      </trkpt>
      <trkpt lat="43.04818" lon="3.05124">
        <ele>4.8000001907349</ele>
        <time>2012-10-24T10:26:20Z</time>
      </trkpt>
      <trkpt lat="43.04813" lon="3.05128">
        <ele>4.5999999046326</ele>
        <time>2012-10-24T10:26:25Z</time>
      </trkpt>
      <trkpt lat="43.04808" lon="3.05136">
        <ele>4.5999999046326</ele>
        <time>2012-10-24T10:26:31Z</time>
      </trkpt>
      <trkpt lat="43.04802" lon="3.05151">
        <ele>4.5999999046326</ele>
        <time>2012-10-24T10:26:41Z</time>
      </trkpt>
      <trkpt lat="43.04799" lon="3.05161">
        <ele>4.5999999046326</ele>
        <time>2012-10-24T10:26:50Z</time>
      </trkpt>
      <trkpt lat="43.04798" lon="3.05167">
        <ele>4.5999999046326</ele>
        <time>2012-10-24T10:26:54Z</time>
      </trkpt>
      <trkpt lat="43.04797" lon="3.05171">
        <ele>4.5999999046326</ele>
        <time>2012-10-24T10:26:57Z</time>
      </trkpt>
      <trkpt lat="43.04796" lon="3.05175">
        <ele>4.8000001907349</ele>
        <time>2012-10-24T10:27:00Z</time>
      </trkpt>
      <trkpt lat="43.04796" lon="3.05177">
        <ele>4.8000001907349</ele>
        <time>2012-10-24T10:27:01Z</time>
      </trkpt>
      <trkpt lat="43.04795" lon="3.0518">
        <ele>5</ele>
        <time>2012-10-24T10:27:03Z</time>
      </trkpt>
      <trkpt lat="43.04794" lon="3.05185">
        <ele>5.1999998092651</ele>
        <time>2012-10-24T10:27:07Z</time>
      </trkpt>
      <trkpt lat="43.04793" lon="3.0519">
        <ele>5.4000000953674</ele>
        <time>2012-10-24T10:27:10Z</time>
      </trkpt>
      <trkpt lat="43.04791" lon="3.05203">
        <ele>5.5999999046326</ele>
        <time>2012-10-24T10:27:20Z</time>
      </trkpt>
      <trkpt lat="43.0479" lon="3.05216">
        <ele>5.5999999046326</ele>
        <time>2012-10-24T10:27:29Z</time>
      </trkpt>
      <trkpt lat="43.04788" lon="3.05229">
        <ele>6</ele>
        <time>2012-10-24T10:27:38Z</time>
      </trkpt>
      <trkpt lat="43.04786" lon="3.05242">
        <ele>6</ele>
        <time>2012-10-24T10:27:47Z</time>
      </trkpt>
      <trkpt lat="43.04784" lon="3.05256">
        <ele>5.8000001907349</ele>
        <time>2012-10-24T10:27:57Z</time>
      </trkpt>
      <trkpt lat="43.04782" lon="3.05267">
        <ele>5.4000000953674</ele>
        <time>2012-10-24T10:28:05Z</time>
      </trkpt>
      <trkpt lat="43.04781" lon="3.05278">
        <ele>5.4000000953674</ele>
        <time>2012-10-24T10:28:12Z</time>
      </trkpt>
      <trkpt lat="43.04781" lon="3.05279">
        <ele>5.4000000953674</ele>
        <time>2012-10-24T10:28:13Z</time>
      </trkpt>
      <trkpt lat="43.04781" lon="3.05283">
        <ele>5.4000000953674</ele>
        <time>2012-10-24T10:28:16Z</time>
      </trkpt>
      <trkpt lat="43.04779" lon="3.05291">
        <ele>5.4000000953674</ele>
        <time>2012-10-24T10:28:21Z</time>
      </trkpt>
      <trkpt lat="43.04776" lon="3.05303">
        <ele>5.4000000953674</ele>
        <time>2012-10-24T10:28:29Z</time>
      </trkpt>
      <trkpt lat="43.04773" lon="3.05319">
        <ele>5.1999998092651</ele>
        <time>2012-10-24T10:28:39Z</time>
      </trkpt>
      <trkpt lat="43.0477" lon="3.05333">
        <ele>5</ele>
        <time>2012-10-24T10:28:48Z</time>
      </trkpt>
      <trkpt lat="43.04768" lon="3.05347">
        <ele>5</ele>
        <time>2012-10-24T10:28:57Z</time>
      </trkpt>
      <trkpt lat="43.04769" lon="3.05358">
        <ele>4.8000001907349</ele>
        <time>2012-10-24T10:29:04Z</time>
      </trkpt>
      <trkpt lat="43.04771" lon="3.05366">
        <ele>4.8000001907349</ele>
        <time>2012-10-24T10:29:10Z</time>
      </trkpt>
      <trkpt lat="43.04771" lon="3.05367">
        <ele>4.8000001907349</ele>
        <time>2012-10-24T10:29:11Z</time>
      </trkpt>
      <trkpt lat="43.04773" lon="3.05373">
        <ele>4.5999999046326</ele>
        <time>2012-10-24T10:29:15Z</time>
      </trkpt>
      <trkpt lat="43.04775" lon="3.05377">
        <ele>4.5999999046326</ele>
        <time>2012-10-24T10:29:19Z</time>
      </trkpt>
      <trkpt lat="43.04778" lon="3.0538">
        <ele>4.4000000953674</ele>
        <time>2012-10-24T10:29:23Z</time>
      </trkpt>
      <trkpt lat="43.04784" lon="3.05385">
        <ele>4.1999998092651</ele>
        <time>2012-10-24T10:29:29Z</time>
      </trkpt>
      <trkpt lat="43.04785" lon="3.05385">
        <ele>4</ele>
        <time>2012-10-24T10:29:35Z</time>
      </trkpt>
      <trkpt lat="43.04787" lon="3.05385">
        <ele>3.2000000476837</ele>
        <time>2012-10-24T10:30:01Z</time>
      </trkpt>
      <trkpt lat="43.04792" lon="3.05393">
        <ele>3</ele>
        <time>2012-10-24T10:30:23Z</time>
      </trkpt>
      <trkpt lat="43.04794" lon="3.054">
        <ele>3</ele>
        <time>2012-10-24T10:30:27Z</time>
      </trkpt>
      <trkpt lat="43.04794" lon="3.05402">
        <ele>3</ele>
        <time>2012-10-24T10:30:28Z</time>
      </trkpt>
      <trkpt lat="43.04794" lon="3.05414">
        <ele>2.7999999523163</ele>
        <time>2012-10-24T10:30:36Z</time>
      </trkpt>
      <trkpt lat="43.04792" lon="3.05423">
        <ele>2.7999999523163</ele>
        <time>2012-10-24T10:30:42Z</time>
      </trkpt>
      <trkpt lat="43.04789" lon="3.05434">
        <ele>2.4000000953674</ele>
        <time>2012-10-24T10:30:49Z</time>
      </trkpt>
      <trkpt lat="43.04786" lon="3.05445">
        <ele>2.2000000476837</ele>
        <time>2012-10-24T10:30:57Z</time>
      </trkpt>
      <trkpt lat="43.04784" lon="3.05453">
        <ele>2</ele>
        <time>2012-10-24T10:31:03Z</time>
      </trkpt>
      <trkpt lat="43.04782" lon="3.05456">
        <ele>2</ele>
        <time>2012-10-24T10:31:05Z</time>
      </trkpt>
      <trkpt lat="43.04779" lon="3.05468">
        <ele>1.7999999523163</ele>
        <time>2012-10-24T10:31:13Z</time>
      </trkpt>
      <trkpt lat="43.04778" lon="3.05474">
        <ele>1.6000000238419</ele>
        <time>2012-10-24T10:31:17Z</time>
      </trkpt>
      <trkpt lat="43.04776" lon="3.0548">
        <ele>1.6000000238419</ele>
        <time>2012-10-24T10:31:21Z</time>
      </trkpt>
      <trkpt lat="43.04775" lon="3.05486">
        <ele>1.3999999761581</ele>
        <time>2012-10-24T10:31:25Z</time>
      </trkpt>
      <trkpt lat="43.04774" lon="3.05492">
        <ele>1.2000000476837</ele>
        <time>2012-10-24T10:31:29Z</time>
      </trkpt>
      <trkpt lat="43.0477" lon="3.05503">
        <ele>0.60000002384186</ele>
        <time>2012-10-24T10:31:37Z</time>
      </trkpt>
      <trkpt lat="43.04767" lon="3.05516">
        <ele>0.20000000298023</ele>
        <time>2012-10-24T10:31:46Z</time>
      </trkpt>
      <trkpt lat="43.04766" lon="3.05525">
        <ele>1</ele>
        <time>2012-10-24T10:31:51Z</time>
      </trkpt>
      <trkpt lat="43.04764" lon="3.05528">
        <ele>-0.20000000298023</ele>
        <time>2012-10-24T10:31:53Z</time>
      </trkpt>
      <trkpt lat="43.0476" lon="3.0554">
        <ele>-0.20000000298023</ele>
        <time>2012-10-24T10:32:00Z</time>
      </trkpt>
      <trkpt lat="43.04758" lon="3.05544">
        <ele>-0.40000000596046</ele>
        <time>2012-10-24T10:32:03Z</time>
      </trkpt>
      <trkpt lat="43.04757" lon="3.05546">
        <ele>-0.40000000596046</ele>
        <time>2012-10-24T10:32:05Z</time>
      </trkpt>
      <trkpt lat="43.04752" lon="3.05553">
        <ele>-0.40000000596046</ele>
        <time>2012-10-24T10:32:11Z</time>
      </trkpt>
      <trkpt lat="43.04745" lon="3.05566">
        <ele>-0.40000000596046</ele>
        <time>2012-10-24T10:32:20Z</time>
      </trkpt>
      <trkpt lat="43.04741" lon="3.05576">
        <ele>1.6</ele>
        <time>2012-10-24T10:32:27Z</time>
      </trkpt>
      <trkpt lat="43.0474" lon="3.05578">
        <ele>1.6</ele>
        <time>2012-10-24T10:32:29Z</time>
      </trkpt>
      <trkpt lat="43.04737" lon="3.05582">
        <ele>1.5</ele>
        <time>2012-10-24T10:32:33Z</time>
      </trkpt>
      <trkpt lat="43.04737" lon="3.05582">
        <ele>0.20000000298023</ele>
        <time>2012-10-24T10:32:34Z</time>
      </trkpt>
      <trkpt lat="43.04735" lon="3.05584">
        <ele>0.60000002384186</ele>
        <time>2012-10-24T10:32:37Z</time>
      </trkpt>
      <trkpt lat="43.04733" lon="3.05585">
        <ele>0.80000001192093</ele>
        <time>2012-10-24T10:32:39Z</time>
      </trkpt>
      <trkpt lat="43.04723" lon="3.05586">
        <ele>1.2000000476837</ele>
        <time>2012-10-24T10:32:47Z</time>
      </trkpt>
      <trkpt lat="43.04713" lon="3.05581">
        <ele>1.2000000476837</ele>
        <time>2012-10-24T10:32:55Z</time>
      </trkpt>
      <trkpt lat="43.04705" lon="3.05575">
        <ele>1</ele>
        <time>2012-10-24T10:33:04Z</time>
      </trkpt>
      <trkpt lat="43.04696" lon="3.05571">
        <ele>1</ele>
        <time>2012-10-24T10:33:13Z</time>
      </trkpt>
      <trkpt lat="43.04693" lon="3.05569">
        <ele>0.80000001192093</ele>
        <time>2012-10-24T10:33:18Z</time>
      </trkpt>
      <trkpt lat="43.04693" lon="3.05569">
        <ele>0.80000001192093</ele>
        <time>2012-10-24T10:33:19Z</time>
      </trkpt>
      <trkpt lat="43.04691" lon="3.05569">
        <ele>0.80000001192093</ele>
        <time>2012-10-24T10:33:25Z</time>
      </trkpt>
      <trkpt lat="43.04691" lon="3.05573">
        <ele>0.80000001192093</ele>
        <time>2012-10-24T10:33:30Z</time>
      </trkpt>
      <trkpt lat="43.0469" lon="3.05576">
        <ele>0.80000001192093</ele>
        <time>2012-10-24T10:33:36Z</time>
      </trkpt>
      <trkpt lat="43.04689" lon="3.05577">
        <ele>0.80000001192093</ele>
        <time>2012-10-24T10:33:40Z</time>
      </trkpt>
      <trkpt lat="43.04687" lon="3.05577">
        <ele>1</ele>
        <time>2012-10-24T10:34:01Z</time>
      </trkpt>
      <trkpt lat="43.04685" lon="3.0558">
        <ele>1.6000000238419</ele>
        <time>2012-10-24T10:34:43Z</time>
      </trkpt>
      <trkpt lat="43.04684" lon="3.05578">
        <ele>1.3999999761581</ele>
        <time>2012-10-24T10:34:53Z</time>
      </trkpt>
      <trkpt lat="43.04679" lon="3.05578">
        <ele>1</ele>
        <time>2012-10-24T10:35:08Z</time>
      </trkpt>
      <trkpt lat="43.04674" lon="3.05575">
        <ele>1</ele>
        <time>2012-10-24T10:35:14Z</time>
      </trkpt>
      <trkpt lat="43.04663" lon="3.0557">
        <ele>0.80000001192093</ele>
        <time>2012-10-24T10:35:24Z</time>
      </trkpt>
      <trkpt lat="43.04657" lon="3.05568">
        <ele>0.80000001192093</ele>
        <time>2012-10-24T10:35:30Z</time>
      </trkpt>
      <trkpt lat="43.04656" lon="3.05567">
        <ele>0.80000001192093</ele>
        <time>2012-10-24T10:35:31Z</time>
      </trkpt>
      <trkpt lat="43.04654" lon="3.05566">
        <ele>0.80000001192093</ele>
        <time>2012-10-24T10:35:34Z</time>
      </trkpt>
      <trkpt lat="43.04649" lon="3.05563">
        <ele>0.80000001192093</ele>
        <time>2012-10-24T10:35:37Z</time>
      </trkpt>
      <trkpt lat="43.04645" lon="3.0556">
        <ele>0.80000001192093</ele>
        <time>2012-10-24T10:35:42Z</time>
      </trkpt>
      <trkpt lat="43.04639" lon="3.05557">
        <ele>0.60000002384186</ele>
        <time>2012-10-24T10:35:48Z</time>
      </trkpt>
      <trkpt lat="43.04632" lon="3.05553">
        <ele>0.40000000596046</ele>
        <time>2012-10-24T10:35:55Z</time>
      </trkpt>
      <trkpt lat="43.04626" lon="3.05548">
        <ele>0.40000000596046</ele>
        <time>2012-10-24T10:36:00Z</time>
      </trkpt>
      <trkpt lat="43.04623" lon="3.05546">
        <ele>0.40000000596046</ele>
        <time>2012-10-24T10:36:03Z</time>
      </trkpt>
      <trkpt lat="43.0462" lon="3.05544">
        <ele>0.40000000596046</ele>
        <time>2012-10-24T10:36:05Z</time>
      </trkpt>
      <trkpt lat="43.0461" lon="3.05538">
        <ele>0.20000000298023</ele>
        <time>2012-10-24T10:36:14Z</time>
      </trkpt>
      <trkpt lat="43.04602" lon="3.05534">
        <ele>1.4</ele>
        <time>2012-10-24T10:36:20Z</time>
      </trkpt>
      <trkpt lat="43.04593" lon="3.05528">
        <ele>1.7</ele>
        <time>2012-10-24T10:36:28Z</time>
      </trkpt>
      <trkpt lat="43.04584" lon="3.05521">
        <ele>-0.20000000298023</ele>
        <time>2012-10-24T10:36:37Z</time>
      </trkpt>
      <trkpt lat="43.04583" lon="3.0552">
        <ele>-0.20000000298023</ele>
        <time>2012-10-24T10:36:38Z</time>
      </trkpt>
      <trkpt lat="43.04577" lon="3.05517">
        <ele>-0.20000000298023</ele>
        <time>2012-10-24T10:36:44Z</time>
      </trkpt>
      <trkpt lat="43.04571" lon="3.05514">
        <ele>-0.40000000596046</ele>
        <time>2012-10-24T10:36:49Z</time>
      </trkpt>
      <trkpt lat="43.04568" lon="3.05512">
        <ele>-0.40000000596046</ele>
        <time>2012-10-24T10:36:52Z</time>
      </trkpt>
      <trkpt lat="43.04564" lon="3.0551">
        <ele>-0.40000000596046</ele>
        <time>2012-10-24T10:36:55Z</time>
      </trkpt>
      <trkpt lat="43.04564" lon="3.05509">
        <ele>-0.40000000596046</ele>
        <time>2012-10-24T10:36:56Z</time>
      </trkpt>
      <trkpt lat="43.04553" lon="3.05502">
        <ele>-0.60000002384186</ele>
        <time>2012-10-24T10:37:05Z</time>
      </trkpt>
      <trkpt lat="43.04543" lon="3.05496">
        <ele>-1</ele>
        <time>2012-10-24T10:37:14Z</time>
      </trkpt>
      <trkpt lat="43.04535" lon="3.05491">
        <ele>-1.2000000476837</ele>
        <time>2012-10-24T10:37:21Z</time>
      </trkpt>
      <trkpt lat="43.04525" lon="3.05486">
        <ele>-1.2000000476837</ele>
        <time>2012-10-24T10:37:29Z</time>
      </trkpt>
      <trkpt lat="43.04516" lon="3.05478">
        <ele>-1.3999999761581</ele>
        <time>2012-10-24T10:37:38Z</time>
      </trkpt>
      <trkpt lat="43.04506" lon="3.05472">
        <ele>-1.3999999761581</ele>
        <time>2012-10-24T10:37:47Z</time>
      </trkpt>
      <trkpt lat="43.04498" lon="3.05466">
        <ele>-1.6000000238419</ele>
        <time>2012-10-24T10:37:54Z</time>
      </trkpt>
      <trkpt lat="43.04487" lon="3.0546">
        <ele>-1.6000000238419</ele>
        <time>2012-10-24T10:38:04Z</time>
      </trkpt>
      <trkpt lat="43.04478" lon="3.05454">
        <ele>-1.6000000238419</ele>
        <time>2012-10-24T10:38:11Z</time>
      </trkpt>
      <trkpt lat="43.04469" lon="3.05449">
        <ele>-1.3999999761581</ele>
        <time>2012-10-24T10:38:19Z</time>
      </trkpt>
      <trkpt lat="43.0446" lon="3.05443">
        <ele>-1.2000000476837</ele>
        <time>2012-10-24T10:38:27Z</time>
      </trkpt>
      <trkpt lat="43.04452" lon="3.05437">
        <ele>-1</ele>
        <time>2012-10-24T10:38:34Z</time>
      </trkpt>
      <trkpt lat="43.04441" lon="3.05431">
        <ele>-1</ele>
        <time>2012-10-24T10:38:43Z</time>
      </trkpt>
      <trkpt lat="43.04428" lon="3.05423">
        <ele>-1</ele>
        <time>2012-10-24T10:38:54Z</time>
      </trkpt>
      <trkpt lat="43.04419" lon="3.05418">
        <ele>-0.80000001192093</ele>
        <time>2012-10-24T10:39:03Z</time>
      </trkpt>
      <trkpt lat="43.04409" lon="3.05409">
        <ele>-0.80000001192093</ele>
        <time>2012-10-24T10:39:12Z</time>
      </trkpt>
      <trkpt lat="43.04404" lon="3.05404">
        <ele>-0.80000001192093</ele>
        <time>2012-10-24T10:39:21Z</time>
      </trkpt>
      <trkpt lat="43.04403" lon="3.05404">
        <ele>-0.60000002384186</ele>
        <time>2012-10-24T10:39:28Z</time>
      </trkpt>
      <trkpt lat="43.04399" lon="3.05402">
        <ele>-0.60000002384186</ele>
        <time>2012-10-24T10:39:31Z</time>
      </trkpt>
      <trkpt lat="43.04393" lon="3.05399">
        <ele>-0.60000002384186</ele>
        <time>2012-10-24T10:39:37Z</time>
      </trkpt>
      <trkpt lat="43.04392" lon="3.05398">
        <ele>-0.60000002384186</ele>
        <time>2012-10-24T10:39:38Z</time>
      </trkpt>
      <trkpt lat="43.0438" lon="3.05392">
        <ele>-0.80000001192093</ele>
        <time>2012-10-24T10:39:48Z</time>
      </trkpt>
      <trkpt lat="43.04367" lon="3.05383">
        <ele>-1.2000000476837</ele>
        <time>2012-10-24T10:40:01Z</time>
      </trkpt>
      <trkpt lat="43.04356" lon="3.05375">
        <ele>-1.6000000238419</ele>
        <time>2012-10-24T10:40:13Z</time>
      </trkpt>
      <trkpt lat="43.04348" lon="3.0537">
        <ele>-1.7999999523163</ele>
        <time>2012-10-24T10:40:22Z</time>
      </trkpt>
      <trkpt lat="43.0434" lon="3.05363">
        <ele>-2</ele>
        <time>2012-10-24T10:40:31Z</time>
      </trkpt>
      <trkpt lat="43.04327" lon="3.05354">
        <ele>-2.4000000953674</ele>
        <time>2012-10-24T10:40:42Z</time>
      </trkpt>
      <trkpt lat="43.04317" lon="3.05349">
        <ele>-2.5999999046326</ele>
        <time>2012-10-24T10:40:51Z</time>
      </trkpt>
      <trkpt lat="43.04307" lon="3.05343">
        <ele>-2.5999999046326</ele>
        <time>2012-10-24T10:41:00Z</time>
      </trkpt>
      <trkpt lat="43.04305" lon="3.05342">
        <ele>-2.5999999046326</ele>
        <time>2012-10-24T10:41:02Z</time>
      </trkpt>
      <trkpt lat="43.04301" lon="3.05339">
        <ele>-2.7999999523163</ele>
        <time>2012-10-24T10:41:06Z</time>
      </trkpt>
      <trkpt lat="43.04296" lon="3.05337">
        <ele>-2.5999999046326</ele>
        <time>2012-10-24T10:41:10Z</time>
      </trkpt>
      <trkpt lat="43.04293" lon="3.05336">
        <ele>-2.5999999046326</ele>
        <time>2012-10-24T10:41:13Z</time>
      </trkpt>
      <trkpt lat="43.0429" lon="3.05335">
        <ele>-2.5999999046326</ele>
        <time>2012-10-24T10:41:15Z</time>
      </trkpt>
      <trkpt lat="43.04285" lon="3.05331">
        <ele>-2.5999999046326</ele>
        <time>2012-10-24T10:41:20Z</time>
      </trkpt>
      <trkpt lat="43.04282" lon="3.05329">
        <ele>-2.5999999046326</ele>
        <time>2012-10-24T10:41:23Z</time>
      </trkpt>
      <trkpt lat="43.04279" lon="3.05327">
        <ele>-2.5999999046326</ele>
        <time>2012-10-24T10:41:26Z</time>
      </trkpt>
      <trkpt lat="43.04276" lon="3.05325">
        <ele>-2.5999999046326</ele>
        <time>2012-10-24T10:41:29Z</time>
      </trkpt>
      <trkpt lat="43.04269" lon="3.05321">
        <ele>-2.5999999046326</ele>
        <time>2012-10-24T10:41:35Z</time>
      </trkpt>
      <trkpt lat="43.04261" lon="3.05316">
        <ele>-2.5999999046326</ele>
        <time>2012-10-24T10:41:43Z</time>
      </trkpt>
      <trkpt lat="43.04252" lon="3.05311">
        <ele>-2.5999999046326</ele>
        <time>2012-10-24T10:41:52Z</time>
      </trkpt>
      <trkpt lat="43.04243" lon="3.05306">
        <ele>-2.5999999046326</ele>
        <time>2012-10-24T10:42:00Z</time>
      </trkpt>
      <trkpt lat="43.04241" lon="3.05306">
        <ele>-2.4000000953674</ele>
        <time>2012-10-24T10:42:02Z</time>
      </trkpt>
      <trkpt lat="43.04239" lon="3.05309">
        <ele>-2.4000000953674</ele>
        <time>2012-10-24T10:42:06Z</time>
      </trkpt>
      <trkpt lat="43.04239" lon="3.05311">
        <ele>-2.4000000953674</ele>
        <time>2012-10-24T10:42:07Z</time>
      </trkpt>
      <trkpt lat="43.04237" lon="3.05315">
        <ele>-2.4000000953674</ele>
        <time>2012-10-24T10:42:10Z</time>
      </trkpt>
      <trkpt lat="43.04237" lon="3.05321">
        <ele>-2.4000000953674</ele>
        <time>2012-10-24T10:42:14Z</time>
      </trkpt>
      <trkpt lat="43.04238" lon="3.05328">
        <ele>-2.2000000476837</ele>
        <time>2012-10-24T10:42:19Z</time>
      </trkpt>
      <trkpt lat="43.04238" lon="3.0533">
        <ele>-2</ele>
        <time>2012-10-24T10:42:21Z</time>
      </trkpt>
      <trkpt lat="43.04239" lon="3.05331">
        <ele>-2</ele>
        <time>2012-10-24T10:42:22Z</time>
      </trkpt>
      <trkpt lat="43.04242" lon="3.05331">
        <ele>-2</ele>
        <time>2012-10-24T10:42:25Z</time>
      </trkpt>
      <trkpt lat="43.04242" lon="3.0533">
        <ele>-2</ele>
        <time>2012-10-24T10:42:30Z</time>
      </trkpt>
      <trkpt lat="43.04245" lon="3.05331">
        <ele>-1.2000000476837</ele>
        <time>2012-10-24T10:42:54Z</time>
      </trkpt>
      <trkpt lat="43.04249" lon="3.05329">
        <ele>-1.3999999761581</ele>
        <time>2012-10-24T10:42:58Z</time>
      </trkpt>
      <trkpt lat="43.04253" lon="3.0533">
        <ele>-1.3999999761581</ele>
        <time>2012-10-24T10:43:04Z</time>
      </trkpt>
      <trkpt lat="43.04255" lon="3.05331">
        <ele>-1.3999999761581</ele>
        <time>2012-10-24T10:43:13Z</time>
      </trkpt>
      <trkpt lat="43.04258" lon="3.05335">
        <ele>1.2000000476837</ele>
        <time>2012-10-24T10:43:48Z</time>
      </trkpt>
    </trkseg>
  </trk>
</gpx>